Darstellungsparameter: Aktuell verwendete Einstellungen:
Skalierung der Graphiken ... ?
xyx+y,   Skalierungsfaktor:      Skalierung: Modus: x, Faktor: 1
Darstellungszeitraum ... ?
Vom - - bis: - -   Zeitraum: 01.03.2010 - 29.05.2010
Min/Max/Avg-Anzeige ... ?
Zeige MMA aktuell
Zeige MMA Monat
Zeige MMA alles
Zeige --A aktuell
Zeige --A Monat
Zeige --A alles
Keine MMA-Anzeige
MMA:
Average (ber die Originaldaten)
MMA-Basis: 01.03.2010 - 29.05.2010
Quicknavigation für Darstellung... ?
Tage:      1T, 2T, 3T, 5T -1T -2T -3T -5T +1T +2T +3T +5T
Wochen: 1W, 2W, 3W -1W -2W -3W +1W +2W +3W
Monate: 1M, 3M, 6M -1M -3M -6M +1M +3M +6M
Jahre:    1J, 3J, 5J, 10J -1J -3J -5J -10J +1J +3J +5J +10J
Nutze für die Darstellung ... ?
Originaldaten oder Mittelwerte auf ...
Stundenbasis Tagesbasis Wochenbasis
Monatsbasis Jahresbasis      Datenbasis: Original-Daten
Darstellen als:
Statistik (Auto) Statistik J:M      Darstellung:
Zur Graphik,    zurück zur Übersicht aller Sensoren.
 
Tabellarische Datenbersicht: ?
 
Sensor: Nr:Datum:Temp:Abs-Feuchte:Windchill:Wind:
Aussen-T/F 1 01-03-2010 00:08:03 6.3 C 4.89 g/m*3 6.3 C 0 km/h
2 01-03-2010 00:20:04 6.1 C 4.89 g/m*3 6.1 C 0 km/h
3 01-03-2010 00:32:04 6.2 C 4.85 g/m*3 6.2 C 0 km/h
4 01-03-2010 00:44:04 6.1 C 4.75 g/m*3 6.1 C 0 km/h
5 01-03-2010 00:56:04 6.1 C 4.6 g/m*3 6.1 C 0 km/h
6 01-03-2010 01:08:04 5.9 C 4.76 g/m*3 5.9 C 0 km/h
7 01-03-2010 01:20:04 5.7 C 4.7 g/m*3 5.7 C 0 km/h
8 01-03-2010 01:32:04 5.8 C 4.37 g/m*3 5.8 C 0 km/h
9 01-03-2010 01:44:04 5.7 C 4.34 g/m*3 5.7 C 0 km/h
10 01-03-2010 01:56:04 5.8 C 4.23 g/m*3 5.8 C 0 km/h
11 01-03-2010 02:08:04 5.8 C 4.23 g/m*3 5.8 C 0 km/h
12 01-03-2010 02:20:04 5.7 C 3.99 g/m*3 5.7 C 0 km/h
13 01-03-2010 02:32:04 5.6 C 3.96 g/m*3 5.6 C 0 km/h
14 01-03-2010 02:44:05 5.5 C 3.93 g/m*3 5.5 C 0 km/h
15 01-03-2010 02:56:05 5.4 C 4.05 g/m*3 5.4 C 0 km/h
16 01-03-2010 03:08:05 5.3 C 4.09 g/m*3 5.3 C 0 km/h
17 01-03-2010 03:20:05 5 C 4.14 g/m*3 5 C 0 km/h
18 01-03-2010 03:32:05 5 C 4.14 g/m*3 5 C 0 km/h
19 01-03-2010 03:44:05 4.9 C 4.12 g/m*3 4.9 C 0 km/h
20 01-03-2010 03:56:05 4.8 C 4.09 g/m*3 4.8 C 0 km/h
21 01-03-2010 04:08:05 4.7 C 4.13 g/m*3 4.7 C 0 km/h
22 01-03-2010 04:20:05 4.6 C 4.17 g/m*3 4.6 C 0 km/h
23 01-03-2010 04:32:05 4.6 C 4.23 g/m*3 4.6 C 0 km/h
24 01-03-2010 04:44:05 4.7 C 4.33 g/m*3 4.7 C 0 km/h
25 01-03-2010 04:56:05 4.8 C 4.36 g/m*3 4.8 C 0 km/h
Sensor: Nr:Datum:Temp:Abs-Feuchte:Windchill:Wind:
Aussen-T/F 26 01-03-2010 05:08:05 4.4 C 4.7 g/m*3 4.4 C 0 km/h
27 01-03-2010 05:20:05 4.1 C 4.99 g/m*3 4.1 C 0 km/h
28 01-03-2010 05:32:05 3.8 C 5.08 g/m*3 3.8 C 0 km/h
29 01-03-2010 05:44:05 3.5 C 5.04 g/m*3 3.5 C 0 km/h
30 01-03-2010 05:56:05 3.5 C 5.04 g/m*3 3.5 C 0 km/h
31 01-03-2010 06:08:05 3.4 C 5.01 g/m*3 3.4 C 0 km/h
32 01-03-2010 06:20:05 3.4 C 5.01 g/m*3 3.4 C 0 km/h
33 01-03-2010 06:32:05 3.6 C 4.89 g/m*3 3.6 C 0 km/h
34 01-03-2010 06:44:05 3.8 C 4.77 g/m*3 3.8 C 0 km/h
35 01-03-2010 06:56:05 4 C 4.64 g/m*3 4 C 0 km/h
36 01-03-2010 07:08:05 4.1 C 4.48 g/m*3 4.1 C 0 km/h
37 01-03-2010 07:20:03 4.2 C 4.38 g/m*3 4.2 C 0 km/h
38 01-03-2010 07:32:03 4.2 C 4.12 g/m*3 4.2 C 0 km/h
39 01-03-2010 07:44:03 4.4 C 3.92 g/m*3 4.4 C 0 km/h
40 01-03-2010 07:56:02 4.6 C 3.77 g/m*3 4.6 C 0 km/h
41 01-03-2010 08:08:02 4.6 C 3.71 g/m*3 4.6 C 0 km/h
42 01-03-2010 08:20:02 4.8 C 3.69 g/m*3 4.8 C 0 km/h
43 01-03-2010 08:32:02 4.9 C 3.71 g/m*3 4.9 C 0 km/h
44 01-03-2010 08:44:02 5 C 3.67 g/m*3 5 C 0 km/h
45 01-03-2010 08:56:01 5.1 C 3.69 g/m*3 5.1 C 0 km/h
46 01-03-2010 09:08:02 5.2 C 3.86 g/m*3 5.2 C 0 km/h
47 01-03-2010 09:20:01 5.3 C 4.02 g/m*3 5.3 C 0 km/h
48 01-03-2010 09:32:02 5.4 C 3.91 g/m*3 5.4 C 0 km/h
49 01-03-2010 09:44:02 5.6 C 3.96 g/m*3 5.6 C 0 km/h
50 01-03-2010 09:56:01 5.8 C 4.01 g/m*3 5.8 C 0 km/h
Sensor: Nr:Datum:Temp:Abs-Feuchte:Windchill:Wind:
Aussen-T/F 51 01-03-2010 10:08:02 6 C 3.7 g/m*3 6 C 0 km/h
52 01-03-2010 10:20:01 6.2 C 3.6 g/m*3 6.2 C 0 km/h
53 01-03-2010 10:32:02 6.4 C 3.65 g/m*3 6.4 C 0 km/h
54 01-03-2010 10:44:02 6.3 C 3.48 g/m*3 6.3 C 0 km/h
55 01-03-2010 10:56:01 6.4 C 3.5 g/m*3 6.4 C 0 km/h
56 01-03-2010 11:08:02 6.7 C 3.5 g/m*3 6.7 C 0 km/h
57 01-03-2010 11:20:02 6.6 C 3.47 g/m*3 6.6 C 0 km/h
58 01-03-2010 11:32:02 6.3 C 3.41 g/m*3 6.3 C 0 km/h
59 01-03-2010 11:44:02 6.6 C 3.47 g/m*3 6.6 C 0 km/h
60 01-03-2010 11:56:01 7 C 3.33 g/m*3 7 C 0 km/h
61 01-03-2010 12:08:02 7 C 3.33 g/m*3 7 C 0 km/h
62 01-03-2010 12:20:02 7.2 C 3.3 g/m*3 7.2 C 0 km/h
63 01-03-2010 12:32:01 7.5 C 3.2 g/m*3 7.5 C 0 km/h
64 01-03-2010 12:44:01 7.9 C 3.2 g/m*3 7.9 C 0 km/h
65 01-03-2010 12:56:02 7.8 C 3.18 g/m*3 7.8 C 0 km/h
66 01-03-2010 13:08:01 7.7 C 3.16 g/m*3 7.7 C 0 km/h
67 01-03-2010 13:20:02 8 C 3.14 g/m*3 8 C 0 km/h
68 01-03-2010 13:32:01 8 C 3.06 g/m*3 8 C 0 km/h
69 01-03-2010 13:44:01 7.8 C 3.02 g/m*3 7.8 C 0 km/h
70 01-03-2010 13:56:01 7.7 C 3 g/m*3 7.7 C 0 km/h
71 01-03-2010 14:08:01 7.3 C 3.16 g/m*3 7.3 C 0 km/h
72 01-03-2010 14:20:01 7.1 C 3.2 g/m*3 7.1 C 0 km/h
73 01-03-2010 14:32:02 7.6 C 3.22 g/m*3 7.6 C 0 km/h
74 01-03-2010 14:44:02 7.5 C 3.2 g/m*3 7.5 C 0 km/h
75 01-03-2010 14:56:02 7.4 C 3.18 g/m*3 7.4 C 0 km/h
Sensor: Nr:Datum:Temp:Abs-Feuchte:Windchill:Wind:
Aussen-T/F 76 01-03-2010 15:08:02 7.3 C 3.24 g/m*3 7.3 C 0 km/h
77 01-03-2010 15:20:02 7.6 C 3.3 g/m*3 7.6 C 0 km/h
78 01-03-2010 15:32:02 7.5 C 3.28 g/m*3 7.5 C 0 km/h
79 01-03-2010 15:44:02 7.4 C 3.1 g/m*3 7.4 C 0 km/h
80 01-03-2010 15:56:02 7.3 C 3 g/m*3 7.3 C 0 km/h
81 01-03-2010 16:08:01 7.3 C 3.08 g/m*3 7.3 C 0 km/h
82 01-03-2010 16:20:02 7.3 C 3.08 g/m*3 7.3 C 0 km/h
83 01-03-2010 16:32:02 7.3 C 3.08 g/m*3 7.3 C 0 km/h
84 01-03-2010 16:44:02 7.3 C 3.08 g/m*3 7.3 C 0 km/h
85 01-03-2010 16:56:02 7.2 C 3.06 g/m*3 7.2 C 0 km/h
86 01-03-2010 17:08:03 7.1 C 3.12 g/m*3 7.1 C 0 km/h
87 01-03-2010 17:20:02 6.9 C 3.08 g/m*3 6.9 C 0 km/h
88 01-03-2010 17:32:02 6.8 C 3.06 g/m*3 6.8 C 0 km/h
89 01-03-2010 17:44:02 6.8 C 3.14 g/m*3 6.8 C 0 km/h
90 01-03-2010 17:56:01 6.7 C 3.12 g/m*3 6.7 C 0 km/h
91 01-03-2010 18:08:02 6.5 C 3.22 g/m*3 6.5 C 0 km/h
92 01-03-2010 18:20:01 6.4 C 3.5 g/m*3 6.4 C 0 km/h
93 01-03-2010 18:32:01 6 C 3.56 g/m*3 6 C 0 km/h
94 01-03-2010 18:44:01 5.8 C 3.72 g/m*3 5.8 C 0 km/h
95 01-03-2010 18:56:01 5.7 C 3.77 g/m*3 5.7 C 0 km/h
96 01-03-2010 19:08:02 5.6 C 3.68 g/m*3 5.6 C 0 km/h
97 01-03-2010 19:20:01 5.6 C 3.53 g/m*3 5.6 C 0 km/h
98 01-03-2010 19:32:02 5.4 C 3.56 g/m*3 5.4 C 0 km/h
99 01-03-2010 19:44:02 5.3 C 3.53 g/m*3 5.3 C 0 km/h
100 01-03-2010 19:56:02 5.1 C 3.42 g/m*3 5.1 C 0 km/h
Sensor: Nr:Datum:Temp:Abs-Feuchte:Windchill:Wind:
Aussen-T/F 101 01-03-2010 20:08:03 5 C 3.4 g/m*3 5 C 0 km/h
102 01-03-2010 20:20:02 5.1 C 3.42 g/m*3 5.1 C 0 km/h
103 01-03-2010 20:32:02 4.6 C 3.44 g/m*3 4.6 C 0 km/h
104 01-03-2010 20:44:02 4.4 C 3.46 g/m*3 4.4 C 0 km/h
105 01-03-2010 20:56:02 4.4 C 3.4 g/m*3 4.4 C 0 km/h
106 01-03-2010 21:08:02 3.8 C 3.51 g/m*3 3.8 C 0 km/h
107 01-03-2010 21:20:02 3.4 C 3.54 g/m*3 3.4 C 0 km/h
108 01-03-2010 21:32:01 3.4 C 3.6 g/m*3 3.4 C 0 km/h
109 01-03-2010 21:44:01 3.3 C 3.64 g/m*3 3.3 C 0 km/h
110 01-03-2010 21:56:02 3.1 C 3.71 g/m*3 3.1 C 0 km/h
111 01-03-2010 22:08:02 2.8 C 3.64 g/m*3 2.8 C 0 km/h
112 01-03-2010 22:21:03 2.6 C 3.82 g/m*3 2.6 C 0 km/h
113 01-03-2010 22:33:03 2.4 C 3.83 g/m*3 2.4 C 0 km/h
114 01-03-2010 22:45:03 2.1 C 3.86 g/m*3 2.1 C 0 km/h
115 01-03-2010 22:57:03 2 C 3.89 g/m*3 2 C 0 km/h
116 01-03-2010 23:09:03 1.8 C 3.95 g/m*3 1.8 C 0 km/h
117 01-03-2010 23:21:03 1.5 C 3.92 g/m*3 1.5 C 0 km/h
118 01-03-2010 23:33:03 1.2 C 3.89 g/m*3 1.2 C 0 km/h
119 01-03-2010 23:45:03 1.1 C 3.92 g/m*3 1.1 C 0 km/h
120 01-03-2010 23:57:03 1.1 C 3.97 g/m*3 1.1 C 0 km/h
121 02-03-2010 00:09:03 0.9 C 3.97 g/m*3 0.9 C 0 km/h
122 02-03-2010 00:21:03 0.7 C 3.97 g/m*3 0.7 C 0 km/h
123 02-03-2010 00:33:03 0.5 C 3.96 g/m*3 0.5 C 0 km/h
124 02-03-2010 00:45:03 0.2 C 3.88 g/m*3 0.2 C 0 km/h
125 02-03-2010 00:57:03 0.2 C 3.88 g/m*3 0.2 C 0 km/h
Sensor: Nr:Datum:Temp:Abs-Feuchte:Windchill:Wind:
Aussen-T/F 126 02-03-2010 01:09:03 0.1 C 3.9 g/m*3 0.1 C 0 km/h
127 02-03-2010 01:21:03 0.2 C 3.98 g/m*3 0.2 C 0 km/h
128 02-03-2010 01:33:03 0.3 C 4.01 g/m*3 0.3 C 0 km/h
129 02-03-2010 01:45:03 0 C 3.92 g/m*3 0 C 0 km/h
130 02-03-2010 01:57:03 0 C 3.97 g/m*3 0 C 0 km/h
131 02-03-2010 02:09:03 0 C 3.97 g/m*3 0 C 0 km/h
132 02-03-2010 02:21:04 -0.2 C 3.92 g/m*3 -0.2 C 0 km/h
133 02-03-2010 02:33:04 -0.2 C 3.97 g/m*3 -0.2 C 0 km/h
134 02-03-2010 02:45:04 -0.4 C 3.91 g/m*3 -0.4 C 0 km/h
135 02-03-2010 02:57:04 -0.6 C 3.86 g/m*3 -0.6 C 0 km/h
136 02-03-2010 03:09:04 -0.7 C 3.83 g/m*3 -0.7 C 0 km/h
137 02-03-2010 03:21:04 -0.6 C 3.86 g/m*3 -0.6 C 0 km/h
138 02-03-2010 03:33:04 -0.7 C 3.83 g/m*3 -0.7 C 0 km/h
139 02-03-2010 03:45:04 -0.9 C 3.82 g/m*3 -0.9 C 0 km/h
140 02-03-2010 03:57:04 -1 C 3.8 g/m*3 -1 C 0 km/h
141 02-03-2010 04:09:04 -1.3 C 3.72 g/m*3 -1.3 C 0 km/h
142 02-03-2010 04:21:04 -1.3 C 3.72 g/m*3 -1.3 C 0 km/h
143 02-03-2010 04:33:04 -1.4 C 3.69 g/m*3 -1.4 C 0 km/h
144 02-03-2010 04:45:04 -1.2 C 3.79 g/m*3 -1.2 C 0 km/h
145 02-03-2010 04:57:04 -1.2 C 3.79 g/m*3 -1.2 C 0 km/h
146 02-03-2010 05:09:04 -1.1 C 3.86 g/m*3 -1.1 C 0 km/h
147 02-03-2010 05:21:04 -1.1 C 3.86 g/m*3 -1.1 C 0 km/h
148 02-03-2010 05:33:04 -1.1 C 3.86 g/m*3 -1.1 C 0 km/h
149 02-03-2010 05:45:04 -1.1 C 3.86 g/m*3 -1.1 C 0 km/h
150 02-03-2010 05:57:04 -1.4 C 3.74 g/m*3 -1.4 C 0 km/h
Sensor: Nr:Datum:Temp:Abs-Feuchte:Windchill:Wind:
Aussen-T/F 151 02-03-2010 06:09:04 -1.6 C 3.68 g/m*3 -1.6 C 0 km/h
152 02-03-2010 06:21:04 -1.7 C 3.66 g/m*3 -1.7 C 0 km/h
153 02-03-2010 06:33:05 -1.8 C 3.63 g/m*3 -1.8 C 0 km/h
154 02-03-2010 06:45:05 -1.9 C 3.65 g/m*3 -1.9 C 0 km/h
155 02-03-2010 06:57:05 -1.9 C 3.65 g/m*3 -1.9 C 0 km/h
156 02-03-2010 07:09:02 -2 C 3.63 g/m*3 -2 C 0 km/h
157 02-03-2010 07:21:03 -1.8 C 3.72 g/m*3 -1.8 C 0 km/h
158 02-03-2010 07:33:02 -1.8 C 3.72 g/m*3 -1.8 C 0 km/h
159 02-03-2010 07:45:02 -1.6 C 3.77 g/m*3 -1.6 C 0 km/h
160 02-03-2010 07:57:02 -1.2 C 3.92 g/m*3 -1.2 C 0 km/h
161 02-03-2010 08:09:02 -0.9 C 4.01 g/m*3 -0.9 C 0 km/h
162 02-03-2010 08:21:02 -0.7 C 4.06 g/m*3 -0.7 C 0 km/h
163 02-03-2010 08:33:03 -0.7 C 4.06 g/m*3 -0.7 C 0 km/h
164 02-03-2010 08:45:02 -0.6 C 4.09 g/m*3 -0.6 C 0 km/h
165 02-03-2010 08:57:03 -0.6 C 4.09 g/m*3 -0.6 C 0 km/h
166 02-03-2010 09:09:01 -0.5 C 4.07 g/m*3 -0.5 C 0 km/h
167 02-03-2010 09:21:02 0 C 4.26 g/m*3 0 C 0 km/h
168 02-03-2010 09:33:02 0.1 C 4.24 g/m*3 0.1 C 0 km/h
169 02-03-2010 09:45:02 -0.1 C 4.14 g/m*3 -0.1 C 0 km/h
170 02-03-2010 09:57:02 -0.1 C 4.14 g/m*3 -0.1 C 0 km/h
171 02-03-2010 10:09:03 0.3 C 4.25 g/m*3 0.3 C 0 km/h
172 02-03-2010 10:21:02 0.7 C 4.32 g/m*3 0.7 C 0 km/h
173 02-03-2010 10:33:02 1.2 C 4.42 g/m*3 1.2 C 0 km/h
174 02-03-2010 10:45:01 1.6 C 4.49 g/m*3 1.6 C 0 km/h
175 02-03-2010 10:57:01 2.1 C 4.48 g/m*3 2.1 C 0 km/h
Sensor: Nr:Datum:Temp:Abs-Feuchte:Windchill:Wind:
Aussen-T/F 176 02-03-2010 11:09:02 2.6 C 4.57 g/m*3 2.6 C 0 km/h
177 02-03-2010 11:21:01 3.1 C 4.61 g/m*3 3.1 C 0 km/h
178 02-03-2010 11:33:02 4 C 4.7 g/m*3 4 C 0 km/h
179 02-03-2010 11:45:02 4 C 4.51 g/m*3 4 C 0 km/h
180 02-03-2010 11:57:02 4.2 C 4.25 g/m*3 4.2 C 0 km/h
181 02-03-2010 12:09:02 5.1 C 3.63 g/m*3 5.1 C 0 km/h
182 02-03-2010 12:21:01 6.1 C 3.29 g/m*3 6.1 C 0 km/h
183 02-03-2010 12:33:02 6.3 C 3.26 g/m*3 6.3 C 0 km/h
184 02-03-2010 12:45:02 7 C 3.02 g/m*3 7 C 0 km/h
185 02-03-2010 12:57:02 7.4 C 2.86 g/m*3 7.4 C 0 km/h
186 02-03-2010 13:09:02 8.1 C 2.91 g/m*3 8.1 C 0 km/h
187 02-03-2010 13:21:01 9.1 C 2.75 g/m*3 9.1 C 0 km/h
188 02-03-2010 13:33:02 8.5 C 2.65 g/m*3 8.5 C 0 km/h
189 02-03-2010 13:45:01 9.5 C 2.73 g/m*3 9.5 C 0 km/h
190 02-03-2010 13:57:01 10.3 C 2.49 g/m*3 10.3 C 0 km/h
191 02-03-2010 14:09:02 10.2 C 2.38 g/m*3 10.2 C 0 km/h
192 02-03-2010 14:21:02 10.1 C 2.65 g/m*3 10.1 C 0 km/h
193 02-03-2010 14:33:02 9.5 C 2.28 g/m*3 9.5 C 0 km/h
194 02-03-2010 14:45:02 9.5 C 2.46 g/m*3 9.5 C 0 km/h
195 02-03-2010 14:57:02 9 C 2.29 g/m*3 9 C 0 km/h
196 02-03-2010 15:09:02 8.7 C 2.42 g/m*3 8.7 C 0 km/h
197 02-03-2010 15:21:02 9.5 C 2.55 g/m*3 9.5 C 0 km/h
198 02-03-2010 15:33:01 10.3 C 2.49 g/m*3 10.3 C 0 km/h
199 02-03-2010 15:45:02 11 C 2.4 g/m*3 11 C 0 km/h
200 02-03-2010 15:57:02 10.7 C 1.96 g/m*3 10.7 C 0 km/h
Sensor: Nr:Datum:Temp:Abs-Feuchte:Windchill:Wind:
Aussen-T/F 201 02-03-2010 16:09:01 9.7 C 1.84 g/m*3 9.7 C 0 km/h
202 02-03-2010 16:21:02 9.5 C 1.82 g/m*3 9.5 C 0 km/h
203 02-03-2010 16:33:01 8.7 C 2.51 g/m*3 8.7 C 0 km/h
204 02-03-2010 16:45:02 8.4 C 2.63 g/m*3 8.4 C 0 km/h
205 02-03-2010 16:57:03 8.7 C 2.77 g/m*3 8.7 C 0 km/h
206 02-03-2010 17:09:02 8.7 C 2.77 g/m*3 8.7 C 0 km/h
207 02-03-2010 17:21:02 9 C 2.73 g/m*3 9 C 0 km/h
208 02-03-2010 17:33:02 8.4 C 2.71 g/m*3 8.4 C 0 km/h
209 02-03-2010 17:45:02 8.2 C 2.93 g/m*3 8.2 C 0 km/h
210 02-03-2010 17:57:03 7.9 C 2.96 g/m*3 7.9 C 0 km/h
211 02-03-2010 18:09:01 7.5 C 3.04 g/m*3 7.5 C 0 km/h
212 02-03-2010 18:21:02 7 C 3.1 g/m*3 7 C 0 km/h
213 02-03-2010 18:33:02 6.5 C 3.3 g/m*3 6.5 C 0 km/h
214 02-03-2010 18:45:02 6.2 C 3.38 g/m*3 6.2 C 0 km/h
215 02-03-2010 18:57:02 5.9 C 3.53 g/m*3 5.9 C 0 km/h
216 02-03-2010 19:09:01 5.9 C 3.53 g/m*3 5.9 C 0 km/h
217 02-03-2010 19:21:02 5.9 C 3.39 g/m*3 5.9 C 0 km/h
218 02-03-2010 19:33:02 5.8 C 3.3 g/m*3 5.8 C 0 km/h
219 02-03-2010 19:45:01 5.8 C 3.3 g/m*3 5.8 C 0 km/h
220 02-03-2010 19:57:01 5.8 C 3.3 g/m*3 5.8 C 0 km/h
221 02-03-2010 20:09:02 6 C 3.19 g/m*3 6 C 0 km/h
222 02-03-2010 20:21:01 5.8 C 3.22 g/m*3 5.8 C 0 km/h
223 02-03-2010 20:33:01 5.5 C 3.3 g/m*3 5.5 C 0 km/h
224 02-03-2010 20:45:01 5 C 3.47 g/m*3 5 C 0 km/h
225 02-03-2010 20:57:02 4.4 C 3.66 g/m*3 4.4 C 0 km/h
Sensor: Nr:Datum:Temp:Abs-Feuchte:Windchill:Wind:
Aussen-T/F 226 02-03-2010 21:09:01 4.3 C 3.83 g/m*3 4.3 C 0 km/h
227 02-03-2010 21:21:02 3.8 C 4.02 g/m*3 3.8 C 0 km/h
228 02-03-2010 21:33:02 3.2 C 4.34 g/m*3 3.2 C 0 km/h
229 02-03-2010 21:45:02 2.9 C 4.43 g/m*3 2.9 C 0 km/h
230 02-03-2010 21:57:02 2.7 C 4.43 g/m*3 2.7 C 0 km/h
231 02-03-2010 22:10:02 2.5 C 4.37 g/m*3 2.5 C 0 km/h
232 02-03-2010 22:22:02 2.5 C 4.43 g/m*3 2.5 C 0 km/h
233 02-03-2010 22:34:02 2.4 C 4.34 g/m*3 2.4 C 0 km/h
234 02-03-2010 22:46:02 2.2 C 4.34 g/m*3 2.2 C 0 km/h
235 02-03-2010 22:58:02 2 C 4.28 g/m*3 2 C 0 km/h
236 02-03-2010 23:10:02 1.8 C 4.28 g/m*3 1.8 C 0 km/h
237 02-03-2010 23:22:02 1.7 C 4.3 g/m*3 1.7 C 0 km/h
238 02-03-2010 23:34:02 1.5 C 4.24 g/m*3 1.5 C 0 km/h
239 02-03-2010 23:46:02 1.3 C 4.19 g/m*3 1.3 C 0 km/h
240 02-03-2010 23:58:02 1.3 C 4.13 g/m*3 1.3 C 0 km/h
241 03-03-2010 00:10:03 1.1 C 4.08 g/m*3 1.1 C 0 km/h
242 03-03-2010 00:22:03 1.2 C 4.05 g/m*3 1.2 C 0 km/h
243 03-03-2010 00:34:03 1.1 C 3.92 g/m*3 1.1 C 0 km/h
244 03-03-2010 00:46:03 0.9 C 3.87 g/m*3 0.9 C 0 km/h
245 03-03-2010 00:58:03 0.9 C 3.81 g/m*3 0.9 C 0 km/h
246 03-03-2010 01:10:03 0.8 C 3.79 g/m*3 0.8 C 0 km/h
247 03-03-2010 01:22:03 0.5 C 3.71 g/m*3 0.5 C 0 km/h
248 03-03-2010 01:34:03 0.3 C 3.66 g/m*3 0.3 C 0 km/h
249 03-03-2010 01:46:03 0.1 C 3.66 g/m*3 0.1 C 0 km/h
250 03-03-2010 01:58:03 -0.1 C 3.66 g/m*3 -0.1 C 0 km/h
Sensor: Nr:Datum:Temp:Abs-Feuchte:Windchill:Wind:
Aussen-T/F 251 03-03-2010 02:10:03 0 C 3.78 g/m*3 0 C 0 km/h
252 03-03-2010 02:22:03 -0.1 C 3.8 g/m*3 -0.1 C 0 km/h
253 03-03-2010 02:34:03 -0.4 C 3.72 g/m*3 -0.4 C 0 km/h
254 03-03-2010 02:46:03 -0.5 C 3.74 g/m*3 -0.5 C 0 km/h
255 03-03-2010 02:58:03 -0.6 C 3.76 g/m*3 -0.6 C 0 km/h
256 03-03-2010 03:10:03 -0.7 C 3.74 g/m*3 -0.7 C 0 km/h
257 03-03-2010 03:22:03 -0.9 C 3.69 g/m*3 -0.9 C 0 km/h
258 03-03-2010 03:34:03 -0.9 C 3.73 g/m*3 -0.9 C 0 km/h
259 03-03-2010 03:46:03 -1 C 3.71 g/m*3 -1 C 0 km/h
260 03-03-2010 03:58:04 -1.1 C 3.68 g/m*3 -1.1 C 0 km/h
261 03-03-2010 04:10:04 -1.2 C 3.7 g/m*3 -1.2 C 0 km/h
262 03-03-2010 04:22:04 -1.3 C 3.67 g/m*3 -1.3 C 0 km/h
263 03-03-2010 04:34:04 -1.5 C 3.62 g/m*3 -1.5 C 0 km/h
264 03-03-2010 04:46:04 -1.4 C 3.69 g/m*3 -1.4 C 0 km/h
265 03-03-2010 04:58:04 -1.6 C 3.64 g/m*3 -1.6 C 0 km/h
266 03-03-2010 05:10:04 -1.7 C 3.62 g/m*3 -1.7 C 0 km/h
267 03-03-2010 05:22:04 -2 C 3.54 g/m*3 -2 C 0 km/h
268 03-03-2010 05:34:04 -2 C 3.54 g/m*3 -2 C 0 km/h
269 03-03-2010 05:46:04 -2.1 C 3.52 g/m*3 -2.1 C 0 km/h
270 03-03-2010 05:58:04 -2.1 C 3.56 g/m*3 -2.1 C 0 km/h
271 03-03-2010 06:10:04 -2.2 C 3.53 g/m*3 -2.2 C 0 km/h
272 03-03-2010 06:22:04 -1.8 C 3.68 g/m*3 -1.8 C 0 km/h
273 03-03-2010 06:34:04 -1.4 C 3.82 g/m*3 -1.4 C 0 km/h
274 03-03-2010 06:46:04 -1.1 C 3.91 g/m*3 -1.1 C 0 km/h
275 03-03-2010 06:58:04 -1.1 C 3.91 g/m*3 -1.1 C 0 km/h
Sensor: Nr:Datum:Temp:Abs-Feuchte:Windchill:Wind:
Aussen-T/F 276 03-03-2010 07:10:02 -1.1 C 3.86 g/m*3 -1.1 C 0 km/h
277 03-03-2010 07:22:02 -1.1 C 3.86 g/m*3 -1.1 C 0 km/h
278 03-03-2010 07:34:02 -1.1 C 3.82 g/m*3 -1.1 C 0 km/h
279 03-03-2010 07:46:02 -1.3 C 3.72 g/m*3 -1.3 C 0 km/h
280 03-03-2010 07:58:02 -1.5 C 3.67 g/m*3 -1.5 C 0 km/h
281 03-03-2010 08:10:02 -1.4 C 3.69 g/m*3 -1.4 C 0 km/h
282 03-03-2010 08:22:02 -1.3 C 3.72 g/m*3 -1.3 C 0 km/h
283 03-03-2010 08:34:02 -1.2 C 3.79 g/m*3 -1.2 C 0 km/h
284 03-03-2010 08:46:02 -0.7 C 3.92 g/m*3 -0.7 C 0 km/h
285 03-03-2010 08:58:02 0.1 C 4.2 g/m*3 0.1 C 0 km/h
286 03-03-2010 09:10:01 0.6 C 4.29 g/m*3 0.6 C 0 km/h
287 03-03-2010 09:22:02 0.8 C 4.15 g/m*3 0.8 C 0 km/h
288 03-03-2010 09:34:02 1 C 3.84 g/m*3 1 C 0 km/h
289 03-03-2010 09:46:02 1.2 C 3.68 g/m*3 1.2 C 0 km/h
290 03-03-2010 09:58:02 1.5 C 3.54 g/m*3 1.5 C 0 km/h
291 03-03-2010 10:10:03 1.4 C 3.41 g/m*3 1.4 C 0 km/h
292 03-03-2010 10:22:02 1.1 C 3.4 g/m*3 1.1 C 0 km/h
293 03-03-2010 10:34:02 1.2 C 3.47 g/m*3 1.2 C 0 km/h
294 03-03-2010 10:46:01 1.3 C 3.5 g/m*3 1.3 C 0 km/h
295 03-03-2010 10:58:01 1.7 C 3.54 g/m*3 1.7 C 0 km/h
296 03-03-2010 11:10:02 2.2 C 3.49 g/m*3 2.2 C 0 km/h
297 03-03-2010 11:22:01 2.5 C 3.45 g/m*3 2.5 C 0 km/h
298 03-03-2010 11:34:01 2.8 C 3.46 g/m*3 2.8 C 0 km/h
299 03-03-2010 11:46:01 3.1 C 3.35 g/m*3 3.1 C 0 km/h
300 03-03-2010 11:58:01 3.7 C 3.24 g/m*3 3.7 C 0 km/h
Sensor: Nr:Datum:Temp:Abs-Feuchte:Windchill:Wind:
Aussen-T/F 301 03-03-2010 12:10:02 4.3 C 3.24 g/m*3 4.3 C 0 km/h
302 03-03-2010 12:22:01 4.8 C 3.22 g/m*3 4.8 C 0 km/h
303 03-03-2010 12:34:02 5.1 C 3.15 g/m*3 5.1 C 0 km/h
304 03-03-2010 12:46:01 5.8 C 3.15 g/m*3 5.8 C 0 km/h
305 03-03-2010 12:58:01 6.5 C 3 g/m*3 6.5 C 0 km/h
306 03-03-2010 13:10:02 7 C 2.94 g/m*3 7 C 0 km/h
307 03-03-2010 13:22:01 7.8 C 2.86 g/m*3 7.8 C 0 km/h
308 03-03-2010 13:34:02 8.5 C 2.48 g/m*3 8.5 C 0 km/h
309 03-03-2010 13:46:01 8.9 C 2.19 g/m*3 8.9 C 0 km/h
310 03-03-2010 13:58:01 9.1 C 1.77 g/m*3 9.1 C 0 km/h
311 03-03-2010 14:10:02 9.4 C 1.81 g/m*3 9.4 C 0 km/h
312 03-03-2010 14:22:02 9.8 C 1.86 g/m*3 9.8 C 0 km/h
313 03-03-2010 14:34:01 10.3 C 1.92 g/m*3 10.3 C 0 km/h
314 03-03-2010 14:46:02 10.5 C 1.94 g/m*3 10.5 C 0 km/h
315 03-03-2010 14:58:02 10.2 C 1.9 g/m*3 10.2 C 0 km/h
316 03-03-2010 15:10:01 10.7 C 1.96 g/m*3 10.7 C 0 km/h
317 03-03-2010 15:22:02 11 C 2 g/m*3 11 C 0 km/h
318 03-03-2010 15:34:01 11 C 2 g/m*3 11 C 0 km/h
319 03-03-2010 15:46:03 10.5 C 1.94 g/m*3 10.5 C 0 km/h
320 03-03-2010 15:58:03 11 C 2 g/m*3 11 C 0 km/h
321 03-03-2010 16:10:02 11.2 C 2.03 g/m*3 11.2 C 0 km/h
322 03-03-2010 16:22:02 11.5 C 2.07 g/m*3 11.5 C 0 km/h
323 03-03-2010 16:34:02 11.1 C 2.01 g/m*3 11.1 C 0 km/h
324 03-03-2010 16:46:02 10.3 C 1.92 g/m*3 10.3 C 0 km/h
325 03-03-2010 16:58:02 10.3 C 1.92 g/m*3 10.3 C 0 km/h
Sensor: Nr:Datum:Temp:Abs-Feuchte:Windchill:Wind:
Aussen-T/F 326 03-03-2010 17:10:01 9.3 C 1.8 g/m*3 9.3 C 0 km/h
327 03-03-2010 17:22:02 8.5 C 1.71 g/m*3 8.5 C 0 km/h
328 03-03-2010 17:34:02 7.8 C 1.63 g/m*3 7.8 C 0 km/h
329 03-03-2010 17:46:02 7.2 C 1.96 g/m*3 7.2 C 0 km/h
330 03-03-2010 17:58:03 6.6 C 1.89 g/m*3 6.6 C 0 km/h
331 03-03-2010 18:10:02 6.2 C 2.21 g/m*3 6.2 C 0 km/h
332 03-03-2010 18:22:02 5.7 C 2.13 g/m*3 5.7 C 0 km/h
333 03-03-2010 18:34:03 5.4 C 2.02 g/m*3 5.4 C 0 km/h
334 03-03-2010 18:46:02 5.1 C 2.05 g/m*3 5.1 C 0 km/h
335 03-03-2010 18:58:02 4.8 C 2.15 g/m*3 4.8 C 0 km/h
336 03-03-2010 19:10:02 4.6 C 2.12 g/m*3 4.6 C 0 km/h
337 03-03-2010 19:22:02 4.4 C 2.15 g/m*3 4.4 C 0 km/h
338 03-03-2010 19:34:02 4.2 C 2.19 g/m*3 4.2 C 0 km/h
339 03-03-2010 19:46:02 4.1 C 2.24 g/m*3 4.1 C 0 km/h
340 03-03-2010 19:58:02 3.9 C 2.46 g/m*3 3.9 C 0 km/h
341 03-03-2010 20:10:02 3.7 C 2.49 g/m*3 3.7 C 0 km/h
342 03-03-2010 20:22:02 3.7 C 2.49 g/m*3 3.7 C 0 km/h
343 03-03-2010 20:34:02 3.6 C 2.54 g/m*3 3.6 C 0 km/h
344 03-03-2010 20:46:01 3.4 C 2.57 g/m*3 3.4 C 0 km/h
345 03-03-2010 20:58:01 3.3 C 2.55 g/m*3 3.3 C 0 km/h
346 03-03-2010 21:10:02 3.2 C 2.59 g/m*3 3.2 C 0 km/h
347 03-03-2010 21:22:01 3 C 2.62 g/m*3 3 C 0 km/h
348 03-03-2010 21:34:02 3 C 2.68 g/m*3 3 C 0 km/h
349 03-03-2010 21:46:02 2.9 C 2.72 g/m*3 2.9 C 0 km/h
350 03-03-2010 21:58:02 2.8 C 2.76 g/m*3 2.8 C 0 km/h
Sensor: Nr:Datum:Temp:Abs-Feuchte:Windchill:Wind:
Aussen-T/F 351 03-03-2010 22:11:02 2.7 C 2.8 g/m*3 2.7 C 0 km/h
352 03-03-2010 22:23:02 2.6 C 2.84 g/m*3 2.6 C 0 km/h
353 03-03-2010 22:35:02 2.5 C 2.82 g/m*3 2.5 C 0 km/h
354 03-03-2010 22:47:03 2.4 C 2.8 g/m*3 2.4 C 0 km/h
355 03-03-2010 22:59:03 2.2 C 2.82 g/m*3 2.2 C 0 km/h
356 03-03-2010 23:11:03 1.9 C 2.87 g/m*3 1.9 C 0 km/h
357 03-03-2010 23:23:03 1.7 C 2.89 g/m*3 1.7 C 0 km/h
358 03-03-2010 23:35:03 1.6 C 2.92 g/m*3 1.6 C 0 km/h
359 03-03-2010 23:47:03 1.5 C 2.95 g/m*3 1.5 C 0 km/h
360 03-03-2010 23:59:03 1.4 C 2.93 g/m*3 1.4 C 0 km/h
361 04-03-2010 00:11:03 1.3 C 2.97 g/m*3 1.3 C 0 km/h
362 04-03-2010 00:23:03 1.2 C 2.89 g/m*3 1.2 C 0 km/h
363 04-03-2010 00:35:03 1.2 C 2.89 g/m*3 1.2 C 0 km/h
364 04-03-2010 00:47:03 1.2 C 2.89 g/m*3 1.2 C 0 km/h
365 04-03-2010 00:59:03 1.3 C 2.91 g/m*3 1.3 C 0 km/h
366 04-03-2010 01:11:03 1.3 C 2.91 g/m*3 1.3 C 0 km/h
367 04-03-2010 01:23:03 1.2 C 2.89 g/m*3 1.2 C 0 km/h
368 04-03-2010 01:35:03 1.1 C 2.87 g/m*3 1.1 C 0 km/h
369 04-03-2010 01:47:03 1.2 C 2.89 g/m*3 1.2 C 0 km/h
370 04-03-2010 01:59:03 1 C 2.85 g/m*3 1 C 0 km/h
371 04-03-2010 02:11:03 0.8 C 2.92 g/m*3 0.8 C 0 km/h
372 04-03-2010 02:23:03 0.5 C 2.96 g/m*3 0.5 C 0 km/h
373 04-03-2010 02:35:03 0.2 C 2.95 g/m*3 0.2 C 0 km/h
374 04-03-2010 02:47:03 0.1 C 2.98 g/m*3 0.1 C 0 km/h
375 04-03-2010 02:59:04 0 C 2.96 g/m*3 0 C 0 km/h
Sensor: Nr:Datum:Temp:Abs-Feuchte:Windchill:Wind:
Aussen-T/F 376 04-03-2010 03:11:04 -0.2 C 2.96 g/m*3 -0.2 C 0 km/h
377 04-03-2010 03:23:04 -0.4 C 2.87 g/m*3 -0.4 C 0 km/h
378 04-03-2010 03:35:04 -0.6 C 2.88 g/m*3 -0.6 C 0 km/h
379 04-03-2010 03:47:04 -0.7 C 2.86 g/m*3 -0.7 C 0 km/h
380 04-03-2010 03:59:04 -0.8 C 2.89 g/m*3 -0.8 C 0 km/h
381 04-03-2010 04:11:04 -0.9 C 2.87 g/m*3 -0.9 C 0 km/h
382 04-03-2010 04:23:04 -0.7 C 2.95 g/m*3 -0.7 C 0 km/h
383 04-03-2010 04:35:04 -0.7 C 2.91 g/m*3 -0.7 C 0 km/h
384 04-03-2010 04:47:04 -0.7 C 2.95 g/m*3 -0.7 C 0 km/h
385 04-03-2010 04:59:04 -0.8 C 2.89 g/m*3 -0.8 C 0 km/h
386 04-03-2010 05:11:04 -0.7 C 2.95 g/m*3 -0.7 C 0 km/h
387 04-03-2010 05:23:04 -0.8 C 2.93 g/m*3 -0.8 C 0 km/h
388 04-03-2010 05:35:04 -0.9 C 2.96 g/m*3 -0.9 C 0 km/h
389 04-03-2010 05:47:04 -0.7 C 3 g/m*3 -0.7 C 0 km/h
390 04-03-2010 05:59:04 -1 C 2.94 g/m*3 -1 C 0 km/h
391 04-03-2010 06:11:04 -1 C 2.98 g/m*3 -1 C 0 km/h
392 04-03-2010 06:23:04 -1.1 C 2.96 g/m*3 -1.1 C 0 km/h
393 04-03-2010 06:35:04 -1.3 C 2.92 g/m*3 -1.3 C 0 km/h
394 04-03-2010 06:47:04 -1.4 C 2.95 g/m*3 -1.4 C 0 km/h
395 04-03-2010 06:59:04 -1.4 C 2.99 g/m*3 -1.4 C 0 km/h
396 04-03-2010 07:11:01 -1.4 C 3.03 g/m*3 -1.4 C 0 km/h
397 04-03-2010 07:23:02 -1.3 C 3.05 g/m*3 -1.3 C 0 km/h
398 04-03-2010 07:35:02 -1.3 C 3.01 g/m*3 -1.3 C 0 km/h
399 04-03-2010 07:47:01 -1.2 C 3.08 g/m*3 -1.2 C 0 km/h
400 04-03-2010 07:59:01 -1.1 C 3.1 g/m*3 -1.1 C 0 km/h
Sensor: Nr:Datum:Temp:Abs-Feuchte:Windchill:Wind:
Aussen-T/F 401 04-03-2010 08:11:02 -1.1 C 3.1 g/m*3 -1.1 C 0 km/h
402 04-03-2010 08:23:01 -1 C 3.12 g/m*3 -1 C 0 km/h
403 04-03-2010 08:35:01 -1.1 C 3.1 g/m*3 -1.1 C 0 km/h
404 04-03-2010 08:47:02 -1.1 C 3.1 g/m*3 -1.1 C 0 km/h
405 04-03-2010 08:59:02 -1 C 3.16 g/m*3 -1 C 0 km/h
406 04-03-2010 09:11:02 -0.5 C 3.23 g/m*3 -0.5 C 0 km/h
407 04-03-2010 09:23:02 0 C 3.29 g/m*3 0 C 0 km/h
408 04-03-2010 09:35:01 0.2 C 3.24 g/m*3 0.2 C 0 km/h
409 04-03-2010 09:47:02 0.5 C 3.26 g/m*3 0.5 C 0 km/h
410 04-03-2010 09:59:02 1.3 C 3.34 g/m*3 1.3 C 0 km/h
411 04-03-2010 10:11:01 2 C 3.28 g/m*3 2 C 0 km/h
412 04-03-2010 10:23:02 3 C 3.21 g/m*3 3 C 0 km/h
413 04-03-2010 10:35:02 3.6 C 2.85 g/m*3 3.6 C 0 km/h
414 04-03-2010 10:47:02 3.4 C 2.63 g/m*3 3.4 C 0 km/h
415 04-03-2010 10:59:03 3.9 C 2.59 g/m*3 3.9 C 0 km/h
416 04-03-2010 11:11:01 3.8 C 2.45 g/m*3 3.8 C 0 km/h
417 04-03-2010 11:23:02 4.1 C 2.24 g/m*3 4.1 C 0 km/h
418 04-03-2010 11:35:02 4.4 C 2.35 g/m*3 4.4 C 0 km/h
419 04-03-2010 11:47:01 4.6 C 2.32 g/m*3 4.6 C 0 km/h
420 04-03-2010 11:59:01 4.3 C 2.08 g/m*3 4.3 C 0 km/h
421 04-03-2010 12:11:02 4.2 C 2.19 g/m*3 4.2 C 0 km/h
422 04-03-2010 12:23:01 4.5 C 2.3 g/m*3 4.5 C 0 km/h
423 04-03-2010 12:35:01 4.8 C 2.28 g/m*3 4.8 C 0 km/h
424 04-03-2010 12:47:02 4.8 C 2.08 g/m*3 4.8 C 0 km/h
425 04-03-2010 12:59:02 5.8 C 2.08 g/m*3 5.8 C 0 km/h
Sensor: Nr:Datum:Temp:Abs-Feuchte:Windchill:Wind:
Aussen-T/F 426 04-03-2010 13:11:02 6.3 C 1.92 g/m*3 6.3 C 0 km/h
427 04-03-2010 13:23:01 6.8 C 1.53 g/m*3 6.8 C 0 km/h
428 04-03-2010 13:35:02 7.1 C 1.56 g/m*3 7.1 C 0 km/h
429 04-03-2010 13:47:02 6.9 C 1.54 g/m*3 6.9 C 0 km/h
430 04-03-2010 13:59:02 7.1 C 1.56 g/m*3 7.1 C 0 km/h
431 04-03-2010 14:11:02 7.9 C 1.64 g/m*3 7.9 C 0 km/h
432 04-03-2010 14:23:01 8.2 C 1.67 g/m*3 8.2 C 0 km/h
433 04-03-2010 14:35:02 9 C 1.76 g/m*3 9 C 0 km/h
434 04-03-2010 14:47:02 8.9 C 1.75 g/m*3 8.9 C 0 km/h
435 04-03-2010 14:59:02 9.2 C 1.79 g/m*3 9.2 C 0 km/h
436 04-03-2010 15:11:02 9.2 C 1.79 g/m*3 9.2 C 0 km/h
437 04-03-2010 15:23:01 9.3 C 1.8 g/m*3 9.3 C 0 km/h
438 04-03-2010 15:35:02 8.2 C 1.67 g/m*3 8.2 C 0 km/h
439 04-03-2010 15:47:02 8.9 C 1.75 g/m*3 8.9 C 0 km/h
440 04-03-2010 15:59:02 9.2 C 1.79 g/m*3 9.2 C 0 km/h
441 04-03-2010 16:11:02 9.4 C 1.81 g/m*3 9.4 C 0 km/h
442 04-03-2010 16:23:01 9.3 C 1.8 g/m*3 9.3 C 0 km/h
443 04-03-2010 16:35:02 9.1 C 1.77 g/m*3 9.1 C 0 km/h
444 04-03-2010 16:47:01 9 C 1.76 g/m*3 9 C 0 km/h
445 04-03-2010 16:59:01 8.5 C 1.71 g/m*3 8.5 C 0 km/h
446 04-03-2010 17:11:02 8.3 C 1.69 g/m*3 8.3 C 0 km/h
447 04-03-2010 17:23:02 7.7 C 1.62 g/m*3 7.7 C 0 km/h
448 04-03-2010 17:35:01 7.3 C 1.58 g/m*3 7.3 C 0 km/h
449 04-03-2010 17:47:02 6.9 C 1.54 g/m*3 6.9 C 0 km/h
450 04-03-2010 17:59:02 5.7 C 1.42 g/m*3 5.7 C 0 km/h
Sensor: Nr:Datum:Temp:Abs-Feuchte:Windchill:Wind:
Aussen-T/F 451 04-03-2010 18:11:01 4.9 C 1.42 g/m*3 4.9 C 0 km/h
452 04-03-2010 18:23:02 4.3 C 1.62 g/m*3 4.3 C 0 km/h
453 04-03-2010 18:35:01 4 C 1.78 g/m*3 4 C 0 km/h
454 04-03-2010 18:47:02 3.5 C 1.91 g/m*3 3.5 C 0 km/h
455 04-03-2010 18:59:02 3.2 C 1.93 g/m*3 3.2 C 0 km/h
456 04-03-2010 19:11:02 3 C 2.08 g/m*3 3 C 0 km/h
457 04-03-2010 19:23:02 2.6 C 2.14 g/m*3 2.6 C 0 km/h
458 04-03-2010 19:35:02 2.2 C 2.25 g/m*3 2.2 C 0 km/h
459 04-03-2010 19:47:01 1.9 C 2.32 g/m*3 1.9 C 0 km/h
460 04-03-2010 19:59:01 1.6 C 2.33 g/m*3 1.6 C 0 km/h
461 04-03-2010 20:11:02 1.5 C 2.36 g/m*3 1.5 C 0 km/h
462 04-03-2010 20:23:02 1.4 C 2.35 g/m*3 1.4 C 0 km/h
463 04-03-2010 20:35:01 1.3 C 2.38 g/m*3 1.3 C 0 km/h
464 04-03-2010 20:47:02 1.1 C 2.35 g/m*3 1.1 C 0 km/h
465 04-03-2010 20:59:02 1.1 C 2.51 g/m*3 1.1 C 0 km/h
466 04-03-2010 21:11:02 1.1 C 2.51 g/m*3 1.1 C 0 km/h
467 04-03-2010 21:23:01 1.1 C 2.51 g/m*3 1.1 C 0 km/h
468 04-03-2010 21:35:02 0.8 C 2.56 g/m*3 0.8 C 0 km/h
469 04-03-2010 21:47:02 0.6 C 2.58 g/m*3 0.6 C 0 km/h
470 04-03-2010 21:59:02 0.7 C 2.59 g/m*3 0.7 C 0 km/h
471 04-03-2010 22:11:02 0.9 C 2.68 g/m*3 0.9 C 0 km/h
472 04-03-2010 22:24:03 0.7 C 2.64 g/m*3 0.7 C 0 km/h
473 04-03-2010 22:36:03 0.3 C 2.57 g/m*3 0.3 C 0 km/h
474 04-03-2010 22:48:03 0.1 C 2.63 g/m*3 0.1 C 0 km/h
475 04-03-2010 23:00:03 0 C 2.62 g/m*3 0 C 0 km/h
Sensor: Nr:Datum:Temp:Abs-Feuchte:Windchill:Wind:
Aussen-T/F 476 04-03-2010 23:12:03 -0.1 C 2.6 g/m*3 -0.1 C 0 km/h
477 04-03-2010 23:24:03 -0.2 C 2.53 g/m*3 -0.2 C 0 km/h
478 04-03-2010 23:36:03 -0.2 C 2.53 g/m*3 -0.2 C 0 km/h
479 04-03-2010 23:48:03 -0.3 C 2.56 g/m*3 -0.3 C 0 km/h
480 05-03-2010 00:00:03 -0.4 C 2.5 g/m*3 -0.4 C 0 km/h
481 05-03-2010 00:12:03 -0.5 C 2.53 g/m*3 -0.5 C 0 km/h
482 05-03-2010 00:24:03 -0.7 C 2.49 g/m*3 -0.7 C 0 km/h
483 05-03-2010 00:36:03 -1 C 2.49 g/m*3 -1 C 0 km/h
484 05-03-2010 00:48:03 -1.1 C 2.47 g/m*3 -1.1 C 0 km/h
485 05-03-2010 01:00:03 -1.3 C 2.43 g/m*3 -1.3 C 0 km/h
486 05-03-2010 01:12:03 -1.4 C 2.46 g/m*3 -1.4 C 0 km/h
487 05-03-2010 01:24:03 -1.6 C 2.43 g/m*3 -1.6 C 0 km/h
488 05-03-2010 01:36:04 -1.5 C 2.44 g/m*3 -1.5 C 0 km/h
489 05-03-2010 01:48:04 -1.5 C 2.4 g/m*3 -1.5 C 0 km/h
490 05-03-2010 02:00:04 -1.6 C 2.38 g/m*3 -1.6 C 0 km/h
491 05-03-2010 02:12:04 -1.4 C 2.37 g/m*3 -1.4 C 0 km/h
492 05-03-2010 02:24:04 -1.3 C 2.26 g/m*3 -1.3 C 0 km/h
493 05-03-2010 02:36:04 -1.5 C 2.18 g/m*3 -1.5 C 0 km/h
494 05-03-2010 02:48:04 -1.7 C 2.15 g/m*3 -1.7 C 0 km/h
495 05-03-2010 03:00:04 -1.7 C 2.11 g/m*3 -1.7 C 0 km/h
496 05-03-2010 03:12:04 -1.9 C 2.04 g/m*3 -1.9 C 0 km/h
497 05-03-2010 03:24:04 -2 C 2.11 g/m*3 -2 C 0 km/h
498 05-03-2010 03:36:04 -1.9 C 2.16 g/m*3 -1.9 C 0 km/h
499 05-03-2010 03:48:04 -1.9 C 2.16 g/m*3 -1.9 C 0 km/h
500 05-03-2010 04:00:04 -1.9 C 2.21 g/m*3 -1.9 C 0 km/h
Sensor: Nr:Datum:Temp:Abs-Feuchte:Windchill:Wind:
Aussen-T/F 501 05-03-2010 04:12:04 -2.1 C 2.18 g/m*3 -2.1 C 0 km/h
502 05-03-2010 04:24:04 -2.3 C 2.19 g/m*3 -2.3 C 0 km/h
503 05-03-2010 04:36:04 -2.4 C 2.21 g/m*3 -2.4 C 0 km/h
504 05-03-2010 04:48:04 -2.4 C 2.25 g/m*3 -2.4 C 0 km/h
505 05-03-2010 05:00:04 -2.5 C 2.28 g/m*3 -2.5 C 0 km/h
506 05-03-2010 05:12:04 -2.6 C 2.3 g/m*3 -2.6 C 0 km/h
507 05-03-2010 05:24:04 -2.6 C 2.38 g/m*3 -2.6 C 0 km/h
508 05-03-2010 05:36:04 -2.8 C 2.43 g/m*3 -2.8 C 0 km/h
509 05-03-2010 05:48:05 -2.3 C 2.64 g/m*3 -2.3 C 0 km/h
510 05-03-2010 06:00:05 -1.9 C 2.67 g/m*3 -1.9 C 0 km/h
511 05-03-2010 06:12:05 -2 C 2.7 g/m*3 -2 C 0 km/h
512 05-03-2010 06:24:05 -2.4 C 2.62 g/m*3 -2.4 C 0 km/h
513 05-03-2010 06:36:05 -2.6 C 2.63 g/m*3 -2.6 C 0 km/h
514 05-03-2010 06:48:05 -2.8 C 2.63 g/m*3 -2.8 C 0 km/h
515 05-03-2010 07:00:05 -2.9 C 2.65 g/m*3 -2.9 C 0 km/h
516 05-03-2010 07:12:02 -2.9 C 2.69 g/m*3 -2.9 C 0 km/h
517 05-03-2010 07:24:03 -2.8 C 2.71 g/m*3 -2.8 C 0 km/h
518 05-03-2010 07:36:02 -2.7 C 2.77 g/m*3 -2.7 C 0 km/h
519 05-03-2010 07:48:02 -2.9 C 2.69 g/m*3 -2.9 C 0 km/h
520 05-03-2010 08:00:02 -2.9 C 2.73 g/m*3 -2.9 C 0 km/h
521 05-03-2010 08:12:02 -2.8 C 2.75 g/m*3 -2.8 C 0 km/h
522 05-03-2010 08:24:03 -2.8 C 2.75 g/m*3 -2.8 C 0 km/h
523 05-03-2010 08:36:02 -2.6 C 2.83 g/m*3 -2.6 C 0 km/h
524 05-03-2010 08:48:01 -2.6 C 2.79 g/m*3 -2.6 C 0 km/h
525 05-03-2010 09:00:01 -2.5 C 2.77 g/m*3 -2.5 C 0 km/h
Sensor: Nr:Datum:Temp:Abs-Feuchte:Windchill:Wind:
Aussen-T/F 526 05-03-2010 09:12:02 -2.3 C 2.72 g/m*3 -2.3 C 0 km/h
527 05-03-2010 09:24:01 -2 C 2.66 g/m*3 -2 C 0 km/h
528 05-03-2010 09:36:02 -1.8 C 2.48 g/m*3 -1.8 C 0 km/h
529 05-03-2010 09:48:02 -1.4 C 2.46 g/m*3 -1.4 C 0 km/h
530 05-03-2010 10:00:02 -1 C 2.49 g/m*3 -1 C 0 km/h
531 05-03-2010 10:12:02 -0.5 C 2.53 g/m*3 -0.5 C 0 km/h
532 05-03-2010 10:24:02 0.4 C 2.54 g/m*3 0.4 C 0 km/h
533 05-03-2010 10:36:02 0.9 C 2.06 g/m*3 0.9 C 0 km/h
534 05-03-2010 10:48:02 1.4 C 1.92 g/m*3 1.4 C 0 km/h
535 05-03-2010 11:00:02 1.8 C 1.97 g/m*3 1.8 C 0 km/h
536 05-03-2010 11:12:02 2.1 C 2.01 g/m*3 2.1 C 0 km/h
537 05-03-2010 11:24:02 2.1 C 1.96 g/m*3 2.1 C 0 km/h
538 05-03-2010 11:36:02 2.2 C 1.52 g/m*3 2.2 C 0 km/h
539 05-03-2010 11:48:01 2.5 C 1.21 g/m*3 2.5 C 0 km/h
540 05-03-2010 12:00:01 3.5 C 1.54 g/m*3 3.5 C 0 km/h
541 05-03-2010 12:12:02 2.5 C 1.21 g/m*3 2.5 C 0 km/h
542 05-03-2010 12:24:01 2.7 C 1.34 g/m*3 2.7 C 0 km/h
543 05-03-2010 12:36:01 3 C 1.19 g/m*3 3 C 0 km/h
544 05-03-2010 12:48:01 3.6 C 1.24 g/m*3 3.6 C 0 km/h
545 05-03-2010 13:00:01 3.5 C 1.23 g/m*3 3.5 C 0 km/h
546 05-03-2010 13:12:02 3.3 C 1.21 g/m*3 3.3 C 0 km/h
547 05-03-2010 13:24:01 3.5 C 1.23 g/m*3 3.5 C 0 km/h
548 05-03-2010 13:36:01 3.2 C 1.21 g/m*3 3.2 C 0 km/h
549 05-03-2010 13:48:01 3.2 C 1.51 g/m*3 3.2 C 0 km/h
550 05-03-2010 14:00:01 3.1 C 1.26 g/m*3 3.1 C 0 km/h
Sensor: Nr:Datum:Temp:Abs-Feuchte:Windchill:Wind:
Aussen-T/F 551 05-03-2010 14:12:02 3.6 C 1.3 g/m*3 3.6 C 0 km/h
552 05-03-2010 14:24:02 4 C 1.27 g/m*3 4 C 0 km/h
553 05-03-2010 14:36:01 3.7 C 1.25 g/m*3 3.7 C 0 km/h
554 05-03-2010 14:48:01 4 C 1.34 g/m*3 4 C 0 km/h
555 05-03-2010 15:00:01 4.5 C 1.38 g/m*3 4.5 C 0 km/h
556 05-03-2010 15:12:02 5.2 C 1.58 g/m*3 5.2 C 0 km/h
557 05-03-2010 15:24:02 4.8 C 1.41 g/m*3 4.8 C 0 km/h
558 05-03-2010 15:36:01 5.5 C 1.47 g/m*3 5.5 C 0 km/h
559 05-03-2010 15:48:01 6 C 1.45 g/m*3 6 C 0 km/h
560 05-03-2010 16:00:01 5.4 C 1.4 g/m*3 5.4 C 0 km/h
561 05-03-2010 16:12:01 4.9 C 1.35 g/m*3 4.9 C 0 km/h
562 05-03-2010 16:24:02 4.8 C 1.34 g/m*3 4.8 C 0 km/h
563 05-03-2010 16:36:01 4.5 C 1.38 g/m*3 4.5 C 0 km/h
564 05-03-2010 16:48:02 4.4 C 1.63 g/m*3 4.4 C 0 km/h
565 05-03-2010 17:00:02 4.4 C 1.7 g/m*3 4.4 C 0 km/h
566 05-03-2010 17:12:01 4.3 C 1.49 g/m*3 4.3 C 0 km/h
567 05-03-2010 17:24:02 4.2 C 1.48 g/m*3 4.2 C 0 km/h
568 05-03-2010 17:36:01 4 C 1.46 g/m*3 4 C 0 km/h
569 05-03-2010 17:48:03 3.8 C 1.44 g/m*3 3.8 C 0 km/h
570 05-03-2010 18:00:03 3.8 C 1.57 g/m*3 3.8 C 0 km/h
571 05-03-2010 18:12:02 3.5 C 1.66 g/m*3 3.5 C 0 km/h
572 05-03-2010 18:24:02 3.3 C 1.82 g/m*3 3.3 C 0 km/h
573 05-03-2010 18:36:02 3.2 C 1.99 g/m*3 3.2 C 0 km/h
574 05-03-2010 18:48:02 3.1 C 2.21 g/m*3 3.1 C 0 km/h
575 05-03-2010 19:00:02 3 C 2.32 g/m*3 3 C 0 km/h
Sensor: Nr:Datum:Temp:Abs-Feuchte:Windchill:Wind:
Aussen-T/F 576 05-03-2010 19:12:02 2.9 C 2.42 g/m*3 2.9 C 0 km/h
577 05-03-2010 19:24:02 2.8 C 2.46 g/m*3 2.8 C 0 km/h
578 05-03-2010 19:36:02 2.7 C 2.56 g/m*3 2.7 C 0 km/h
579 05-03-2010 19:48:02 2.6 C 2.66 g/m*3 2.6 C 0 km/h
580 05-03-2010 20:00:02 2.5 C 2.7 g/m*3 2.5 C 0 km/h
581 05-03-2010 20:12:01 2.5 C 2.76 g/m*3 2.5 C 0 km/h
582 05-03-2010 20:24:02 2.4 C 2.8 g/m*3 2.4 C 0 km/h
583 05-03-2010 20:36:01 2.5 C 2.82 g/m*3 2.5 C 0 km/h
584 05-03-2010 20:48:02 2.5 C 2.82 g/m*3 2.5 C 0 km/h
585 05-03-2010 21:00:02 2.5 C 2.82 g/m*3 2.5 C 0 km/h
586 05-03-2010 21:12:01 2.4 C 2.91 g/m*3 2.4 C 0 km/h
587 05-03-2010 21:24:01 2.1 C 3.13 g/m*3 2.1 C 0 km/h
588 05-03-2010 21:36:02 1.8 C 3.4 g/m*3 1.8 C 0 km/h
589 05-03-2010 21:48:02 1.5 C 3.54 g/m*3 1.5 C 0 km/h
590 05-03-2010 22:00:03 1.3 C 3.71 g/m*3 1.3 C 0 km/h
591 05-03-2010 22:12:02 1 C 3.84 g/m*3 1 C 0 km/h
592 05-03-2010 22:24:02 0.9 C 3.97 g/m*3 0.9 C 0 km/h
593 05-03-2010 22:36:02 0.8 C 4.04 g/m*3 0.8 C 0 km/h
594 05-03-2010 22:48:02 0.8 C 4.1 g/m*3 0.8 C 0 km/h
595 05-03-2010 23:00:02 0.7 C 4.12 g/m*3 0.7 C 0 km/h
596 05-03-2010 23:12:01 0.5 C 4.16 g/m*3 0.5 C 0 km/h
597 05-03-2010 23:24:02 0.6 C 4.24 g/m*3 0.6 C 0 km/h
598 05-03-2010 23:36:02 0.7 C 4.27 g/m*3 0.7 C 0 km/h
599 05-03-2010 23:48:02 0.7 C 4.27 g/m*3 0.7 C 0 km/h
600 06-03-2010 00:00:03 0.9 C 4.28 g/m*3 0.9 C 0 km/h
Sensor: Nr:Datum:Temp:Abs-Feuchte:Windchill:Wind:
Aussen-T/F 601 06-03-2010 00:12:02 0.7 C 4.17 g/m*3 0.7 C 0 km/h
602 06-03-2010 00:25:05 0.6 C 4.24 g/m*3 0.6 C 0 km/h
603 06-03-2010 00:37:05 0.7 C 4.27 g/m*3 0.7 C 0 km/h
604 06-03-2010 00:49:05 0.6 C 4.29 g/m*3 0.6 C 0 km/h
605 06-03-2010 01:01:05 0.6 C 4.34 g/m*3 0.6 C 0 km/h
606 06-03-2010 01:13:05 0.5 C 4.36 g/m*3 0.5 C 0 km/h
607 06-03-2010 01:25:05 0.5 C 4.41 g/m*3 0.5 C 0 km/h
608 06-03-2010 01:37:06 0.4 C 4.43 g/m*3 0.4 C 0 km/h
609 06-03-2010 01:49:06 0.5 C 4.46 g/m*3 0.5 C 0 km/h
610 06-03-2010 02:01:06 0.6 C 4.54 g/m*3 0.6 C 0 km/h
611 06-03-2010 02:13:06 0.6 C 4.6 g/m*3 0.6 C 0 km/h
612 06-03-2010 02:25:06 0.6 C 4.6 g/m*3 0.6 C 0 km/h
613 06-03-2010 02:37:06 0.6 C 4.6 g/m*3 0.6 C 0 km/h
614 06-03-2010 02:49:06 0.5 C 4.61 g/m*3 0.5 C 0 km/h
615 06-03-2010 03:01:06 0.4 C 4.58 g/m*3 0.4 C 0 km/h
616 06-03-2010 03:13:06 0.3 C 4.55 g/m*3 0.3 C 0 km/h
617 06-03-2010 03:25:06 0.2 C 4.57 g/m*3 0.2 C 0 km/h
618 06-03-2010 03:37:06 0.1 C 4.54 g/m*3 0.1 C 0 km/h
619 06-03-2010 03:49:06 0 C 4.51 g/m*3 0 C 0 km/h
620 06-03-2010 04:01:06 0 C 4.51 g/m*3 0 C 0 km/h
621 06-03-2010 04:13:06 0 C 4.51 g/m*3 0 C 0 km/h
622 06-03-2010 04:25:06 0 C 4.51 g/m*3 0 C 0 km/h
623 06-03-2010 04:37:06 0 C 4.55 g/m*3 0 C 0 km/h
624 06-03-2010 04:49:06 0 C 4.55 g/m*3 0 C 0 km/h
625 06-03-2010 05:01:06 0 C 4.55 g/m*3 0 C 0 km/h
Sensor: Nr:Datum:Temp:Abs-Feuchte:Windchill:Wind:
Aussen-T/F 626 06-03-2010 05:13:06 -0.1 C 4.47 g/m*3 -0.1 C 0 km/h
627 06-03-2010 05:25:06 0 C 4.51 g/m*3 0 C 0 km/h
628 06-03-2010 05:37:06 0 C 4.51 g/m*3 0 C 0 km/h
629 06-03-2010 05:49:07 0 C 4.51 g/m*3 0 C 0 km/h
630 06-03-2010 06:01:07 -0.1 C 4.43 g/m*3 -0.1 C 0 km/h
631 06-03-2010 06:13:07 -0.2 C 4.4 g/m*3 -0.2 C 0 km/h
632 06-03-2010 06:25:07 -0.2 C 4.3 g/m*3 -0.2 C 0 km/h
633 06-03-2010 06:37:07 -0.2 C 4.21 g/m*3 -0.2 C 0 km/h
634 06-03-2010 06:49:07 -0.1 C 4.14 g/m*3 -0.1 C 0 km/h
635 06-03-2010 07:01:07 -0.1 C 4.09 g/m*3 -0.1 C 0 km/h
636 06-03-2010 07:13:07 0 C 4.12 g/m*3 0 C 0 km/h
637 06-03-2010 07:25:07 0 C 4.17 g/m*3 0 C 0 km/h
638 06-03-2010 07:37:07 0 C 4.17 g/m*3 0 C 0 km/h
639 06-03-2010 07:49:01 0 C 4.12 g/m*3 0 C 0 km/h
640 06-03-2010 08:01:02 0.1 C 4.2 g/m*3 0.1 C 0 km/h
641 06-03-2010 08:13:02 0.1 C 4.2 g/m*3 0.1 C 0 km/h
642 06-03-2010 08:25:01 0.2 C 4.22 g/m*3 0.2 C 0 km/h
643 06-03-2010 08:37:02 0.4 C 4.23 g/m*3 0.4 C 0 km/h
644 06-03-2010 08:49:01 0.4 C 4.13 g/m*3 0.4 C 0 km/h
645 06-03-2010 09:01:02 0.4 C 4.03 g/m*3 0.4 C 0 km/h
646 06-03-2010 09:13:02 0.4 C 4.03 g/m*3 0.4 C 0 km/h
647 06-03-2010 09:25:02 0.4 C 4.08 g/m*3 0.4 C 0 km/h
648 06-03-2010 09:37:02 0.3 C 4.06 g/m*3 0.3 C 0 km/h
649 06-03-2010 09:49:02 0.4 C 4.03 g/m*3 0.4 C 0 km/h
650 06-03-2010 10:01:02 0.4 C 3.88 g/m*3 0.4 C 0 km/h
Sensor: Nr:Datum:Temp:Abs-Feuchte:Windchill:Wind:
Aussen-T/F 651 06-03-2010 10:13:02 0.5 C 3.71 g/m*3 0.5 C 0 km/h
652 06-03-2010 10:25:02 0.5 C 3.71 g/m*3 0.5 C 0 km/h
653 06-03-2010 10:37:02 0.5 C 3.71 g/m*3 0.5 C 0 km/h
654 06-03-2010 10:49:01 0.4 C 3.59 g/m*3 0.4 C 0 km/h
655 06-03-2010 11:01:02 0.5 C 3.66 g/m*3 0.5 C 0 km/h
656 06-03-2010 11:13:02 0.4 C 3.59 g/m*3 0.4 C 0 km/h
657 06-03-2010 11:25:01 0.5 C 3.56 g/m*3 0.5 C 0 km/h
658 06-03-2010 11:37:01 0.4 C 3.39 g/m*3 0.4 C 0 km/h
659 06-03-2010 11:49:01 0.3 C 3.26 g/m*3 0.3 C 0 km/h
660 06-03-2010 12:01:02 0.4 C 3.34 g/m*3 0.4 C 0 km/h
661 06-03-2010 12:13:02 0.5 C 3.26 g/m*3 0.5 C 0 km/h
662 06-03-2010 12:25:01 0.4 C 3.19 g/m*3 0.4 C 0 km/h
663 06-03-2010 12:37:02 0.6 C 3.23 g/m*3 0.6 C 0 km/h
664 06-03-2010 12:49:02 0.7 C 3.36 g/m*3 0.7 C 0 km/h
665 06-03-2010 13:01:02 0.8 C 3.28 g/m*3 0.8 C 0 km/h
666 06-03-2010 13:13:02 1.1 C 3.29 g/m*3 1.1 C 0 km/h
667 06-03-2010 13:25:01 0.9 C 2.94 g/m*3 0.9 C 0 km/h
668 06-03-2010 13:37:02 0.5 C 3.11 g/m*3 0.5 C 0 km/h
669 06-03-2010 13:49:02 0.4 C 3.34 g/m*3 0.4 C 0 km/h
670 06-03-2010 14:01:02 0.2 C 3.19 g/m*3 0.2 C 0 km/h
671 06-03-2010 14:13:02 0.5 C 3.36 g/m*3 0.5 C 0 km/h
672 06-03-2010 14:25:02 1 C 3.32 g/m*3 1 C 0 km/h
673 06-03-2010 14:37:02 1.7 C 3.27 g/m*3 1.7 C 0 km/h
674 06-03-2010 14:49:02 1.4 C 3.04 g/m*3 1.4 C 0 km/h
675 06-03-2010 15:01:02 1.3 C 3.02 g/m*3 1.3 C 0 km/h
Sensor: Nr:Datum:Temp:Abs-Feuchte:Windchill:Wind:
Aussen-T/F 676 06-03-2010 15:13:02 1.3 C 2.97 g/m*3 1.3 C 0 km/h
677 06-03-2010 15:25:02 1.5 C 2.79 g/m*3 1.5 C 0 km/h
678 06-03-2010 15:37:02 1.3 C 2.7 g/m*3 1.3 C 0 km/h
679 06-03-2010 15:49:02 1.4 C 2.67 g/m*3 1.4 C 0 km/h
680 06-03-2010 16:01:02 1.4 C 2.72 g/m*3 1.4 C 0 km/h
681 06-03-2010 16:13:02 0.9 C 2.63 g/m*3 0.9 C 0 km/h
682 06-03-2010 16:25:02 1 C 2.6 g/m*3 1 C 0 km/h
683 06-03-2010 16:37:02 0.8 C 2.66 g/m*3 0.8 C 0 km/h
684 06-03-2010 16:49:02 0.5 C 2.71 g/m*3 0.5 C 0 km/h
685 06-03-2010 17:01:02 0.2 C 2.55 g/m*3 0.2 C 0 km/h
686 06-03-2010 17:13:02 -0.2 C 2.25 g/m*3 -0.2 C 0 km/h
687 06-03-2010 17:25:02 -0.5 C 2.15 g/m*3 -0.5 C 0 km/h
688 06-03-2010 17:37:02 -0.6 C 2.14 g/m*3 -0.6 C 0 km/h
689 06-03-2010 17:49:01 -1 C 2.08 g/m*3 -1 C 0 km/h
690 06-03-2010 18:01:02 -1.4 C 2.02 g/m*3 -1.4 C 0 km/h
691 06-03-2010 18:13:02 -1.6 C 2.08 g/m*3 -1.6 C 0 km/h
692 06-03-2010 18:25:02 -1.8 C 2.05 g/m*3 -1.8 C 0 km/h
693 06-03-2010 18:37:02 -1.9 C 2.08 g/m*3 -1.9 C 0 km/h
694 06-03-2010 18:49:02 -1.8 C 2.05 g/m*3 -1.8 C 0 km/h
695 06-03-2010 19:01:02 -2 C 2.11 g/m*3 -2 C 0 km/h
696 06-03-2010 19:13:02 -2.3 C 2.1 g/m*3 -2.3 C 0 km/h
697 06-03-2010 19:25:02 -2.5 C 2.2 g/m*3 -2.5 C 0 km/h
698 06-03-2010 19:37:01 -2.6 C 2.22 g/m*3 -2.6 C 0 km/h
699 06-03-2010 19:49:02 -2.7 C 2.21 g/m*3 -2.7 C 0 km/h
700 06-03-2010 20:01:01 -2.7 C 2.21 g/m*3 -2.7 C 0 km/h
Sensor: Nr:Datum:Temp:Abs-Feuchte:Windchill:Wind:
Aussen-T/F 701 06-03-2010 20:13:01 -2.8 C 2.15 g/m*3 -2.8 C 0 km/h
702 06-03-2010 20:25:02 -3.1 C 2.15 g/m*3 -3.1 C 0 km/h
703 06-03-2010 20:37:01 -3.4 C 2.25 g/m*3 -3.4 C 0 km/h
704 06-03-2010 20:49:02 -3.6 C 2.3 g/m*3 -3.6 C 0 km/h
705 06-03-2010 21:01:01 -3.8 C 2.3 g/m*3 -3.8 C 0 km/h
706 06-03-2010 21:13:01 -4 C 2.34 g/m*3 -4 C 0 km/h
707 06-03-2010 21:25:02 -4 C 2.38 g/m*3 -4 C 0 km/h
708 06-03-2010 21:37:01 -4.2 C 2.38 g/m*3 -4.2 C 0 km/h
709 06-03-2010 21:50:03 -4.2 C 2.42 g/m*3 -4.2 C 0 km/h
710 06-03-2010 22:02:03 -4.3 C 2.43 g/m*3 -4.3 C 0 km/h
711 06-03-2010 22:14:03 -4.2 C 2.49 g/m*3 -4.2 C 0 km/h
712 06-03-2010 22:26:03 -4 C 2.52 g/m*3 -4 C 0 km/h
713 06-03-2010 22:38:03 -3.7 C 2.58 g/m*3 -3.7 C 0 km/h
714 06-03-2010 22:50:03 -3.4 C 2.6 g/m*3 -3.4 C 0 km/h
715 06-03-2010 23:02:03 -3.4 C 2.6 g/m*3 -3.4 C 0 km/h
716 06-03-2010 23:14:03 -3.3 C 2.58 g/m*3 -3.3 C 0 km/h
717 06-03-2010 23:26:03 -3.3 C 2.58 g/m*3 -3.3 C 0 km/h
718 06-03-2010 23:38:03 -3.5 C 2.5 g/m*3 -3.5 C 0 km/h
719 06-03-2010 23:50:03 -3.8 C 2.45 g/m*3 -3.8 C 0 km/h
720 07-03-2010 00:02:03 -4.2 C 2.42 g/m*3 -4.2 C 0 km/h
721 07-03-2010 00:14:03 -4.4 C 2.42 g/m*3 -4.4 C 0 km/h
722 07-03-2010 00:26:04 -4.5 C 2.4 g/m*3 -4.5 C 0 km/h
723 07-03-2010 00:38:04 -4.7 C 2.4 g/m*3 -4.7 C 0 km/h
724 07-03-2010 00:50:04 -4.6 C 2.42 g/m*3 -4.6 C 0 km/h
725 07-03-2010 01:02:04 -4.4 C 2.49 g/m*3 -4.4 C 0 km/h
Sensor: Nr:Datum:Temp:Abs-Feuchte:Windchill:Wind:
Aussen-T/F 726 07-03-2010 01:14:04 -4.3 C 2.47 g/m*3 -4.3 C 0 km/h
727 07-03-2010 01:26:04 -4.4 C 2.45 g/m*3 -4.4 C 0 km/h
728 07-03-2010 01:38:04 -4.5 C 2.44 g/m*3 -4.5 C 0 km/h
729 07-03-2010 01:50:04 -4.4 C 2.45 g/m*3 -4.4 C 0 km/h
730 07-03-2010 02:02:04 -4.4 C 2.49 g/m*3 -4.4 C 0 km/h
731 07-03-2010 02:14:04 -4.4 C 2.49 g/m*3 -4.4 C 0 km/h
732 07-03-2010 02:26:04 -4.6 C 2.45 g/m*3 -4.6 C 0 km/h
733 07-03-2010 02:38:04 -4.4 C 2.52 g/m*3 -4.4 C 0 km/h
734 07-03-2010 02:50:04 -4.5 C 2.51 g/m*3 -4.5 C 0 km/h
735 07-03-2010 03:02:04 -4.6 C 2.49 g/m*3 -4.6 C 0 km/h
736 07-03-2010 03:14:04 -4.8 C 2.45 g/m*3 -4.8 C 0 km/h
737 07-03-2010 03:26:04 -5 C 2.45 g/m*3 -5 C 0 km/h
738 07-03-2010 03:38:04 -5.1 C 2.43 g/m*3 -5.1 C 0 km/h
739 07-03-2010 03:50:04 -5.2 C 2.45 g/m*3 -5.2 C 0 km/h
740 07-03-2010 04:02:04 -5.3 C 2.43 g/m*3 -5.3 C 0 km/h
741 07-03-2010 04:14:04 -5.1 C 2.5 g/m*3 -5.1 C 0 km/h
742 07-03-2010 04:26:05 -4.9 C 2.54 g/m*3 -4.9 C 0 km/h
743 07-03-2010 04:38:05 -4.6 C 2.63 g/m*3 -4.6 C 0 km/h
744 07-03-2010 04:50:05 -4.6 C 2.63 g/m*3 -4.6 C 0 km/h
745 07-03-2010 05:02:05 -4.8 C 2.56 g/m*3 -4.8 C 0 km/h
746 07-03-2010 05:14:05 -5 C 2.52 g/m*3 -5 C 0 km/h
747 07-03-2010 05:26:05 -5.2 C 2.48 g/m*3 -5.2 C 0 km/h
748 07-03-2010 05:38:05 -5.3 C 2.47 g/m*3 -5.3 C 0 km/h
749 07-03-2010 05:50:05 -5.3 C 2.47 g/m*3 -5.3 C 0 km/h
750 07-03-2010 06:02:05 -5.6 C 2.41 g/m*3 -5.6 C 0 km/h
Sensor: Nr:Datum:Temp:Abs-Feuchte:Windchill:Wind:
Aussen-T/F 751 07-03-2010 06:14:05 -5.8 C 2.38 g/m*3 -5.8 C 0 km/h
752 07-03-2010 06:26:05 -5.8 C 2.41 g/m*3 -5.8 C 0 km/h
753 07-03-2010 06:38:05 -5.9 C 2.42 g/m*3 -5.9 C 0 km/h
754 07-03-2010 06:50:05 -6 C 2.41 g/m*3 -6 C 0 km/h
755 07-03-2010 07:02:05 -6 C 2.44 g/m*3 -6 C 0 km/h
756 07-03-2010 07:14:05 -6.1 C 2.42 g/m*3 -6.1 C 0 km/h
757 07-03-2010 07:26:05 -6.1 C 2.42 g/m*3 -6.1 C 0 km/h
758 07-03-2010 07:38:05 -6.4 C 2.34 g/m*3 -6.4 C 0 km/h
759 07-03-2010 07:50:05 -6.5 C 2.32 g/m*3 -6.5 C 0 km/h
760 07-03-2010 08:02:05 -6.5 C 2.32 g/m*3 -6.5 C 0 km/h
761 07-03-2010 08:14:05 -6.4 C 2.34 g/m*3 -6.4 C 0 km/h
762 07-03-2010 08:26:02 -6.2 C 2.4 g/m*3 -6.2 C 0 km/h
763 07-03-2010 08:38:03 -5.7 C 2.49 g/m*3 -5.7 C 0 km/h
764 07-03-2010 08:50:02 -5.3 C 2.57 g/m*3 -5.3 C 0 km/h
765 07-03-2010 09:02:02 -5 C 2.59 g/m*3 -5 C 0 km/h
766 07-03-2010 09:14:02 -4.6 C 2.63 g/m*3 -4.6 C 0 km/h
767 07-03-2010 09:26:02 -4.1 C 2.65 g/m*3 -4.1 C 0 km/h
768 07-03-2010 09:38:02 -3.5 C 2.65 g/m*3 -3.5 C 0 km/h
769 07-03-2010 09:50:02 -3 C 2.59 g/m*3 -3 C 0 km/h
770 07-03-2010 10:02:01 -2 C 2.66 g/m*3 -2 C 0 km/h
771 07-03-2010 10:14:01 -1.4 C 2.51 g/m*3 -1.4 C 0 km/h
772 07-03-2010 10:26:02 -1 C 2.4 g/m*3 -1 C 0 km/h
773 07-03-2010 10:38:02 -1 C 2.35 g/m*3 -1 C 0 km/h
774 07-03-2010 10:50:02 -1 C 2.31 g/m*3 -1 C 0 km/h
775 07-03-2010 11:02:03 -0.7 C 2.35 g/m*3 -0.7 C 0 km/h
Sensor: Nr:Datum:Temp:Abs-Feuchte:Windchill:Wind:
Aussen-T/F 776 07-03-2010 11:14:03 -0.5 C 2.29 g/m*3 -0.5 C 0 km/h
777 07-03-2010 11:26:02 -0.5 C 2.2 g/m*3 -0.5 C 0 km/h
778 07-03-2010 11:38:02 -0.4 C 2.22 g/m*3 -0.4 C 0 km/h
779 07-03-2010 11:50:02 -0.1 C 2.26 g/m*3 -0.1 C 0 km/h
780 07-03-2010 12:02:02 -0.2 C 2.15 g/m*3 -0.2 C 0 km/h
781 07-03-2010 12:14:02 0 C 2.23 g/m*3 0 C 0 km/h
782 07-03-2010 12:26:01 0.4 C 2.29 g/m*3 0.4 C 0 km/h
783 07-03-2010 12:38:02 0.9 C 2.32 g/m*3 0.9 C 0 km/h
784 07-03-2010 12:50:02 1.5 C 2.31 g/m*3 1.5 C 0 km/h
785 07-03-2010 13:02:02 1.6 C 2.16 g/m*3 1.6 C 0 km/h
786 07-03-2010 13:14:02 1.8 C 2.14 g/m*3 1.8 C 0 km/h
787 07-03-2010 13:26:02 2.2 C 2.14 g/m*3 2.2 C 0 km/h
788 07-03-2010 13:38:02 2.5 C 2.07 g/m*3 2.5 C 0 km/h
789 07-03-2010 13:50:02 2.9 C 2.07 g/m*3 2.9 C 0 km/h
790 07-03-2010 14:02:03 3 C 1.96 g/m*3 3 C 0 km/h
791 07-03-2010 14:14:03 3.3 C 2.06 g/m*3 3.3 C 0 km/h
792 07-03-2010 14:26:02 3.7 C 1.99 g/m*3 3.7 C 0 km/h
793 07-03-2010 14:38:02 3.7 C 1.74 g/m*3 3.7 C 0 km/h
794 07-03-2010 14:50:01 3.9 C 1.77 g/m*3 3.9 C 0 km/h
795 07-03-2010 15:02:02 4.2 C 1.68 g/m*3 4.2 C 0 km/h
796 07-03-2010 15:14:02 4.5 C 1.31 g/m*3 4.5 C 0 km/h
797 07-03-2010 15:26:01 4.6 C 1.32 g/m*3 4.6 C 0 km/h
798 07-03-2010 15:38:02 4.7 C 1.33 g/m*3 4.7 C 0 km/h
799 07-03-2010 15:50:02 5 C 1.36 g/m*3 5 C 0 km/h
800 07-03-2010 16:02:02 5.1 C 1.37 g/m*3 5.1 C 0 km/h
Sensor: Nr:Datum:Temp:Abs-Feuchte:Windchill:Wind:
Aussen-T/F 801 07-03-2010 16:14:02 5.3 C 1.39 g/m*3 5.3 C 0 km/h
802 07-03-2010 16:26:01 5.8 C 1.43 g/m*3 5.8 C 0 km/h
803 07-03-2010 16:38:02 5.9 C 1.44 g/m*3 5.9 C 0 km/h
804 07-03-2010 16:50:02 5.7 C 1.42 g/m*3 5.7 C 0 km/h
805 07-03-2010 17:02:02 5.8 C 1.43 g/m*3 5.8 C 0 km/h
806 07-03-2010 17:14:02 5.1 C 1.37 g/m*3 5.1 C 0 km/h
807 07-03-2010 17:26:02 4.9 C 1.35 g/m*3 4.9 C 0 km/h
808 07-03-2010 17:38:02 4.7 C 1.33 g/m*3 4.7 C 0 km/h
809 07-03-2010 17:50:02 4.1 C 1.28 g/m*3 4.1 C 0 km/h
810 07-03-2010 18:02:02 3.2 C 1.21 g/m*3 3.2 C 0 km/h
811 07-03-2010 18:14:03 2.2 C 1.63 g/m*3 2.2 C 0 km/h
812 07-03-2010 18:26:02 1.4 C 1.71 g/m*3 1.4 C 0 km/h
813 07-03-2010 18:38:02 0.6 C 1.77 g/m*3 0.6 C 0 km/h
814 07-03-2010 18:50:02 0.1 C 1.76 g/m*3 0.1 C 0 km/h
815 07-03-2010 19:02:02 -0.2 C 1.77 g/m*3 -0.2 C 0 km/h
816 07-03-2010 19:14:02 -0.4 C 1.74 g/m*3 -0.4 C 0 km/h
817 07-03-2010 19:26:02 -0.6 C 1.81 g/m*3 -0.6 C 0 km/h
818 07-03-2010 19:38:02 -0.7 C 1.85 g/m*3 -0.7 C 0 km/h
819 07-03-2010 19:50:01 -1.2 C 1.87 g/m*3 -1.2 C 0 km/h
820 07-03-2010 20:02:01 -1.4 C 1.89 g/m*3 -1.4 C 0 km/h
821 07-03-2010 20:14:02 -1.5 C 1.83 g/m*3 -1.5 C 0 km/h
822 07-03-2010 20:26:01 -1.7 C 1.89 g/m*3 -1.7 C 0 km/h
823 07-03-2010 20:38:01 -1.9 C 1.95 g/m*3 -1.9 C 0 km/h
824 07-03-2010 20:50:01 -2 C 2.02 g/m*3 -2 C 0 km/h
825 07-03-2010 21:02:01 -2.3 C 2.02 g/m*3 -2.3 C 0 km/h
Sensor: Nr:Datum:Temp:Abs-Feuchte:Windchill:Wind:
Aussen-T/F 826 07-03-2010 21:14:01 -2.4 C 2.01 g/m*3 -2.4 C 0 km/h
827 07-03-2010 21:26:01 -2.5 C 1.95 g/m*3 -2.5 C 0 km/h
828 07-03-2010 21:38:01 -2.5 C 1.83 g/m*3 -2.5 C 0 km/h
829 07-03-2010 21:51:03 -2.5 C 1.87 g/m*3 -2.5 C 0 km/h
830 07-03-2010 22:03:03 -2.6 C 1.82 g/m*3 -2.6 C 0 km/h
831 07-03-2010 22:15:03 -2.8 C 1.79 g/m*3 -2.8 C 0 km/h
832 07-03-2010 22:27:03 -2.8 C 1.83 g/m*3 -2.8 C 0 km/h
833 07-03-2010 22:39:03 -3 C 1.85 g/m*3 -3 C 0 km/h
834 07-03-2010 22:51:03 -3.2 C 1.9 g/m*3 -3.2 C 0 km/h
835 07-03-2010 23:03:04 -3.3 C 1.96 g/m*3 -3.3 C 0 km/h
836 07-03-2010 23:15:04 -3.4 C 1.95 g/m*3 -3.4 C 0 km/h
837 07-03-2010 23:27:04 -3.4 C 1.91 g/m*3 -3.4 C 0 km/h
838 07-03-2010 23:39:04 -3.4 C 1.83 g/m*3 -3.4 C 0 km/h
839 07-03-2010 23:51:04 -3.7 C 1.76 g/m*3 -3.7 C 0 km/h
840 08-03-2010 00:03:04 -3.9 C 1.81 g/m*3 -3.9 C 0 km/h
841 08-03-2010 00:15:04 -4 C 1.83 g/m*3 -4 C 0 km/h
842 08-03-2010 00:27:04 -4.2 C 1.77 g/m*3 -4.2 C 0 km/h
843 08-03-2010 00:39:04 -4.3 C 1.79 g/m*3 -4.3 C 0 km/h
844 08-03-2010 00:51:04 -4.5 C 1.8 g/m*3 -4.5 C 0 km/h
845 08-03-2010 01:03:04 -4.5 C 1.76 g/m*3 -4.5 C 0 km/h
846 08-03-2010 01:15:04 -4.6 C 1.75 g/m*3 -4.6 C 0 km/h
847 08-03-2010 01:27:04 -4.6 C 1.75 g/m*3 -4.6 C 0 km/h
848 08-03-2010 01:39:04 -4.7 C 1.7 g/m*3 -4.7 C 0 km/h
849 08-03-2010 01:51:04 -4.8 C 1.73 g/m*3 -4.8 C 0 km/h
850 08-03-2010 02:03:04 -5 C 1.7 g/m*3 -5 C 0 km/h
Sensor: Nr:Datum:Temp:Abs-Feuchte:Windchill:Wind:
Aussen-T/F 851 08-03-2010 02:15:04 -4.9 C 1.68 g/m*3 -4.9 C 0 km/h
852 08-03-2010 02:27:04 -5 C 1.6 g/m*3 -5 C 0 km/h
853 08-03-2010 02:39:04 -4.7 C 1.53 g/m*3 -4.7 C 0 km/h
854 08-03-2010 02:51:04 -5 C 1.63 g/m*3 -5 C 0 km/h
855 08-03-2010 03:03:04 -5.3 C 1.7 g/m*3 -5.3 C 0 km/h
856 08-03-2010 03:15:05 -5.8 C 1.67 g/m*3 -5.8 C 0 km/h
857 08-03-2010 03:27:05 -5.9 C 1.72 g/m*3 -5.9 C 0 km/h
858 08-03-2010 03:39:05 -5.8 C 1.74 g/m*3 -5.8 C 0 km/h
859 08-03-2010 03:51:05 -6 C 1.71 g/m*3 -6 C 0 km/h
860 08-03-2010 04:03:05 -6.1 C 1.73 g/m*3 -6.1 C 0 km/h
861 08-03-2010 04:15:05 -6.1 C 1.73 g/m*3 -6.1 C 0 km/h
862 08-03-2010 04:27:05 -6.4 C 1.72 g/m*3 -6.4 C 0 km/h
863 08-03-2010 04:39:05 -6.4 C 1.75 g/m*3 -6.4 C 0 km/h
864 08-03-2010 04:51:05 -6.6 C 1.73 g/m*3 -6.6 C 0 km/h
865 08-03-2010 05:03:05 -6.6 C 1.73 g/m*3 -6.6 C 0 km/h
866 08-03-2010 05:15:05 -6.8 C 1.73 g/m*3 -6.8 C 0 km/h
867 08-03-2010 05:27:05 -6.9 C 1.75 g/m*3 -6.9 C 0 km/h
868 08-03-2010 05:39:05 -7.1 C 1.72 g/m*3 -7.1 C 0 km/h
869 08-03-2010 05:51:05 -7.2 C 1.74 g/m*3 -7.2 C 0 km/h
870 08-03-2010 06:03:05 -7.3 C 1.76 g/m*3 -7.3 C 0 km/h
871 08-03-2010 06:15:05 -7.3 C 1.76 g/m*3 -7.3 C 0 km/h
872 08-03-2010 06:27:05 -7.3 C 1.76 g/m*3 -7.3 C 0 km/h
873 08-03-2010 06:39:05 -7.2 C 1.83 g/m*3 -7.2 C 0 km/h
874 08-03-2010 06:51:05 -7.4 C 1.83 g/m*3 -7.4 C 0 km/h
875 08-03-2010 07:03:02 -7.4 C 1.83 g/m*3 -7.4 C 0 km/h
Sensor: Nr:Datum:Temp:Abs-Feuchte:Windchill:Wind:
Aussen-T/F 876 08-03-2010 07:15:03 -7.5 C 1.82 g/m*3 -7.5 C 0 km/h
877 08-03-2010 07:27:03 -7.3 C 1.9 g/m*3 -7.3 C 0 km/h
878 08-03-2010 07:39:03 -7 C 1.97 g/m*3 -7 C 0 km/h
879 08-03-2010 07:51:01 -6.5 C 2.05 g/m*3 -6.5 C 0 km/h
880 08-03-2010 08:03:01 -6.1 C 2.11 g/m*3 -6.1 C 0 km/h
881 08-03-2010 08:15:01 -5.8 C 2.09 g/m*3 -5.8 C 0 km/h
882 08-03-2010 08:27:01 -5.3 C 2.1 g/m*3 -5.3 C 0 km/h
883 08-03-2010 08:39:02 -5 C 2.08 g/m*3 -5 C 0 km/h
884 08-03-2010 08:51:02 -4.5 C 2.12 g/m*3 -4.5 C 0 km/h
885 08-03-2010 09:03:02 -4.2 C 2.02 g/m*3 -4.2 C 0 km/h
886 08-03-2010 09:15:02 -3.7 C 2.06 g/m*3 -3.7 C 0 km/h
887 08-03-2010 09:27:02 -3.1 C 2.15 g/m*3 -3.1 C 0 km/h
888 08-03-2010 09:39:02 -2.5 C 2.12 g/m*3 -2.5 C 0 km/h
889 08-03-2010 09:51:02 -2.1 C 2.01 g/m*3 -2.1 C 0 km/h
890 08-03-2010 10:03:01 -1.7 C 2.02 g/m*3 -1.7 C 0 km/h
891 08-03-2010 10:15:01 -1.3 C 1.99 g/m*3 -1.3 C 0 km/h
892 08-03-2010 10:27:01 -0.6 C 1.95 g/m*3 -0.6 C 0 km/h
893 08-03-2010 10:39:02 0 C 1.94 g/m*3 0 C 0 km/h
894 08-03-2010 10:51:02 0.4 C 1.74 g/m*3 0.4 C 0 km/h
895 08-03-2010 11:03:01 0.7 C 1.78 g/m*3 0.7 C 0 km/h
896 08-03-2010 11:15:02 1.1 C 1.83 g/m*3 1.1 C 0 km/h
897 08-03-2010 11:27:02 1.3 C 1.7 g/m*3 1.3 C 0 km/h
898 08-03-2010 11:39:02 1.7 C 1.85 g/m*3 1.7 C 0 km/h
899 08-03-2010 11:51:01 2.4 C 1.77 g/m*3 2.4 C 0 km/h
900 08-03-2010 12:03:02 2.6 C 1.62 g/m*3 2.6 C 0 km/h
Sensor: Nr:Datum:Temp:Abs-Feuchte:Windchill:Wind:
Aussen-T/F 901 08-03-2010 12:15:01 3.1 C 1.68 g/m*3 3.1 C 0 km/h
902 08-03-2010 12:27:01 3.2 C 1.63 g/m*3 3.2 C 0 km/h
903 08-03-2010 12:39:02 3.4 C 1.53 g/m*3 3.4 C 0 km/h
904 08-03-2010 12:51:02 3.2 C 1.39 g/m*3 3.2 C 0 km/h
905 08-03-2010 13:03:02 3.2 C 1.51 g/m*3 3.2 C 0 km/h
906 08-03-2010 13:15:02 3.6 C 1.61 g/m*3 3.6 C 0 km/h
907 08-03-2010 13:27:02 4.5 C 1.31 g/m*3 4.5 C 0 km/h
908 08-03-2010 13:39:02 4.9 C 1.35 g/m*3 4.9 C 0 km/h
909 08-03-2010 13:51:02 4.9 C 1.35 g/m*3 4.9 C 0 km/h
910 08-03-2010 14:03:02 4.8 C 1.34 g/m*3 4.8 C 0 km/h
911 08-03-2010 14:15:02 3.9 C 1.26 g/m*3 3.9 C 0 km/h
912 08-03-2010 14:27:02 3.5 C 1.41 g/m*3 3.5 C 0 km/h
913 08-03-2010 14:39:02 3.8 C 1.44 g/m*3 3.8 C 0 km/h
914 08-03-2010 14:51:02 4.6 C 1.32 g/m*3 4.6 C 0 km/h
915 08-03-2010 15:03:01 4.3 C 1.3 g/m*3 4.3 C 0 km/h
916 08-03-2010 15:15:02 4.9 C 1.35 g/m*3 4.9 C 0 km/h
917 08-03-2010 15:27:02 5.1 C 1.37 g/m*3 5.1 C 0 km/h
918 08-03-2010 15:39:01 6.4 C 1.49 g/m*3 6.4 C 0 km/h
919 08-03-2010 15:51:02 6.7 C 1.52 g/m*3 6.7 C 0 km/h
920 08-03-2010 16:03:01 6.5 C 1.5 g/m*3 6.5 C 0 km/h
921 08-03-2010 16:15:02 6.6 C 1.51 g/m*3 6.6 C 0 km/h
922 08-03-2010 16:27:02 6.9 C 1.54 g/m*3 6.9 C 0 km/h
923 08-03-2010 16:39:01 6.7 C 1.52 g/m*3 6.7 C 0 km/h
924 08-03-2010 16:51:02 6.4 C 1.49 g/m*3 6.4 C 0 km/h
925 08-03-2010 17:03:02 6.2 C 1.47 g/m*3 6.2 C 0 km/h
Sensor: Nr:Datum:Temp:Abs-Feuchte:Windchill:Wind:
Aussen-T/F 926 08-03-2010 17:15:02 6.3 C 1.48 g/m*3 6.3 C 0 km/h
927 08-03-2010 17:27:02 5.8 C 1.43 g/m*3 5.8 C 0 km/h
928 08-03-2010 17:39:02 4.6 C 1.32 g/m*3 4.6 C 0 km/h
929 08-03-2010 17:51:02 4.2 C 1.29 g/m*3 4.2 C 0 km/h
930 08-03-2010 18:03:02 3.7 C 1.56 g/m*3 3.7 C 0 km/h
931 08-03-2010 18:15:01 2.9 C 1.71 g/m*3 2.9 C 0 km/h
932 08-03-2010 18:27:01 1.8 C 1.75 g/m*3 1.8 C 0 km/h
933 08-03-2010 18:39:02 1.4 C 1.87 g/m*3 1.4 C 0 km/h
934 08-03-2010 18:51:02 0.7 C 2.03 g/m*3 0.7 C 0 km/h
935 08-03-2010 19:03:02 0.4 C 2.04 g/m*3 0.4 C 0 km/h
936 08-03-2010 19:15:02 0.1 C 2.1 g/m*3 0.1 C 0 km/h
937 08-03-2010 19:27:02 -0.2 C 2.15 g/m*3 -0.2 C 0 km/h
938 08-03-2010 19:39:02 -0.3 C 2.04 g/m*3 -0.3 C 0 km/h
939 08-03-2010 19:51:01 -0.3 C 1.99 g/m*3 -0.3 C 0 km/h
940 08-03-2010 20:03:02 -0.6 C 2 g/m*3 -0.6 C 0 km/h
941 08-03-2010 20:15:01 -0.7 C 2.08 g/m*3 -0.7 C 0 km/h
942 08-03-2010 20:27:01 -1.1 C 2.11 g/m*3 -1.1 C 0 km/h
943 08-03-2010 20:39:01 -1.2 C 2.1 g/m*3 -1.2 C 0 km/h
944 08-03-2010 20:51:01 -1.4 C 2.15 g/m*3 -1.4 C 0 km/h
945 08-03-2010 21:03:02 -1.4 C 2.15 g/m*3 -1.4 C 0 km/h
946 08-03-2010 21:15:01 -1.5 C 2.18 g/m*3 -1.5 C 0 km/h
947 08-03-2010 21:27:01 -1.3 C 2.26 g/m*3 -1.3 C 0 km/h
948 08-03-2010 21:40:03 -1.3 C 2.26 g/m*3 -1.3 C 0 km/h
949 08-03-2010 21:52:03 -1.2 C 2.32 g/m*3 -1.2 C 0 km/h
950 08-03-2010 22:04:03 -1.2 C 2.36 g/m*3 -1.2 C 0 km/h
Sensor: Nr:Datum:Temp:Abs-Feuchte:Windchill:Wind:
Aussen-T/F 951 08-03-2010 22:16:03 -1.2 C 2.32 g/m*3 -1.2 C 0 km/h
952 08-03-2010 22:28:03 -1.1 C 2.24 g/m*3 -1.1 C 0 km/h
953 08-03-2010 22:40:03 -0.9 C 2.09 g/m*3 -0.9 C 0 km/h
954 08-03-2010 22:52:03 -1 C 2.08 g/m*3 -1 C 0 km/h
955 08-03-2010 23:04:03 -1.4 C 2.07 g/m*3 -1.4 C 0 km/h
956 08-03-2010 23:16:04 -1.8 C 2.05 g/m*3 -1.8 C 0 km/h
957 08-03-2010 23:28:04 -1.9 C 2.04 g/m*3 -1.9 C 0 km/h
958 08-03-2010 23:40:04 -1.9 C 2.08 g/m*3 -1.9 C 0 km/h
959 08-03-2010 23:52:04 -2 C 2.11 g/m*3 -2 C 0 km/h
960 09-03-2010 00:04:04 -2.1 C 2.13 g/m*3 -2.1 C 0 km/h
961 09-03-2010 00:16:04 -2.2 C 2.12 g/m*3 -2.2 C 0 km/h
962 09-03-2010 00:28:04 -2.4 C 2.09 g/m*3 -2.4 C 0 km/h
963 09-03-2010 00:40:04 -2.4 C 2.09 g/m*3 -2.4 C 0 km/h
964 09-03-2010 00:52:04 -2.6 C 2.14 g/m*3 -2.6 C 0 km/h
965 09-03-2010 01:04:04 -2.8 C 2.15 g/m*3 -2.8 C 0 km/h
966 09-03-2010 01:16:04 -3 C 2.2 g/m*3 -3 C 0 km/h
967 09-03-2010 01:28:04 -3.1 C 2.22 g/m*3 -3.1 C 0 km/h
968 09-03-2010 01:40:04 -3.2 C 2.21 g/m*3 -3.2 C 0 km/h
969 09-03-2010 01:52:04 -3.3 C 2.19 g/m*3 -3.3 C 0 km/h
970 09-03-2010 02:04:04 -3.4 C 2.18 g/m*3 -3.4 C 0 km/h
971 09-03-2010 02:16:05 -3.4 C 2.21 g/m*3 -3.4 C 0 km/h
972 09-03-2010 02:28:05 -3.3 C 2.23 g/m*3 -3.3 C 0 km/h
973 09-03-2010 02:40:05 -3.3 C 2.23 g/m*3 -3.3 C 0 km/h
974 09-03-2010 02:52:05 -3.5 C 2.24 g/m*3 -3.5 C 0 km/h
975 09-03-2010 03:04:05 -3.7 C 2.24 g/m*3 -3.7 C 0 km/h
Sensor: Nr:Datum:Temp:Abs-Feuchte:Windchill:Wind:
Aussen-T/F 976 09-03-2010 03:16:05 -3.8 C 2.23 g/m*3 -3.8 C 0 km/h
977 09-03-2010 03:28:05 -3.9 C 2.25 g/m*3 -3.9 C 0 km/h
978 09-03-2010 03:40:05 -4 C 2.27 g/m*3 -4 C 0 km/h
979 09-03-2010 03:52:05 -4.1 C 2.29 g/m*3 -4.1 C 0 km/h
980 09-03-2010 04:04:05 -4.2 C 2.27 g/m*3 -4.2 C 0 km/h
981 09-03-2010 04:16:05 -4.3 C 2.29 g/m*3 -4.3 C 0 km/h
982 09-03-2010 04:28:05 -4.5 C 2.22 g/m*3 -4.5 C 0 km/h
983 09-03-2010 04:40:05 -4.5 C 2.19 g/m*3 -4.5 C 0 km/h
984 09-03-2010 04:52:05 -4.5 C 2.19 g/m*3 -4.5 C 0 km/h
985 09-03-2010 05:04:05 -4.6 C 2.17 g/m*3 -4.6 C 0 km/h
986 09-03-2010 05:16:05 -4.7 C 2.16 g/m*3 -4.7 C 0 km/h
987 09-03-2010 05:28:05 -4.8 C 2.14 g/m*3 -4.8 C 0 km/h
988 09-03-2010 05:40:05 -4.9 C 2.16 g/m*3 -4.9 C 0 km/h
989 09-03-2010 05:52:05 -4.9 C 2.16 g/m*3 -4.9 C 0 km/h
990 09-03-2010 06:04:05 -4.8 C 2.14 g/m*3 -4.8 C 0 km/h
991 09-03-2010 06:16:05 -4.8 C 2.14 g/m*3 -4.8 C 0 km/h
992 09-03-2010 06:28:05 -4.9 C 2.13 g/m*3 -4.9 C 0 km/h
993 09-03-2010 06:40:06 -5.2 C 2.08 g/m*3 -5.2 C 0 km/h
994 09-03-2010 06:52:06 -5.3 C 2.07 g/m*3 -5.3 C 0 km/h
995 09-03-2010 07:04:03 -5.6 C 2.05 g/m*3 -5.6 C 0 km/h
996 09-03-2010 07:16:03 -5.6 C 2.09 g/m*3 -5.6 C 0 km/h
997 09-03-2010 07:28:03 -5.4 C 2.15 g/m*3 -5.4 C 0 km/h
998 09-03-2010 07:40:03 -5.3 C 2.17 g/m*3 -5.3 C 0 km/h
999 09-03-2010 07:52:02 -5.3 C 2.17 g/m*3 -5.3 C 0 km/h
1000 09-03-2010 08:04:02 -5.2 C 2.18 g/m*3 -5.2 C 0 km/h
Sensor: Nr:Datum:Temp:Abs-Feuchte:Windchill:Wind:
Aussen-T/F 1001 09-03-2010 08:16:02 -5 C 2.18 g/m*3 -5 C 0 km/h
1002 09-03-2010 08:28:02 -4.9 C 2.16 g/m*3 -4.9 C 0 km/h
1003 09-03-2010 08:40:02 -4.8 C 2.14 g/m*3 -4.8 C 0 km/h
1004 09-03-2010 08:52:02 -4.7 C 2.16 g/m*3 -4.7 C 0 km/h
1005 09-03-2010 09:04:01 -4.5 C 2.19 g/m*3 -4.5 C 0 km/h
1006 09-03-2010 09:16:02 -4.2 C 2.16 g/m*3 -4.2 C 0 km/h
1007 09-03-2010 09:28:02 -3.9 C 2.17 g/m*3 -3.9 C 0 km/h
1008 09-03-2010 09:40:01 -3.4 C 2.18 g/m*3 -3.4 C 0 km/h
1009 09-03-2010 09:52:02 -2.7 C 2.13 g/m*3 -2.7 C 0 km/h
1010 09-03-2010 10:04:01 -2.4 C 2.09 g/m*3 -2.4 C 0 km/h
1011 09-03-2010 10:16:01 -1.9 C 2.08 g/m*3 -1.9 C 0 km/h
1012 09-03-2010 10:28:01 -1.2 C 2.05 g/m*3 -1.2 C 0 km/h
1013 09-03-2010 10:40:02 -0.7 C 1.94 g/m*3 -0.7 C 0 km/h
1014 09-03-2010 10:52:02 -0.4 C 1.84 g/m*3 -0.4 C 0 km/h
1015 09-03-2010 11:04:01 -0.1 C 1.73 g/m*3 -0.1 C 0 km/h
1016 09-03-2010 11:16:02 0.3 C 1.63 g/m*3 0.3 C 0 km/h
1017 09-03-2010 11:28:02 0.5 C 1.5 g/m*3 0.5 C 0 km/h
1018 09-03-2010 11:40:02 0.5 C 1.3 g/m*3 0.5 C 0 km/h
1019 09-03-2010 11:52:01 0.8 C 1.28 g/m*3 0.8 C 0 km/h
1020 09-03-2010 12:04:02 1 C 1.09 g/m*3 1 C 0 km/h
1021 09-03-2010 12:16:01 1.3 C 1.06 g/m*3 1.3 C 0 km/h
1022 09-03-2010 12:28:01 1.6 C 1.14 g/m*3 1.6 C 0 km/h
1023 09-03-2010 12:40:02 1.8 C 1.1 g/m*3 1.8 C 0 km/h
1024 09-03-2010 12:52:02 2.2 C 1.13 g/m*3 2.2 C 0 km/h
1025 09-03-2010 13:04:02 2.2 C 1.13 g/m*3 2.2 C 0 km/h
Sensor: Nr:Datum:Temp:Abs-Feuchte:Windchill:Wind:
Aussen-T/F 1026 09-03-2010 13:16:01 2.9 C 1.18 g/m*3 2.9 C 0 km/h
1027 09-03-2010 13:28:01 3.2 C 1.21 g/m*3 3.2 C 0 km/h
1028 09-03-2010 13:40:02 3.5 C 1.23 g/m*3 3.5 C 0 km/h
1029 09-03-2010 13:52:02 3.7 C 1.25 g/m*3 3.7 C 0 km/h
1030 09-03-2010 14:04:02 3.9 C 1.26 g/m*3 3.9 C 0 km/h
1031 09-03-2010 14:16:02 4.5 C 1.31 g/m*3 4.5 C 0 km/h
1032 09-03-2010 14:28:02 4.9 C 1.35 g/m*3 4.9 C 0 km/h
1033 09-03-2010 14:40:02 5.3 C 1.39 g/m*3 5.3 C 0 km/h
1034 09-03-2010 14:52:02 5.7 C 1.42 g/m*3 5.7 C 0 km/h
1035 09-03-2010 15:04:02 5.7 C 1.42 g/m*3 5.7 C 0 km/h
1036 09-03-2010 15:16:02 5.7 C 1.42 g/m*3 5.7 C 0 km/h
1037 09-03-2010 15:28:02 5.7 C 1.42 g/m*3 5.7 C 0 km/h
1038 09-03-2010 15:40:02 6.2 C 1.47 g/m*3 6.2 C 0 km/h
1039 09-03-2010 15:52:02 6 C 1.45 g/m*3 6 C 0 km/h
1040 09-03-2010 16:04:02 5.9 C 1.44 g/m*3 5.9 C 0 km/h
1041 09-03-2010 16:16:02 5.8 C 1.43 g/m*3 5.8 C 0 km/h
1042 09-03-2010 16:28:02 6.3 C 1.48 g/m*3 6.3 C 0 km/h
1043 09-03-2010 16:40:02 6.3 C 1.48 g/m*3 6.3 C 0 km/h
1044 09-03-2010 16:52:02 6.2 C 1.47 g/m*3 6.2 C 0 km/h
1045 09-03-2010 17:04:02 5.5 C 1.4 g/m*3 5.5 C 0 km/h
1046 09-03-2010 17:16:03 5.2 C 1.38 g/m*3 5.2 C 0 km/h
1047 09-03-2010 17:28:03 4.8 C 1.34 g/m*3 4.8 C 0 km/h
1048 09-03-2010 17:40:02 4.4 C 1.31 g/m*3 4.4 C 0 km/h
1049 09-03-2010 17:52:02 4 C 1.27 g/m*3 4 C 0 km/h
1050 09-03-2010 18:04:02 3.2 C 1.21 g/m*3 3.2 C 0 km/h
Sensor: Nr:Datum:Temp:Abs-Feuchte:Windchill:Wind:
Aussen-T/F 1051 09-03-2010 18:16:02 2.4 C 1.14 g/m*3 2.4 C 0 km/h
1052 09-03-2010 18:28:02 1.5 C 1.07 g/m*3 1.5 C 0 km/h
1053 09-03-2010 18:40:02 1.1 C 1.05 g/m*3 1.1 C 0 km/h
1054 09-03-2010 18:52:02 0.7 C 1.02 g/m*3 0.7 C 0 km/h
1055 09-03-2010 19:04:02 0.5 C 1 g/m*3 0.5 C 0 km/h
1056 09-03-2010 19:16:02 0.2 C 0.98 g/m*3 0.2 C 0 km/h
1057 09-03-2010 19:28:02 -0.1 C 0.96 g/m*3 -0.1 C 0 km/h
1058 09-03-2010 19:40:02 -0.3 C 0.95 g/m*3 -0.3 C 0 km/h
1059 09-03-2010 19:52:02 -0.6 C 0.93 g/m*3 -0.6 C 0 km/h
1060 09-03-2010 20:04:01 -0.6 C 0.93 g/m*3 -0.6 C 0 km/h
1061 09-03-2010 20:16:02 -0.8 C 0.92 g/m*3 -0.8 C 0 km/h
1062 09-03-2010 20:28:03 -1.2 C 0.89 g/m*3 -1.2 C 0 km/h
1063 09-03-2010 20:40:01 -1.4 C 0.88 g/m*3 -1.4 C 0 km/h
1064 09-03-2010 20:52:02 -1.5 C 0.92 g/m*3 -1.5 C 0 km/h
1065 09-03-2010 21:04:01 -1.7 C 0.9 g/m*3 -1.7 C 0 km/h
1066 09-03-2010 21:16:02 -1.7 C 0.86 g/m*3 -1.7 C 0 km/h
1067 09-03-2010 21:28:02 -1.9 C 0.85 g/m*3 -1.9 C 0 km/h
1068 09-03-2010 21:40:02 -1.8 C 0.85 g/m*3 -1.8 C 0 km/h
1069 09-03-2010 21:52:02 -1.9 C 0.85 g/m*3 -1.9 C 0 km/h
1070 09-03-2010 22:04:02 -1.8 C 0.85 g/m*3 -1.8 C 0 km/h
1071 09-03-2010 22:16:02 -1.7 C 0.86 g/m*3 -1.7 C 0 km/h
1072 09-03-2010 22:28:02 -1.7 C 0.86 g/m*3 -1.7 C 0 km/h
1073 09-03-2010 22:40:02 -1.8 C 0.85 g/m*3 -1.8 C 0 km/h
1074 09-03-2010 22:52:02 -1.8 C 0.9 g/m*3 -1.8 C 0 km/h
1075 09-03-2010 23:05:02 -2 C 1.1 g/m*3 -2 C 0 km/h
Sensor: Nr:Datum:Temp:Abs-Feuchte:Windchill:Wind:
Aussen-T/F 1076 09-03-2010 23:17:02 -2.3 C 1.24 g/m*3 -2.3 C 0 km/h
1077 09-03-2010 23:29:02 -2.4 C 1.27 g/m*3 -2.4 C 0 km/h
1078 09-03-2010 23:41:02 -2.5 C 1.34 g/m*3 -2.5 C 0 km/h
1079 09-03-2010 23:53:02 -2.6 C 1.41 g/m*3 -2.6 C 0 km/h
1080 10-03-2010 00:05:02 -2.7 C 1.48 g/m*3 -2.7 C 0 km/h
1081 10-03-2010 00:17:02 -2.8 C 1.55 g/m*3 -2.8 C 0 km/h
1082 10-03-2010 00:29:02 -2.7 C 1.56 g/m*3 -2.7 C 0 km/h
1083 10-03-2010 00:41:02 -2.6 C 1.58 g/m*3 -2.6 C 0 km/h
1084 10-03-2010 00:53:02 -2.7 C 1.6 g/m*3 -2.7 C 0 km/h
1085 10-03-2010 01:05:03 -3 C 1.65 g/m*3 -3 C 0 km/h
1086 10-03-2010 01:17:03 -3.1 C 1.68 g/m*3 -3.1 C 0 km/h
1087 10-03-2010 01:29:03 -3.2 C 1.7 g/m*3 -3.2 C 0 km/h
1088 10-03-2010 01:41:03 -3 C 1.73 g/m*3 -3 C 0 km/h
1089 10-03-2010 01:53:03 -3.4 C 1.72 g/m*3 -3.4 C 0 km/h
1090 10-03-2010 02:05:03 -3.4 C 1.76 g/m*3 -3.4 C 0 km/h
1091 10-03-2010 02:17:03 -3.5 C 1.74 g/m*3 -3.5 C 0 km/h
1092 10-03-2010 02:29:03 -3.6 C 1.77 g/m*3 -3.6 C 0 km/h
1093 10-03-2010 02:41:03 -3.8 C 1.78 g/m*3 -3.8 C 0 km/h
1094 10-03-2010 02:53:03 -3.8 C 1.78 g/m*3 -3.8 C 0 km/h
1095 10-03-2010 03:05:03 -3.8 C 1.78 g/m*3 -3.8 C 0 km/h
1096 10-03-2010 03:17:03 -3.8 C 1.82 g/m*3 -3.8 C 0 km/h
1097 10-03-2010 03:29:03 -3.9 C 1.81 g/m*3 -3.9 C 0 km/h
1098 10-03-2010 03:41:03 -3.9 C 1.77 g/m*3 -3.9 C 0 km/h
1099 10-03-2010 03:53:03 -3.9 C 1.77 g/m*3 -3.9 C 0 km/h
1100 10-03-2010 04:05:03 -3.6 C 1.81 g/m*3 -3.6 C 0 km/h
Sensor: Nr:Datum:Temp:Abs-Feuchte:Windchill:Wind:
Aussen-T/F 1101 10-03-2010 04:17:03 -3.5 C 1.78 g/m*3 -3.5 C 0 km/h
1102 10-03-2010 04:29:03 -3.5 C 1.74 g/m*3 -3.5 C 0 km/h
1103 10-03-2010 04:41:03 -3.5 C 1.74 g/m*3 -3.5 C 0 km/h
1104 10-03-2010 04:53:03 -3.5 C 1.71 g/m*3 -3.5 C 0 km/h
1105 10-03-2010 05:05:03 -3.6 C 1.69 g/m*3 -3.6 C 0 km/h
1106 10-03-2010 05:17:03 -3.5 C 1.71 g/m*3 -3.5 C 0 km/h
1107 10-03-2010 05:29:04 -3.5 C 1.71 g/m*3 -3.5 C 0 km/h
1108 10-03-2010 05:41:04 -3.5 C 1.71 g/m*3 -3.5 C 0 km/h
1109 10-03-2010 05:53:04 -3.4 C 1.68 g/m*3 -3.4 C 0 km/h
1110 10-03-2010 06:05:04 -3.6 C 1.66 g/m*3 -3.6 C 0 km/h
1111 10-03-2010 06:17:04 -3.6 C 1.69 g/m*3 -3.6 C 0 km/h
1112 10-03-2010 06:29:04 -3.9 C 1.69 g/m*3 -3.9 C 0 km/h
1113 10-03-2010 06:41:04 -3.8 C 1.67 g/m*3 -3.8 C 0 km/h
1114 10-03-2010 06:53:04 -3.7 C 1.68 g/m*3 -3.7 C 0 km/h
1115 10-03-2010 07:05:02 -3.7 C 1.68 g/m*3 -3.7 C 0 km/h
1116 10-03-2010 07:17:02 -3.6 C 1.69 g/m*3 -3.6 C 0 km/h
1117 10-03-2010 07:29:02 -3.6 C 1.69 g/m*3 -3.6 C 0 km/h
1118 10-03-2010 07:41:02 -3.4 C 1.72 g/m*3 -3.4 C 0 km/h
1119 10-03-2010 07:53:02 -3 C 1.69 g/m*3 -3 C 0 km/h
1120 10-03-2010 08:05:02 -2.7 C 1.69 g/m*3 -2.7 C 0 km/h
1121 10-03-2010 08:17:02 -2.5 C 1.67 g/m*3 -2.5 C 0 km/h
1122 10-03-2010 08:29:02 -2.1 C 1.67 g/m*3 -2.1 C 0 km/h
1123 10-03-2010 08:41:02 -1.8 C 1.62 g/m*3 -1.8 C 0 km/h
1124 10-03-2010 08:53:02 -1.3 C 1.51 g/m*3 -1.3 C 0 km/h
1125 10-03-2010 09:05:02 -1 C 1.4 g/m*3 -1 C 0 km/h
Sensor: Nr:Datum:Temp:Abs-Feuchte:Windchill:Wind:
Aussen-T/F 1126 10-03-2010 09:17:02 -0.8 C 1.38 g/m*3 -0.8 C 0 km/h
1127 10-03-2010 09:29:02 -0.4 C 1.23 g/m*3 -0.4 C 0 km/h
1128 10-03-2010 09:41:01 -0.1 C 1.2 g/m*3 -0.1 C 0 km/h
1129 10-03-2010 09:53:01 0.5 C 1 g/m*3 0.5 C 0 km/h
1130 10-03-2010 10:05:01 1.1 C 1.05 g/m*3 1.1 C 0 km/h
1131 10-03-2010 10:17:02 1.4 C 1.07 g/m*3 1.4 C 0 km/h
1132 10-03-2010 10:29:02 1.8 C 1.1 g/m*3 1.8 C 0 km/h
1133 10-03-2010 10:41:01 2.3 C 1.13 g/m*3 2.3 C 0 km/h
1134 10-03-2010 10:53:02 2.8 C 1.17 g/m*3 2.8 C 0 km/h
1135 10-03-2010 11:05:01 3.3 C 1.21 g/m*3 3.3 C 0 km/h
1136 10-03-2010 11:17:02 3.6 C 1.24 g/m*3 3.6 C 0 km/h
1137 10-03-2010 11:29:02 3.9 C 1.26 g/m*3 3.9 C 0 km/h
1138 10-03-2010 11:41:01 4.1 C 1.28 g/m*3 4.1 C 0 km/h
1139 10-03-2010 11:53:02 4.3 C 1.62 g/m*3 4.3 C 0 km/h
1140 10-03-2010 12:05:02 4.6 C 1.52 g/m*3 4.6 C 0 km/h
1141 10-03-2010 12:17:02 5.1 C 1.57 g/m*3 5.1 C 0 km/h
1142 10-03-2010 12:29:02 5.7 C 1.49 g/m*3 5.7 C 0 km/h
1143 10-03-2010 12:41:01 6.1 C 1.46 g/m*3 6.1 C 0 km/h
1144 10-03-2010 12:53:02 6.5 C 1.5 g/m*3 6.5 C 0 km/h
1145 10-03-2010 13:05:01 6.6 C 1.51 g/m*3 6.6 C 0 km/h
1146 10-03-2010 13:17:01 7 C 1.55 g/m*3 7 C 0 km/h
1147 10-03-2010 13:29:01 7.4 C 1.59 g/m*3 7.4 C 0 km/h
1148 10-03-2010 13:41:02 7.6 C 1.61 g/m*3 7.6 C 0 km/h
1149 10-03-2010 13:53:02 8 C 1.65 g/m*3 8 C 0 km/h
1150 10-03-2010 14:05:02 8.2 C 1.67 g/m*3 8.2 C 0 km/h
Sensor: Nr:Datum:Temp:Abs-Feuchte:Windchill:Wind:
Aussen-T/F 1151 10-03-2010 14:17:02 8.2 C 1.67 g/m*3 8.2 C 0 km/h
1152 10-03-2010 14:29:02 8.3 C 1.69 g/m*3 8.3 C 0 km/h
1153 10-03-2010 14:41:02 8.5 C 1.71 g/m*3 8.5 C 0 km/h
1154 10-03-2010 14:53:02 8.2 C 1.67 g/m*3 8.2 C 0 km/h
1155 10-03-2010 15:05:03 8.7 C 1.73 g/m*3 8.7 C 0 km/h
1156 10-03-2010 15:17:02 9.3 C 1.8 g/m*3 9.3 C 0 km/h
1157 10-03-2010 15:29:02 8.7 C 1.73 g/m*3 8.7 C 0 km/h
1158 10-03-2010 15:41:02 8.4 C 1.7 g/m*3 8.4 C 0 km/h
1159 10-03-2010 15:53:01 8.8 C 1.74 g/m*3 8.8 C 0 km/h
1160 10-03-2010 16:05:02 8.7 C 1.73 g/m*3 8.7 C 0 km/h
1161 10-03-2010 16:17:01 8.3 C 1.69 g/m*3 8.3 C 0 km/h
1162 10-03-2010 16:29:01 7.8 C 1.63 g/m*3 7.8 C 0 km/h
1163 10-03-2010 16:41:01 7.4 C 1.59 g/m*3 7.4 C 0 km/h
1164 10-03-2010 16:53:01 7.1 C 1.56 g/m*3 7.1 C 0 km/h
1165 10-03-2010 17:05:02 6.8 C 1.53 g/m*3 6.8 C 0 km/h
1166 10-03-2010 17:17:02 6.5 C 1.5 g/m*3 6.5 C 0 km/h
1167 10-03-2010 17:29:02 6.2 C 1.47 g/m*3 6.2 C 0 km/h
1168 10-03-2010 17:41:01 6.1 C 1.46 g/m*3 6.1 C 0 km/h
1169 10-03-2010 17:53:01 5.7 C 1.42 g/m*3 5.7 C 0 km/h
1170 10-03-2010 18:05:01 5.4 C 1.4 g/m*3 5.4 C 0 km/h
1171 10-03-2010 18:17:02 5 C 1.36 g/m*3 5 C 0 km/h
1172 10-03-2010 18:29:02 4.4 C 1.5 g/m*3 4.4 C 0 km/h
1173 10-03-2010 18:41:01 4 C 1.78 g/m*3 4 C 0 km/h
1174 10-03-2010 18:53:02 3.7 C 1.93 g/m*3 3.7 C 0 km/h
1175 10-03-2010 19:05:01 3.7 C 1.81 g/m*3 3.7 C 0 km/h
Sensor: Nr:Datum:Temp:Abs-Feuchte:Windchill:Wind:
Aussen-T/F 1176 10-03-2010 19:17:02 3.5 C 1.72 g/m*3 3.5 C 0 km/h
1177 10-03-2010 19:29:02 3.3 C 1.7 g/m*3 3.3 C 0 km/h
1178 10-03-2010 19:41:01 2.9 C 1.89 g/m*3 2.9 C 0 km/h
1179 10-03-2010 19:53:03 2.7 C 1.81 g/m*3 2.7 C 0 km/h
1180 10-03-2010 20:05:02 2.7 C 1.81 g/m*3 2.7 C 0 km/h
1181 10-03-2010 20:17:02 2.5 C 1.78 g/m*3 2.5 C 0 km/h
1182 10-03-2010 20:29:02 2.4 C 1.83 g/m*3 2.4 C 0 km/h
1183 10-03-2010 20:41:02 2.3 C 1.76 g/m*3 2.3 C 0 km/h
1184 10-03-2010 20:53:02 2.2 C 1.8 g/m*3 2.2 C 0 km/h
1185 10-03-2010 21:05:01 2.2 C 1.75 g/m*3 2.2 C 0 km/h
1186 10-03-2010 21:18:02 2.1 C 1.73 g/m*3 2.1 C 0 km/h
1187 10-03-2010 21:30:02 1.9 C 1.93 g/m*3 1.9 C 0 km/h
1188 10-03-2010 21:42:02 1.8 C 1.92 g/m*3 1.8 C 0 km/h
1189 10-03-2010 21:54:02 1.7 C 1.96 g/m*3 1.7 C 0 km/h
1190 10-03-2010 22:06:02 1.5 C 1.99 g/m*3 1.5 C 0 km/h
1191 10-03-2010 22:18:02 1.5 C 1.99 g/m*3 1.5 C 0 km/h
1192 10-03-2010 22:30:02 1.4 C 2.03 g/m*3 1.4 C 0 km/h
1193 10-03-2010 22:42:02 1.4 C 2.03 g/m*3 1.4 C 0 km/h
1194 10-03-2010 22:54:02 1.4 C 2.08 g/m*3 1.4 C 0 km/h
1195 10-03-2010 23:06:02 1.1 C 2.09 g/m*3 1.1 C 0 km/h
1196 10-03-2010 23:18:02 0.8 C 2.15 g/m*3 0.8 C 0 km/h
1197 10-03-2010 23:30:02 0.6 C 2.22 g/m*3 0.6 C 0 km/h
1198 10-03-2010 23:42:02 0.4 C 2.24 g/m*3 0.4 C 0 km/h
1199 10-03-2010 23:54:02 0.2 C 2.26 g/m*3 0.2 C 0 km/h
1200 11-03-2010 00:06:02 0 C 2.33 g/m*3 0 C 0 km/h
Sensor: Nr:Datum:Temp:Abs-Feuchte:Windchill:Wind:
Aussen-T/F 1201 11-03-2010 00:18:02 0 C 2.33 g/m*3 0 C 0 km/h
1202 11-03-2010 00:30:02 -0.2 C 2.29 g/m*3 -0.2 C 0 km/h
1203 11-03-2010 00:42:02 -0.2 C 2.29 g/m*3 -0.2 C 0 km/h
1204 11-03-2010 00:54:02 -0.2 C 2.29 g/m*3 -0.2 C 0 km/h
1205 11-03-2010 01:06:02 -0.3 C 2.28 g/m*3 -0.3 C 0 km/h
1206 11-03-2010 01:18:03 -0.5 C 2.25 g/m*3 -0.5 C 0 km/h
1207 11-03-2010 01:30:03 -0.9 C 2.28 g/m*3 -0.9 C 0 km/h
1208 11-03-2010 01:42:03 -0.9 C 2.37 g/m*3 -0.9 C 0 km/h
1209 11-03-2010 01:54:03 -1.1 C 2.29 g/m*3 -1.1 C 0 km/h
1210 11-03-2010 02:06:03 -1 C 2.31 g/m*3 -1 C 0 km/h
1211 11-03-2010 02:18:03 -1.1 C 2.29 g/m*3 -1.1 C 0 km/h
1212 11-03-2010 02:30:03 -1.3 C 2.3 g/m*3 -1.3 C 0 km/h
1213 11-03-2010 02:42:03 -1.3 C 2.3 g/m*3 -1.3 C 0 km/h
1214 11-03-2010 02:54:03 -1.4 C 2.33 g/m*3 -1.4 C 0 km/h
1215 11-03-2010 03:06:03 -1.5 C 2.31 g/m*3 -1.5 C 0 km/h
1216 11-03-2010 03:18:03 -1.5 C 2.36 g/m*3 -1.5 C 0 km/h
1217 11-03-2010 03:30:03 -1.7 C 2.32 g/m*3 -1.7 C 0 km/h
1218 11-03-2010 03:42:03 -1.8 C 2.31 g/m*3 -1.8 C 0 km/h
1219 11-03-2010 03:54:03 -1.9 C 2.29 g/m*3 -1.9 C 0 km/h
1220 11-03-2010 04:06:03 -2 C 2.32 g/m*3 -2 C 0 km/h
1221 11-03-2010 04:18:03 -2 C 2.32 g/m*3 -2 C 0 km/h
1222 11-03-2010 04:30:03 -2.1 C 2.3 g/m*3 -2.1 C 0 km/h
1223 11-03-2010 04:42:03 -2.2 C 2.29 g/m*3 -2.2 C 0 km/h
1224 11-03-2010 04:54:03 -2.3 C 2.31 g/m*3 -2.3 C 0 km/h
1225 11-03-2010 05:06:03 -2.6 C 2.26 g/m*3 -2.6 C 0 km/h
Sensor: Nr:Datum:Temp:Abs-Feuchte:Windchill:Wind:
Aussen-T/F 1226 11-03-2010 05:18:03 -3 C 2.2 g/m*3 -3 C 0 km/h
1227 11-03-2010 05:30:04 -3 C 2.32 g/m*3 -3 C 0 km/h
1228 11-03-2010 05:42:04 -3 C 2.4 g/m*3 -3 C 0 km/h
1229 11-03-2010 05:54:04 -2.8 C 2.39 g/m*3 -2.8 C 0 km/h
1230 11-03-2010 06:06:04 -2.7 C 2.37 g/m*3 -2.7 C 0 km/h
1231 11-03-2010 06:18:04 -2.8 C 2.35 g/m*3 -2.8 C 0 km/h
1232 11-03-2010 06:30:04 -2.8 C 2.39 g/m*3 -2.8 C 0 km/h
1233 11-03-2010 06:42:04 -2.8 C 2.39 g/m*3 -2.8 C 0 km/h
1234 11-03-2010 06:54:04 -2.8 C 2.43 g/m*3 -2.8 C 0 km/h
1235 11-03-2010 07:06:02 -2.9 C 2.45 g/m*3 -2.9 C 0 km/h
1236 11-03-2010 07:18:01 -3 C 2.44 g/m*3 -3 C 0 km/h
1237 11-03-2010 07:30:01 -3 C 2.47 g/m*3 -3 C 0 km/h
1238 11-03-2010 07:42:02 -2.9 C 2.49 g/m*3 -2.9 C 0 km/h
1239 11-03-2010 07:54:01 -2.7 C 2.53 g/m*3 -2.7 C 0 km/h
1240 11-03-2010 08:06:02 -2.4 C 2.58 g/m*3 -2.4 C 0 km/h
1241 11-03-2010 08:18:02 -2.1 C 2.55 g/m*3 -2.1 C 0 km/h
1242 11-03-2010 08:30:02 -1.8 C 2.52 g/m*3 -1.8 C 0 km/h
1243 11-03-2010 08:42:01 -1.3 C 2.52 g/m*3 -1.3 C 0 km/h
1244 11-03-2010 08:54:02 -0.9 C 2.55 g/m*3 -0.9 C 0 km/h
1245 11-03-2010 09:06:01 -0.7 C 2.54 g/m*3 -0.7 C 0 km/h
1246 11-03-2010 09:18:02 -0.4 C 2.45 g/m*3 -0.4 C 0 km/h
1247 11-03-2010 09:30:03 -0.3 C 2.42 g/m*3 -0.3 C 0 km/h
1248 11-03-2010 09:42:01 -0.2 C 2.39 g/m*3 -0.2 C 0 km/h
1249 11-03-2010 09:54:02 -0.2 C 2.29 g/m*3 -0.2 C 0 km/h
1250 11-03-2010 10:06:02 0.1 C 2.34 g/m*3 0.1 C 0 km/h
Sensor: Nr:Datum:Temp:Abs-Feuchte:Windchill:Wind:
Aussen-T/F 1251 11-03-2010 10:18:02 0.2 C 2.36 g/m*3 0.2 C 0 km/h
1252 11-03-2010 10:30:02 0.2 C 2.31 g/m*3 0.2 C 0 km/h
1253 11-03-2010 10:42:03 0.4 C 2.39 g/m*3 0.4 C 0 km/h
1254 11-03-2010 10:54:02 0.9 C 2.42 g/m*3 0.9 C 0 km/h
1255 11-03-2010 11:06:01 1.1 C 2.35 g/m*3 1.1 C 0 km/h
1256 11-03-2010 11:18:02 1.4 C 2.35 g/m*3 1.4 C 0 km/h
1257 11-03-2010 11:30:02 1.6 C 2.27 g/m*3 1.6 C 0 km/h
1258 11-03-2010 11:42:02 1.9 C 2.26 g/m*3 1.9 C 0 km/h
1259 11-03-2010 11:54:02 2 C 2.17 g/m*3 2 C 0 km/h
1260 11-03-2010 12:06:03 2.2 C 2.2 g/m*3 2.2 C 0 km/h
1261 11-03-2010 12:18:02 2.7 C 2.21 g/m*3 2.7 C 0 km/h
1262 11-03-2010 12:30:02 3.1 C 2.04 g/m*3 3.1 C 0 km/h
1263 11-03-2010 12:42:02 3.6 C 1.98 g/m*3 3.6 C 0 km/h
1264 11-03-2010 12:54:02 4 C 1.91 g/m*3 4 C 0 km/h
1265 11-03-2010 13:06:02 4.5 C 1.84 g/m*3 4.5 C 0 km/h
1266 11-03-2010 13:18:01 4.8 C 1.68 g/m*3 4.8 C 0 km/h
1267 11-03-2010 13:30:01 5.1 C 1.78 g/m*3 5.1 C 0 km/h
1268 11-03-2010 13:42:02 5.9 C 1.87 g/m*3 5.9 C 0 km/h
1269 11-03-2010 13:54:02 5.6 C 1.84 g/m*3 5.6 C 0 km/h
1270 11-03-2010 14:06:02 6.1 C 1.9 g/m*3 6.1 C 0 km/h
1271 11-03-2010 14:18:01 6.5 C 1.95 g/m*3 6.5 C 0 km/h
1272 11-03-2010 14:30:01 6.2 C 2.13 g/m*3 6.2 C 0 km/h
1273 11-03-2010 14:42:02 6.6 C 2.04 g/m*3 6.6 C 0 km/h
1274 11-03-2010 14:54:02 6.3 C 2.07 g/m*3 6.3 C 0 km/h
1275 11-03-2010 15:06:02 5.7 C 2.35 g/m*3 5.7 C 0 km/h
Sensor: Nr:Datum:Temp:Abs-Feuchte:Windchill:Wind:
Aussen-T/F 1276 11-03-2010 15:18:01 5.9 C 2.45 g/m*3 5.9 C 0 km/h
1277 11-03-2010 15:30:01 4.9 C 2.57 g/m*3 4.9 C 0 km/h
1278 11-03-2010 15:42:02 4.6 C 2.65 g/m*3 4.6 C 0 km/h
1279 11-03-2010 15:54:02 4.8 C 2.68 g/m*3 4.8 C 0 km/h
1280 11-03-2010 16:06:02 4.7 C 2.66 g/m*3 4.7 C 0 km/h
1281 11-03-2010 16:18:02 4.8 C 2.68 g/m*3 4.8 C 0 km/h
1282 11-03-2010 16:30:02 4.3 C 2.66 g/m*3 4.3 C 0 km/h
1283 11-03-2010 16:42:02 4.2 C 2.71 g/m*3 4.2 C 0 km/h
1284 11-03-2010 16:54:02 4 C 2.67 g/m*3 4 C 0 km/h
1285 11-03-2010 17:06:02 3.9 C 2.78 g/m*3 3.9 C 0 km/h
1286 11-03-2010 17:18:02 3.6 C 2.79 g/m*3 3.6 C 0 km/h
1287 11-03-2010 17:30:02 3.1 C 2.75 g/m*3 3.1 C 0 km/h
1288 11-03-2010 17:42:04 2.8 C 2.82 g/m*3 2.8 C 0 km/h
1289 11-03-2010 17:54:02 2.2 C 2.76 g/m*3 2.2 C 0 km/h
1290 11-03-2010 18:06:01 2 C 2.78 g/m*3 2 C 0 km/h
1291 11-03-2010 18:18:02 1.6 C 2.87 g/m*3 1.6 C 0 km/h
1292 11-03-2010 18:30:02 1.2 C 2.84 g/m*3 1.2 C 0 km/h
1293 11-03-2010 18:42:02 0.9 C 2.89 g/m*3 0.9 C 0 km/h
1294 11-03-2010 18:54:02 0.7 C 2.9 g/m*3 0.7 C 0 km/h
1295 11-03-2010 19:06:02 0.4 C 2.89 g/m*3 0.4 C 0 km/h
1296 11-03-2010 19:18:02 0.3 C 2.92 g/m*3 0.3 C 0 km/h
1297 11-03-2010 19:30:02 0.3 C 2.97 g/m*3 0.3 C 0 km/h
1298 11-03-2010 19:42:02 0.1 C 2.93 g/m*3 0.1 C 0 km/h
1299 11-03-2010 19:54:02 0 C 2.91 g/m*3 0 C 0 km/h
1300 11-03-2010 20:06:02 -0.1 C 2.89 g/m*3 -0.1 C 0 km/h
Sensor: Nr:Datum:Temp:Abs-Feuchte:Windchill:Wind:
Aussen-T/F 1301 11-03-2010 20:18:02 -0.2 C 2.91 g/m*3 -0.2 C 0 km/h
1302 11-03-2010 20:30:02 -0.4 C 2.92 g/m*3 -0.4 C 0 km/h
1303 11-03-2010 20:42:02 -0.4 C 2.97 g/m*3 -0.4 C 0 km/h
1304 11-03-2010 20:54:01 -0.6 C 2.97 g/m*3 -0.6 C 0 km/h
1305 11-03-2010 21:07:04 -0.8 C 2.93 g/m*3 -0.8 C 0 km/h
1306 11-03-2010 21:19:04 -0.8 C 2.98 g/m*3 -0.8 C 0 km/h
1307 11-03-2010 21:31:04 -0.9 C 2.96 g/m*3 -0.9 C 0 km/h
1308 11-03-2010 21:43:05 -1.1 C 2.96 g/m*3 -1.1 C 0 km/h
1309 11-03-2010 21:55:05 -1.1 C 2.96 g/m*3 -1.1 C 0 km/h
1310 11-03-2010 22:07:05 -1.2 C 3.03 g/m*3 -1.2 C 0 km/h
1311 11-03-2010 22:19:05 -1.3 C 3.01 g/m*3 -1.3 C 0 km/h
1312 11-03-2010 22:31:05 -1.2 C 3.08 g/m*3 -1.2 C 0 km/h
1313 11-03-2010 22:43:05 -1.4 C 3.03 g/m*3 -1.4 C 0 km/h
1314 11-03-2010 22:55:05 -1.5 C 3.06 g/m*3 -1.5 C 0 km/h
1315 11-03-2010 23:07:05 -1.7 C 3.01 g/m*3 -1.7 C 0 km/h
1316 11-03-2010 23:19:05 -1.9 C 2.97 g/m*3 -1.9 C 0 km/h
1317 11-03-2010 23:31:05 -2 C 2.99 g/m*3 -2 C 0 km/h
1318 11-03-2010 23:43:05 -2.2 C 2.95 g/m*3 -2.2 C 0 km/h
1319 11-03-2010 23:55:05 -2.5 C 2.89 g/m*3 -2.5 C 0 km/h
1320 12-03-2010 00:07:05 -2.6 C 2.87 g/m*3 -2.6 C 0 km/h
1321 12-03-2010 00:19:05 -2.6 C 2.87 g/m*3 -2.6 C 0 km/h
1322 12-03-2010 00:31:05 -2.7 C 2.89 g/m*3 -2.7 C 0 km/h
1323 12-03-2010 00:43:05 -2.7 C 2.89 g/m*3 -2.7 C 0 km/h
1324 12-03-2010 00:55:05 -2.3 C 2.97 g/m*3 -2.3 C 0 km/h
1325 12-03-2010 01:07:05 -1.9 C 3.06 g/m*3 -1.9 C 0 km/h
Sensor: Nr:Datum:Temp:Abs-Feuchte:Windchill:Wind:
Aussen-T/F 1326 12-03-2010 01:19:05 -1.6 C 3.08 g/m*3 -1.6 C 0 km/h
1327 12-03-2010 01:31:05 -1.5 C 3.06 g/m*3 -1.5 C 0 km/h
1328 12-03-2010 01:43:05 -1.3 C 3.1 g/m*3 -1.3 C 0 km/h
1329 12-03-2010 01:55:06 -1.4 C 3.03 g/m*3 -1.4 C 0 km/h
1330 12-03-2010 02:07:06 -1.4 C 3.03 g/m*3 -1.4 C 0 km/h
1331 12-03-2010 02:19:06 -1.3 C 3.1 g/m*3 -1.3 C 0 km/h
1332 12-03-2010 02:31:06 -1.3 C 3.1 g/m*3 -1.3 C 0 km/h
1333 12-03-2010 02:43:06 -1.3 C 3.1 g/m*3 -1.3 C 0 km/h
1334 12-03-2010 02:55:06 -1.3 C 3.1 g/m*3 -1.3 C 0 km/h
1335 12-03-2010 03:07:06 -1.2 C 3.12 g/m*3 -1.2 C 0 km/h
1336 12-03-2010 03:19:06 -1.3 C 3.1 g/m*3 -1.3 C 0 km/h
1337 12-03-2010 03:31:06 -1.3 C 3.1 g/m*3 -1.3 C 0 km/h
1338 12-03-2010 03:43:06 -1.3 C 3.14 g/m*3 -1.3 C 0 km/h
1339 12-03-2010 03:55:06 -1.2 C 3.17 g/m*3 -1.2 C 0 km/h
1340 12-03-2010 04:07:06 -1.3 C 3.14 g/m*3 -1.3 C 0 km/h
1341 12-03-2010 04:19:06 -1.3 C 3.14 g/m*3 -1.3 C 0 km/h
1342 12-03-2010 04:31:06 -1.3 C 3.14 g/m*3 -1.3 C 0 km/h
1343 12-03-2010 04:43:06 -1.3 C 3.14 g/m*3 -1.3 C 0 km/h
1344 12-03-2010 04:55:06 -1.3 C 3.14 g/m*3 -1.3 C 0 km/h
1345 12-03-2010 05:07:06 -1.2 C 3.17 g/m*3 -1.2 C 0 km/h
1346 12-03-2010 05:19:06 -1.2 C 3.21 g/m*3 -1.2 C 0 km/h
1347 12-03-2010 05:31:06 -1.2 C 3.21 g/m*3 -1.2 C 0 km/h
1348 12-03-2010 05:43:06 -1.1 C 3.23 g/m*3 -1.1 C 0 km/h
1349 12-03-2010 05:55:06 -1.1 C 3.23 g/m*3 -1.1 C 0 km/h
1350 12-03-2010 06:07:07 -1.1 C 3.28 g/m*3 -1.1 C 0 km/h
Sensor: Nr:Datum:Temp:Abs-Feuchte:Windchill:Wind:
Aussen-T/F 1351 12-03-2010 06:19:07 -1.1 C 3.28 g/m*3 -1.1 C 0 km/h
1352 12-03-2010 06:31:07 -0.9 C 3.32 g/m*3 -0.9 C 0 km/h
1353 12-03-2010 06:43:07 -0.9 C 3.32 g/m*3 -0.9 C 0 km/h
1354 12-03-2010 06:55:07 -0.9 C 3.37 g/m*3 -0.9 C 0 km/h
1355 12-03-2010 07:07:03 -0.9 C 3.41 g/m*3 -0.9 C 0 km/h
1356 12-03-2010 07:19:04 -0.9 C 3.46 g/m*3 -0.9 C 0 km/h
1357 12-03-2010 07:31:03 -0.9 C 3.51 g/m*3 -0.9 C 0 km/h
1358 12-03-2010 07:43:03 -0.9 C 3.55 g/m*3 -0.9 C 0 km/h
1359 12-03-2010 07:55:01 -0.9 C 3.6 g/m*3 -0.9 C 0 km/h
1360 12-03-2010 08:07:02 -0.7 C 3.69 g/m*3 -0.7 C 0 km/h
1361 12-03-2010 08:19:02 -0.7 C 3.69 g/m*3 -0.7 C 0 km/h
1362 12-03-2010 08:31:01 -0.5 C 3.74 g/m*3 -0.5 C 0 km/h
1363 12-03-2010 08:43:01 -0.4 C 3.77 g/m*3 -0.4 C 0 km/h
1364 12-03-2010 08:55:03 -0.4 C 3.82 g/m*3 -0.4 C 0 km/h
1365 12-03-2010 09:07:02 -0.3 C 3.89 g/m*3 -0.3 C 0 km/h
1366 12-03-2010 09:19:02 -0.2 C 3.92 g/m*3 -0.2 C 0 km/h
1367 12-03-2010 09:31:03 0 C 4.02 g/m*3 0 C 0 km/h
1368 12-03-2010 09:43:03 0.1 C 4.05 g/m*3 0.1 C 0 km/h
1369 12-03-2010 09:55:02 0.3 C 4.06 g/m*3 0.3 C 0 km/h
1370 12-03-2010 10:07:01 0.4 C 4.08 g/m*3 0.4 C 0 km/h
1371 12-03-2010 10:19:02 0.7 C 4.12 g/m*3 0.7 C 0 km/h
1372 12-03-2010 10:31:02 0.9 C 4.12 g/m*3 0.9 C 0 km/h
1373 12-03-2010 10:43:02 1.3 C 4.13 g/m*3 1.3 C 0 km/h
1374 12-03-2010 10:55:02 1.5 C 4.14 g/m*3 1.5 C 0 km/h
1375 12-03-2010 11:07:03 1.8 C 4.11 g/m*3 1.8 C 0 km/h
Sensor: Nr:Datum:Temp:Abs-Feuchte:Windchill:Wind:
Aussen-T/F 1376 12-03-2010 11:19:02 2.1 C 4.08 g/m*3 2.1 C 0 km/h
1377 12-03-2010 11:31:02 2.2 C 4.06 g/m*3 2.2 C 0 km/h
1378 12-03-2010 11:43:03 2.6 C 4.17 g/m*3 2.6 C 0 km/h
1379 12-03-2010 11:55:01 2.7 C 4.2 g/m*3 2.7 C 0 km/h
1380 12-03-2010 12:07:02 2.8 C 4.16 g/m*3 2.8 C 0 km/h
1381 12-03-2010 12:19:01 3.1 C 4.19 g/m*3 3.1 C 0 km/h
1382 12-03-2010 12:31:01 3.4 C 4.28 g/m*3 3.4 C 0 km/h
1383 12-03-2010 12:43:01 3.8 C 4.27 g/m*3 3.8 C 0 km/h
1384 12-03-2010 12:55:01 3.9 C 4.29 g/m*3 3.9 C 0 km/h
1385 12-03-2010 13:07:02 4.4 C 4.31 g/m*3 4.4 C 0 km/h
1386 12-03-2010 13:19:01 4.4 C 4.24 g/m*3 4.4 C 0 km/h
1387 12-03-2010 13:31:02 4.6 C 4.3 g/m*3 4.6 C 0 km/h
1388 12-03-2010 13:43:02 5 C 4.14 g/m*3 5 C 0 km/h
1389 12-03-2010 13:55:01 5.2 C 4.27 g/m*3 5.2 C 0 km/h
1390 12-03-2010 14:07:02 4.8 C 4.16 g/m*3 4.8 C 0 km/h
1391 12-03-2010 14:19:02 5 C 4.08 g/m*3 5 C 0 km/h
1392 12-03-2010 14:31:01 5.1 C 4.1 g/m*3 5.1 C 0 km/h
1393 12-03-2010 14:43:01 5.4 C 4.12 g/m*3 5.4 C 0 km/h
1394 12-03-2010 14:55:01 6.1 C 4.09 g/m*3 6.1 C 0 km/h
1395 12-03-2010 15:07:02 7.1 C 4.29 g/m*3 7.1 C 0 km/h
1396 12-03-2010 15:19:02 6.9 C 3.85 g/m*3 6.9 C 0 km/h
1397 12-03-2010 15:31:01 7.4 C 4.06 g/m*3 7.4 C 0 km/h
1398 12-03-2010 15:43:01 7.3 C 3.95 g/m*3 7.3 C 0 km/h
1399 12-03-2010 15:55:01 6.1 C 3.8 g/m*3 6.1 C 0 km/h
1400 12-03-2010 16:07:01 5.3 C 4.09 g/m*3 5.3 C 0 km/h
Sensor: Nr:Datum:Temp:Abs-Feuchte:Windchill:Wind:
Aussen-T/F 1401 12-03-2010 16:19:02 4.9 C 4.25 g/m*3 4.9 C 0 km/h
1402 12-03-2010 16:31:01 5.1 C 4.38 g/m*3 5.1 C 0 km/h
1403 12-03-2010 16:43:01 5.2 C 4.41 g/m*3 5.2 C 0 km/h
1404 12-03-2010 16:55:02 5.1 C 4.31 g/m*3 5.1 C 0 km/h
1405 12-03-2010 17:07:01 4.9 C 4.32 g/m*3 4.9 C 0 km/h
1406 12-03-2010 17:19:01 4.9 C 4.32 g/m*3 4.9 C 0 km/h
1407 12-03-2010 17:31:01 4.8 C 4.29 g/m*3 4.8 C 0 km/h
1408 12-03-2010 17:43:01 4.4 C 4.24 g/m*3 4.4 C 0 km/h
1409 12-03-2010 17:55:02 4.1 C 4.29 g/m*3 4.1 C 0 km/h
1410 12-03-2010 18:07:02 3.9 C 4.36 g/m*3 3.9 C 0 km/h
1411 12-03-2010 18:19:02 3.7 C 4.36 g/m*3 3.7 C 0 km/h
1412 12-03-2010 18:31:01 3.5 C 4.37 g/m*3 3.5 C 0 km/h
1413 12-03-2010 18:43:01 3.2 C 4.28 g/m*3 3.2 C 0 km/h
1414 12-03-2010 18:55:02 3 C 4.28 g/m*3 3 C 0 km/h
1415 12-03-2010 19:07:01 2.8 C 4.34 g/m*3 2.8 C 0 km/h
1416 12-03-2010 19:19:02 2.8 C 4.34 g/m*3 2.8 C 0 km/h
1417 12-03-2010 19:31:01 2.8 C 4.4 g/m*3 2.8 C 0 km/h
1418 12-03-2010 19:43:01 2.9 C 4.43 g/m*3 2.9 C 0 km/h
1419 12-03-2010 19:55:02 3.1 C 4.43 g/m*3 3.1 C 0 km/h
1420 12-03-2010 20:07:02 3.1 C 4.43 g/m*3 3.1 C 0 km/h
1421 12-03-2010 20:19:02 3.1 C 4.43 g/m*3 3.1 C 0 km/h
1422 12-03-2010 20:31:03 3.2 C 4.46 g/m*3 3.2 C 0 km/h
1423 12-03-2010 20:43:03 3.1 C 4.37 g/m*3 3.1 C 0 km/h
1424 12-03-2010 20:55:02 2.9 C 4.43 g/m*3 2.9 C 0 km/h
1425 12-03-2010 21:07:01 2.8 C 4.4 g/m*3 2.8 C 0 km/h
Sensor: Nr:Datum:Temp:Abs-Feuchte:Windchill:Wind:
Aussen-T/F 1426 12-03-2010 21:19:02 2.8 C 4.46 g/m*3 2.8 C 0 km/h
1427 12-03-2010 21:31:02 2.7 C 4.43 g/m*3 2.7 C 0 km/h
1428 12-03-2010 21:43:02 2.7 C 4.43 g/m*3 2.7 C 0 km/h
1429 12-03-2010 21:55:03 2.6 C 4.4 g/m*3 2.6 C 0 km/h
1430 12-03-2010 22:07:03 2.6 C 4.4 g/m*3 2.6 C 0 km/h
1431 12-03-2010 22:20:03 2.6 C 4.46 g/m*3 2.6 C 0 km/h
1432 12-03-2010 22:32:03 2.4 C 4.4 g/m*3 2.4 C 0 km/h
1433 12-03-2010 22:44:03 2.4 C 4.45 g/m*3 2.4 C 0 km/h
1434 12-03-2010 22:56:03 2.4 C 4.45 g/m*3 2.4 C 0 km/h
1435 12-03-2010 23:08:03 2.4 C 4.45 g/m*3 2.4 C 0 km/h
1436 12-03-2010 23:20:03 2.4 C 4.45 g/m*3 2.4 C 0 km/h
1437 12-03-2010 23:32:03 2.3 C 4.42 g/m*3 2.3 C 0 km/h
1438 12-03-2010 23:44:03 2.2 C 4.45 g/m*3 2.2 C 0 km/h
1439 12-03-2010 23:56:03 2.3 C 4.48 g/m*3 2.3 C 0 km/h
1440 13-03-2010 00:08:03 2.3 C 4.48 g/m*3 2.3 C 0 km/h
1441 13-03-2010 00:20:03 2.2 C 4.45 g/m*3 2.2 C 0 km/h
1442 13-03-2010 00:32:03 2.3 C 4.48 g/m*3 2.3 C 0 km/h
1443 13-03-2010 00:44:03 2.3 C 4.48 g/m*3 2.3 C 0 km/h
1444 13-03-2010 00:56:03 2.3 C 4.48 g/m*3 2.3 C 0 km/h
1445 13-03-2010 01:08:03 2.2 C 4.45 g/m*3 2.2 C 0 km/h
1446 13-03-2010 01:20:03 2.2 C 4.39 g/m*3 2.2 C 0 km/h
1447 13-03-2010 01:32:03 2.3 C 4.42 g/m*3 2.3 C 0 km/h
1448 13-03-2010 01:44:03 2.2 C 4.39 g/m*3 2.2 C 0 km/h
1449 13-03-2010 01:56:03 2.2 C 4.39 g/m*3 2.2 C 0 km/h
1450 13-03-2010 02:08:03 2.2 C 4.39 g/m*3 2.2 C 0 km/h
Sensor: Nr:Datum:Temp:Abs-Feuchte:Windchill:Wind:
Aussen-T/F 1451 13-03-2010 02:20:03 2.1 C 4.31 g/m*3 2.1 C 0 km/h
1452 13-03-2010 02:32:03 2.2 C 4.34 g/m*3 2.2 C 0 km/h
1453 13-03-2010 02:44:04 2.1 C 4.25 g/m*3 2.1 C 0 km/h
1454 13-03-2010 02:56:04 2.2 C 4.28 g/m*3 2.2 C 0 km/h
1455 13-03-2010 03:08:04 2.2 C 4.22 g/m*3 2.2 C 0 km/h
1456 13-03-2010 03:20:04 2.2 C 4.22 g/m*3 2.2 C 0 km/h
1457 13-03-2010 03:32:04 2.2 C 4.22 g/m*3 2.2 C 0 km/h
1458 13-03-2010 03:44:04 2 C 4.17 g/m*3 2 C 0 km/h
1459 13-03-2010 03:56:04 1.8 C 4.22 g/m*3 1.8 C 0 km/h
1460 13-03-2010 04:08:04 1.9 C 4.19 g/m*3 1.9 C 0 km/h
1461 13-03-2010 04:20:04 2 C 4.17 g/m*3 2 C 0 km/h
1462 13-03-2010 04:32:04 2 C 4.17 g/m*3 2 C 0 km/h
1463 13-03-2010 04:44:04 2 C 4.17 g/m*3 2 C 0 km/h
1464 13-03-2010 04:56:04 2 C 4.17 g/m*3 2 C 0 km/h
1465 13-03-2010 05:08:04 2 C 4.17 g/m*3 2 C 0 km/h
1466 13-03-2010 05:20:04 1.8 C 4.17 g/m*3 1.8 C 0 km/h
1467 13-03-2010 05:32:04 1.9 C 4.19 g/m*3 1.9 C 0 km/h
1468 13-03-2010 05:44:04 2 C 4.11 g/m*3 2 C 0 km/h
1469 13-03-2010 05:56:04 2 C 4.11 g/m*3 2 C 0 km/h
1470 13-03-2010 06:08:04 2 C 4.11 g/m*3 2 C 0 km/h
1471 13-03-2010 06:20:04 2.1 C 4.08 g/m*3 2.1 C 0 km/h
1472 13-03-2010 06:32:04 2.2 C 4.11 g/m*3 2.2 C 0 km/h
1473 13-03-2010 06:44:04 2.1 C 4.08 g/m*3 2.1 C 0 km/h
1474 13-03-2010 06:56:02 2.3 C 4.2 g/m*3 2.3 C 0 km/h
1475 13-03-2010 07:08:02 2.3 C 4.25 g/m*3 2.3 C 0 km/h
Sensor: Nr:Datum:Temp:Abs-Feuchte:Windchill:Wind:
Aussen-T/F 1476 13-03-2010 07:20:02 2.3 C 4.31 g/m*3 2.3 C 0 km/h
1477 13-03-2010 07:32:02 2.3 C 4.31 g/m*3 2.3 C 0 km/h
1478 13-03-2010 07:44:02 2.4 C 4.45 g/m*3 2.4 C 0 km/h
1479 13-03-2010 07:56:02 2.6 C 4.63 g/m*3 2.6 C 0 km/h
1480 13-03-2010 08:08:02 2.7 C 4.66 g/m*3 2.7 C 0 km/h
1481 13-03-2010 08:20:02 2.8 C 4.69 g/m*3 2.8 C 0 km/h
1482 13-03-2010 08:32:02 2.9 C 4.72 g/m*3 2.9 C 0 km/h
1483 13-03-2010 08:44:02 3.1 C 4.73 g/m*3 3.1 C 0 km/h
1484 13-03-2010 08:56:02 3.3 C 4.73 g/m*3 3.3 C 0 km/h
1485 13-03-2010 09:08:01 3.4 C 4.7 g/m*3 3.4 C 0 km/h
1486 13-03-2010 09:20:02 3.4 C 4.64 g/m*3 3.4 C 0 km/h
1487 13-03-2010 09:32:01 3.6 C 4.7 g/m*3 3.6 C 0 km/h
1488 13-03-2010 09:44:01 3.6 C 4.7 g/m*3 3.6 C 0 km/h
1489 13-03-2010 09:56:02 3.7 C 4.74 g/m*3 3.7 C 0 km/h
1490 13-03-2010 10:08:01 4 C 4.7 g/m*3 4 C 0 km/h
1491 13-03-2010 10:20:02 4.4 C 4.7 g/m*3 4.4 C 0 km/h
1492 13-03-2010 10:32:02 4.8 C 4.69 g/m*3 4.8 C 0 km/h
1493 13-03-2010 10:44:02 4.8 C 4.49 g/m*3 4.8 C 0 km/h
1494 13-03-2010 10:56:02 5 C 4.42 g/m*3 5 C 0 km/h
1495 13-03-2010 11:08:02 4.8 C 4.22 g/m*3 4.8 C 0 km/h
1496 13-03-2010 11:20:02 4.7 C 4.26 g/m*3 4.7 C 0 km/h
1497 13-03-2010 11:32:02 5.2 C 4.34 g/m*3 5.2 C 0 km/h
1498 13-03-2010 11:44:02 5.3 C 4.23 g/m*3 5.3 C 0 km/h
1499 13-03-2010 11:56:02 6 C 4.06 g/m*3 6 C 0 km/h
1500 13-03-2010 12:08:02 6.5 C 4.05 g/m*3 6.5 C 0 km/h
Sensor: Nr:Datum:Temp:Abs-Feuchte:Windchill:Wind:
Aussen-T/F 1501 13-03-2010 12:20:01 6.2 C 3.75 g/m*3 6.2 C 0 km/h
1502 13-03-2010 12:32:02 5.8 C 3.72 g/m*3 5.8 C 0 km/h
1503 13-03-2010 12:44:02 6.3 C 3.78 g/m*3 6.3 C 0 km/h
1504 13-03-2010 12:56:02 6.7 C 3.72 g/m*3 6.7 C 0 km/h
1505 13-03-2010 13:08:02 6.3 C 3.7 g/m*3 6.3 C 0 km/h
1506 13-03-2010 13:20:02 6 C 3.7 g/m*3 6 C 0 km/h
1507 13-03-2010 13:32:02 5.8 C 3.94 g/m*3 5.8 C 0 km/h
1508 13-03-2010 13:44:02 5.8 C 4.01 g/m*3 5.8 C 0 km/h
1509 13-03-2010 13:56:02 6.1 C 4.16 g/m*3 6.1 C 0 km/h
1510 13-03-2010 14:08:02 6.3 C 4.07 g/m*3 6.3 C 0 km/h
1511 13-03-2010 14:20:02 6.3 C 4.07 g/m*3 6.3 C 0 km/h
1512 13-03-2010 14:32:02 6.1 C 4.02 g/m*3 6.1 C 0 km/h
1513 13-03-2010 14:44:02 6.2 C 3.97 g/m*3 6.2 C 0 km/h
1514 13-03-2010 14:56:02 6.3 C 4 g/m*3 6.3 C 0 km/h
1515 13-03-2010 15:08:02 6.5 C 4.05 g/m*3 6.5 C 0 km/h
1516 13-03-2010 15:20:02 6.5 C 3.9 g/m*3 6.5 C 0 km/h
1517 13-03-2010 15:32:02 6.5 C 3.9 g/m*3 6.5 C 0 km/h
1518 13-03-2010 15:44:02 6.7 C 4.03 g/m*3 6.7 C 0 km/h
1519 13-03-2010 15:56:02 6.6 C 3.93 g/m*3 6.6 C 0 km/h
1520 13-03-2010 16:08:02 6.6 C 3.93 g/m*3 6.6 C 0 km/h
1521 13-03-2010 16:20:03 6.5 C 3.9 g/m*3 6.5 C 0 km/h
1522 13-03-2010 16:32:02 6.5 C 3.9 g/m*3 6.5 C 0 km/h
1523 13-03-2010 16:44:02 6.4 C 3.87 g/m*3 6.4 C 0 km/h
1524 13-03-2010 16:56:02 6.4 C 3.95 g/m*3 6.4 C 0 km/h
1525 13-03-2010 17:08:02 6.4 C 3.95 g/m*3 6.4 C 0 km/h
Sensor: Nr:Datum:Temp:Abs-Feuchte:Windchill:Wind:
Aussen-T/F 1526 13-03-2010 17:20:02 6.3 C 3.92 g/m*3 6.3 C 0 km/h
1527 13-03-2010 17:32:02 6.3 C 4 g/m*3 6.3 C 0 km/h
1528 13-03-2010 17:44:02 6.2 C 3.97 g/m*3 6.2 C 0 km/h
1529 13-03-2010 17:56:02 6.2 C 3.97 g/m*3 6.2 C 0 km/h
1530 13-03-2010 18:08:02 6.2 C 3.97 g/m*3 6.2 C 0 km/h
1531 13-03-2010 18:20:02 6.1 C 3.95 g/m*3 6.1 C 0 km/h
1532 13-03-2010 18:32:01 6.1 C 3.95 g/m*3 6.1 C 0 km/h
1533 13-03-2010 18:44:01 6 C 3.92 g/m*3 6 C 0 km/h
1534 13-03-2010 18:56:02 6.1 C 3.95 g/m*3 6.1 C 0 km/h
1535 13-03-2010 19:08:01 6 C 3.92 g/m*3 6 C 0 km/h
1536 13-03-2010 19:20:02 6 C 3.99 g/m*3 6 C 0 km/h
1537 13-03-2010 19:32:02 6 C 3.99 g/m*3 6 C 0 km/h
1538 13-03-2010 19:44:02 6 C 3.99 g/m*3 6 C 0 km/h
1539 13-03-2010 19:56:02 6 C 3.99 g/m*3 6 C 0 km/h
1540 13-03-2010 20:08:01 5.8 C 4.08 g/m*3 5.8 C 0 km/h
1541 13-03-2010 20:20:01 5.8 C 4.23 g/m*3 5.8 C 0 km/h
1542 13-03-2010 20:32:02 5.5 C 4.28 g/m*3 5.5 C 0 km/h
1543 13-03-2010 20:44:02 5.5 C 4.42 g/m*3 5.5 C 0 km/h
1544 13-03-2010 20:56:02 5.6 C 4.45 g/m*3 5.6 C 0 km/h
1545 13-03-2010 21:08:02 5.6 C 4.45 g/m*3 5.6 C 0 km/h
1546 13-03-2010 21:20:02 5.5 C 4.35 g/m*3 5.5 C 0 km/h
1547 13-03-2010 21:32:02 5.6 C 4.17 g/m*3 5.6 C 0 km/h
1548 13-03-2010 21:44:02 5.5 C 4.07 g/m*3 5.5 C 0 km/h
1549 13-03-2010 21:56:01 5.4 C 4.05 g/m*3 5.4 C 0 km/h
1550 13-03-2010 22:08:02 5.3 C 4.02 g/m*3 5.3 C 0 km/h
Sensor: Nr:Datum:Temp:Abs-Feuchte:Windchill:Wind:
Aussen-T/F 1551 13-03-2010 22:21:03 5.2 C 4.13 g/m*3 5.2 C 0 km/h
1552 13-03-2010 22:33:04 5 C 4.21 g/m*3 5 C 0 km/h
1553 13-03-2010 22:45:04 5 C 4.08 g/m*3 5 C 0 km/h
1554 13-03-2010 22:57:04 5.2 C 3.79 g/m*3 5.2 C 0 km/h
1555 13-03-2010 23:09:04 5.1 C 3.63 g/m*3 5.1 C 0 km/h
1556 13-03-2010 23:21:04 5.1 C 3.63 g/m*3 5.1 C 0 km/h
1557 13-03-2010 23:33:04 5.1 C 3.63 g/m*3 5.1 C 0 km/h
1558 13-03-2010 23:45:04 5 C 3.67 g/m*3 5 C 0 km/h
1559 13-03-2010 23:57:04 4.9 C 3.71 g/m*3 4.9 C 0 km/h
1560 14-03-2010 00:09:04 4.8 C 3.62 g/m*3 4.8 C 0 km/h
1561 14-03-2010 00:21:04 4.7 C 3.6 g/m*3 4.7 C 0 km/h
1562 14-03-2010 00:33:04 4.7 C 3.6 g/m*3 4.7 C 0 km/h
1563 14-03-2010 00:45:04 4.7 C 3.6 g/m*3 4.7 C 0 km/h
1564 14-03-2010 00:57:04 4.6 C 3.57 g/m*3 4.6 C 0 km/h
1565 14-03-2010 01:09:04 4.6 C 3.64 g/m*3 4.6 C 0 km/h
1566 14-03-2010 01:21:04 4.5 C 3.68 g/m*3 4.5 C 0 km/h
1567 14-03-2010 01:33:04 4.4 C 3.66 g/m*3 4.4 C 0 km/h
1568 14-03-2010 01:45:04 4.3 C 3.7 g/m*3 4.3 C 0 km/h
1569 14-03-2010 01:57:04 4.3 C 3.76 g/m*3 4.3 C 0 km/h
1570 14-03-2010 02:09:04 4.3 C 3.76 g/m*3 4.3 C 0 km/h
1571 14-03-2010 02:21:04 4.3 C 3.83 g/m*3 4.3 C 0 km/h
1572 14-03-2010 02:33:04 4.3 C 3.83 g/m*3 4.3 C 0 km/h
1573 14-03-2010 02:45:05 4.2 C 3.8 g/m*3 4.2 C 0 km/h
1574 14-03-2010 02:57:05 4.3 C 3.83 g/m*3 4.3 C 0 km/h
1575 14-03-2010 03:09:05 4.3 C 3.89 g/m*3 4.3 C 0 km/h
Sensor: Nr:Datum:Temp:Abs-Feuchte:Windchill:Wind:
Aussen-T/F 1576 14-03-2010 03:21:05 4.3 C 3.89 g/m*3 4.3 C 0 km/h
1577 14-03-2010 03:33:05 4.4 C 3.85 g/m*3 4.4 C 0 km/h
1578 14-03-2010 03:45:05 4.4 C 3.85 g/m*3 4.4 C 0 km/h
1579 14-03-2010 03:57:05 4.4 C 3.85 g/m*3 4.4 C 0 km/h
1580 14-03-2010 04:09:05 4.4 C 3.85 g/m*3 4.4 C 0 km/h
1581 14-03-2010 04:21:05 4.5 C 3.88 g/m*3 4.5 C 0 km/h
1582 14-03-2010 04:33:05 4.4 C 3.92 g/m*3 4.4 C 0 km/h
1583 14-03-2010 04:45:05 4.4 C 3.92 g/m*3 4.4 C 0 km/h
1584 14-03-2010 04:57:05 4.3 C 3.96 g/m*3 4.3 C 0 km/h
1585 14-03-2010 05:09:05 4.3 C 4.02 g/m*3 4.3 C 0 km/h
1586 14-03-2010 05:21:05 4.3 C 4.02 g/m*3 4.3 C 0 km/h
1587 14-03-2010 05:33:05 4.3 C 4.02 g/m*3 4.3 C 0 km/h
1588 14-03-2010 05:45:05 4.2 C 3.99 g/m*3 4.2 C 0 km/h
1589 14-03-2010 05:57:05 4.2 C 3.99 g/m*3 4.2 C 0 km/h
1590 14-03-2010 06:09:05 4.3 C 4.02 g/m*3 4.3 C 0 km/h
1591 14-03-2010 06:21:05 4.2 C 3.99 g/m*3 4.2 C 0 km/h
1592 14-03-2010 06:33:05 4.2 C 3.99 g/m*3 4.2 C 0 km/h
1593 14-03-2010 06:45:06 4.2 C 3.99 g/m*3 4.2 C 0 km/h
1594 14-03-2010 06:57:06 4.2 C 4.06 g/m*3 4.2 C 0 km/h
1595 14-03-2010 07:09:06 4.3 C 4.02 g/m*3 4.3 C 0 km/h
1596 14-03-2010 07:21:06 4.3 C 4.02 g/m*3 4.3 C 0 km/h
1597 14-03-2010 07:33:06 4.5 C 4.08 g/m*3 4.5 C 0 km/h
1598 14-03-2010 07:45:06 4.6 C 4.04 g/m*3 4.6 C 0 km/h
1599 14-03-2010 07:57:06 4.7 C 4 g/m*3 4.7 C 0 km/h
1600 14-03-2010 08:09:06 4.8 C 3.96 g/m*3 4.8 C 0 km/h
Sensor: Nr:Datum:Temp:Abs-Feuchte:Windchill:Wind:
Aussen-T/F 1601 14-03-2010 08:21:06 4.9 C 3.92 g/m*3 4.9 C 0 km/h
1602 14-03-2010 08:33:06 5.2 C 3.86 g/m*3 5.2 C 0 km/h
1603 14-03-2010 08:45:01 5.3 C 3.81 g/m*3 5.3 C 0 km/h
1604 14-03-2010 08:57:01 5.4 C 3.77 g/m*3 5.4 C 0 km/h
1605 14-03-2010 09:09:02 5.6 C 3.82 g/m*3 5.6 C 0 km/h
1606 14-03-2010 09:21:01 5.7 C 3.77 g/m*3 5.7 C 0 km/h
1607 14-03-2010 09:33:02 6 C 3.7 g/m*3 6 C 0 km/h
1608 14-03-2010 09:45:02 5.9 C 3.75 g/m*3 5.9 C 0 km/h
1609 14-03-2010 09:57:02 6 C 3.77 g/m*3 6 C 0 km/h
1610 14-03-2010 10:09:02 6.3 C 3.78 g/m*3 6.3 C 0 km/h
1611 14-03-2010 10:21:02 6.5 C 3.75 g/m*3 6.5 C 0 km/h
1612 14-03-2010 10:33:02 6.8 C 3.82 g/m*3 6.8 C 0 km/h
1613 14-03-2010 10:45:02 7 C 3.64 g/m*3 7 C 0 km/h
1614 14-03-2010 10:57:02 6.9 C 3.7 g/m*3 6.9 C 0 km/h
1615 14-03-2010 11:09:02 7.2 C 3.69 g/m*3 7.2 C 0 km/h
1616 14-03-2010 11:21:02 7.5 C 3.76 g/m*3 7.5 C 0 km/h
1617 14-03-2010 11:33:02 7.4 C 3.66 g/m*3 7.4 C 0 km/h
1618 14-03-2010 11:45:01 7.5 C 3.76 g/m*3 7.5 C 0 km/h
1619 14-03-2010 11:57:01 7.6 C 3.63 g/m*3 7.6 C 0 km/h
1620 14-03-2010 12:09:02 7.8 C 3.51 g/m*3 7.8 C 0 km/h
1621 14-03-2010 12:21:01 7.8 C 3.43 g/m*3 7.8 C 0 km/h
1622 14-03-2010 12:33:01 7.7 C 3.49 g/m*3 7.7 C 0 km/h
1623 14-03-2010 12:45:01 7.6 C 3.54 g/m*3 7.6 C 0 km/h
1624 14-03-2010 12:57:01 7.6 C 3.63 g/m*3 7.6 C 0 km/h
1625 14-03-2010 13:09:02 7.6 C 3.63 g/m*3 7.6 C 0 km/h
Sensor: Nr:Datum:Temp:Abs-Feuchte:Windchill:Wind:
Aussen-T/F 1626 14-03-2010 13:21:01 7.7 C 3.73 g/m*3 7.7 C 0 km/h
1627 14-03-2010 13:33:02 7.7 C 3.73 g/m*3 7.7 C 0 km/h
1628 14-03-2010 13:45:02 7.5 C 3.76 g/m*3 7.5 C 0 km/h
1629 14-03-2010 13:57:02 7.5 C 3.76 g/m*3 7.5 C 0 km/h
1630 14-03-2010 14:09:02 7.4 C 3.74 g/m*3 7.4 C 0 km/h
1631 14-03-2010 14:21:01 7.3 C 3.79 g/m*3 7.3 C 0 km/h
1632 14-03-2010 14:33:02 7.4 C 3.82 g/m*3 7.4 C 0 km/h
1633 14-03-2010 14:45:02 7.5 C 3.84 g/m*3 7.5 C 0 km/h
1634 14-03-2010 14:57:02 7.5 C 3.84 g/m*3 7.5 C 0 km/h
1635 14-03-2010 15:09:02 7.7 C 3.89 g/m*3 7.7 C 0 km/h
1636 14-03-2010 15:21:02 7.7 C 3.89 g/m*3 7.7 C 0 km/h
1637 14-03-2010 15:33:02 7.8 C 3.84 g/m*3 7.8 C 0 km/h
1638 14-03-2010 15:45:02 7.8 C 3.92 g/m*3 7.8 C 0 km/h
1639 14-03-2010 15:57:02 7.7 C 3.97 g/m*3 7.7 C 0 km/h
1640 14-03-2010 16:09:02 7.6 C 3.95 g/m*3 7.6 C 0 km/h
1641 14-03-2010 16:21:02 7.3 C 4.03 g/m*3 7.3 C 0 km/h
1642 14-03-2010 16:33:02 7.2 C 4.08 g/m*3 7.2 C 0 km/h
1643 14-03-2010 16:45:02 6.9 C 4.31 g/m*3 6.9 C 0 km/h
1644 14-03-2010 16:57:02 6.5 C 4.27 g/m*3 6.5 C 0 km/h
1645 14-03-2010 17:09:02 6.4 C 4.47 g/m*3 6.4 C 0 km/h
1646 14-03-2010 17:21:02 6.7 C 4.18 g/m*3 6.7 C 0 km/h
1647 14-03-2010 17:33:02 6.8 C 4.21 g/m*3 6.8 C 0 km/h
1648 14-03-2010 17:45:02 6.6 C 4.23 g/m*3 6.6 C 0 km/h
1649 14-03-2010 17:57:02 6.4 C 4.32 g/m*3 6.4 C 0 km/h
1650 14-03-2010 18:09:02 6.4 C 4.4 g/m*3 6.4 C 0 km/h
Sensor: Nr:Datum:Temp:Abs-Feuchte:Windchill:Wind:
Aussen-T/F 1651 14-03-2010 18:21:02 6.2 C 4.49 g/m*3 6.2 C 0 km/h
1652 14-03-2010 18:33:02 5.9 C 4.61 g/m*3 5.9 C 0 km/h
1653 14-03-2010 18:45:02 5.7 C 4.84 g/m*3 5.7 C 0 km/h
1654 14-03-2010 18:57:02 5.4 C 4.95 g/m*3 5.4 C 0 km/h
1655 14-03-2010 19:09:01 5.4 C 4.95 g/m*3 5.4 C 0 km/h
1656 14-03-2010 19:21:02 5.4 C 4.95 g/m*3 5.4 C 0 km/h
1657 14-03-2010 19:33:01 5.6 C 5.02 g/m*3 5.6 C 0 km/h
1658 14-03-2010 19:45:02 5.7 C 4.98 g/m*3 5.7 C 0 km/h
1659 14-03-2010 19:57:02 5.8 C 4.94 g/m*3 5.8 C 0 km/h
1660 14-03-2010 20:09:01 5.7 C 4.91 g/m*3 5.7 C 0 km/h
1661 14-03-2010 20:21:02 5.7 C 4.84 g/m*3 5.7 C 0 km/h
1662 14-03-2010 20:33:01 5.7 C 4.77 g/m*3 5.7 C 0 km/h
1663 14-03-2010 20:45:02 5.8 C 4.73 g/m*3 5.8 C 0 km/h
1664 14-03-2010 20:57:02 5.7 C 4.63 g/m*3 5.7 C 0 km/h
1665 14-03-2010 21:09:02 5.7 C 4.55 g/m*3 5.7 C 0 km/h
1666 14-03-2010 21:21:02 5.7 C 4.55 g/m*3 5.7 C 0 km/h
1667 14-03-2010 21:33:02 5.9 C 4.4 g/m*3 5.9 C 0 km/h
1668 14-03-2010 21:46:05 5.8 C 4.37 g/m*3 5.8 C 0 km/h
1669 14-03-2010 21:58:06 5.8 C 4.3 g/m*3 5.8 C 0 km/h
1670 14-03-2010 22:10:06 5.8 C 4.3 g/m*3 5.8 C 0 km/h
1671 14-03-2010 22:22:06 5.9 C 4.33 g/m*3 5.9 C 0 km/h
1672 14-03-2010 22:34:06 5.8 C 4.3 g/m*3 5.8 C 0 km/h
1673 14-03-2010 22:46:06 5.9 C 4.33 g/m*3 5.9 C 0 km/h
1674 14-03-2010 22:58:06 5.9 C 4.33 g/m*3 5.9 C 0 km/h
1675 14-03-2010 23:10:06 6.1 C 4.31 g/m*3 6.1 C 0 km/h
Sensor: Nr:Datum:Temp:Abs-Feuchte:Windchill:Wind:
Aussen-T/F 1676 14-03-2010 23:22:06 6 C 4.5 g/m*3 6 C 0 km/h
1677 14-03-2010 23:34:06 5.8 C 4.58 g/m*3 5.8 C 0 km/h
1678 14-03-2010 23:46:06 6.1 C 4.75 g/m*3 6.1 C 0 km/h
1679 14-03-2010 23:58:06 5.7 C 4.77 g/m*3 5.7 C 0 km/h
1680 15-03-2010 00:10:06 5.8 C 4.73 g/m*3 5.8 C 0 km/h
1681 15-03-2010 00:22:06 5.8 C 4.73 g/m*3 5.8 C 0 km/h
1682 15-03-2010 00:34:06 5.9 C 4.76 g/m*3 5.9 C 0 km/h
1683 15-03-2010 00:46:06 5.8 C 4.8 g/m*3 5.8 C 0 km/h
1684 15-03-2010 00:58:06 5.8 C 4.73 g/m*3 5.8 C 0 km/h
1685 15-03-2010 01:10:06 5.8 C 4.73 g/m*3 5.8 C 0 km/h
1686 15-03-2010 01:22:06 5.8 C 4.73 g/m*3 5.8 C 0 km/h
1687 15-03-2010 01:34:06 5.7 C 4.63 g/m*3 5.7 C 0 km/h
1688 15-03-2010 01:46:06 5.7 C 4.7 g/m*3 5.7 C 0 km/h
1689 15-03-2010 01:58:07 5.7 C 4.77 g/m*3 5.7 C 0 km/h
1690 15-03-2010 02:10:07 5.4 C 4.81 g/m*3 5.4 C 0 km/h
1691 15-03-2010 02:22:07 5.2 C 4.82 g/m*3 5.2 C 0 km/h
1692 15-03-2010 02:34:07 4.9 C 4.93 g/m*3 4.9 C 0 km/h
1693 15-03-2010 02:46:07 4.8 C 5.03 g/m*3 4.8 C 0 km/h
1694 15-03-2010 02:58:07 4.7 C 5 g/m*3 4.7 C 0 km/h
1695 15-03-2010 03:10:07 5 C 4.76 g/m*3 5 C 0 km/h
1696 15-03-2010 03:22:07 5 C 4.69 g/m*3 5 C 0 km/h
1697 15-03-2010 03:34:07 4.9 C 4.79 g/m*3 4.9 C 0 km/h
1698 15-03-2010 03:46:07 4.8 C 4.69 g/m*3 4.8 C 0 km/h
1699 15-03-2010 03:58:07 4.7 C 4.73 g/m*3 4.7 C 0 km/h
1700 15-03-2010 04:10:07 4.6 C 4.63 g/m*3 4.6 C 0 km/h
Sensor: Nr:Datum:Temp:Abs-Feuchte:Windchill:Wind:
Aussen-T/F 1701 15-03-2010 04:22:07 4.6 C 4.63 g/m*3 4.6 C 0 km/h
1702 15-03-2010 04:34:07 4.6 C 4.63 g/m*3 4.6 C 0 km/h
1703 15-03-2010 04:46:07 4.6 C 4.57 g/m*3 4.6 C 0 km/h
1704 15-03-2010 04:58:07 4.7 C 4.6 g/m*3 4.7 C 0 km/h
1705 15-03-2010 05:10:07 4.6 C 4.5 g/m*3 4.6 C 0 km/h
1706 15-03-2010 05:22:07 4.6 C 4.57 g/m*3 4.6 C 0 km/h
1707 15-03-2010 05:34:07 4.6 C 4.43 g/m*3 4.6 C 0 km/h
1708 15-03-2010 05:46:07 4.7 C 4.33 g/m*3 4.7 C 0 km/h
1709 15-03-2010 05:58:07 4.7 C 4.33 g/m*3 4.7 C 0 km/h
1710 15-03-2010 06:10:08 4.7 C 4.26 g/m*3 4.7 C 0 km/h
1711 15-03-2010 06:22:03 4.7 C 4.2 g/m*3 4.7 C 0 km/h
1712 15-03-2010 06:34:04 4.6 C 4.17 g/m*3 4.6 C 0 km/h
1713 15-03-2010 06:46:02 4.6 C 4.23 g/m*3 4.6 C 0 km/h
1714 15-03-2010 06:58:02 4.7 C 4.2 g/m*3 4.7 C 0 km/h
1715 15-03-2010 07:10:02 4.4 C 4.37 g/m*3 4.4 C 0 km/h
1716 15-03-2010 07:22:02 4 C 4.64 g/m*3 4 C 0 km/h
1717 15-03-2010 07:34:02 3.7 C 4.86 g/m*3 3.7 C 0 km/h
1718 15-03-2010 07:46:02 3.6 C 4.95 g/m*3 3.6 C 0 km/h
1719 15-03-2010 07:58:02 3.7 C 5.11 g/m*3 3.7 C 0 km/h
1720 15-03-2010 08:10:02 3.8 C 5.21 g/m*3 3.8 C 0 km/h
1721 15-03-2010 08:22:02 3.7 C 5.23 g/m*3 3.7 C 0 km/h
1722 15-03-2010 08:34:02 3.8 C 5.33 g/m*3 3.8 C 0 km/h
1723 15-03-2010 08:46:02 4 C 5.4 g/m*3 4 C 0 km/h
1724 15-03-2010 08:58:02 4.2 C 5.54 g/m*3 4.2 C 0 km/h
1725 15-03-2010 09:10:02 4.3 C 5.51 g/m*3 4.3 C 0 km/h
Sensor: Nr:Datum:Temp:Abs-Feuchte:Windchill:Wind:
Aussen-T/F 1726 15-03-2010 09:22:02 4.3 C 5.51 g/m*3 4.3 C 0 km/h
1727 15-03-2010 09:34:02 4.4 C 5.55 g/m*3 4.4 C 0 km/h
1728 15-03-2010 09:46:02 4.6 C 5.62 g/m*3 4.6 C 0 km/h
1729 15-03-2010 09:58:02 4.5 C 5.52 g/m*3 4.5 C 0 km/h
1730 15-03-2010 10:10:02 4.5 C 5.52 g/m*3 4.5 C 0 km/h
1731 15-03-2010 10:22:02 4.6 C 5.56 g/m*3 4.6 C 0 km/h
1732 15-03-2010 10:34:02 5.1 C 5.61 g/m*3 5.1 C 0 km/h
1733 15-03-2010 10:46:02 5.5 C 5.48 g/m*3 5.5 C 0 km/h
1734 15-03-2010 10:58:02 6 C 5.44 g/m*3 6 C 0 km/h
1735 15-03-2010 11:10:02 5.9 C 5.26 g/m*3 5.9 C 0 km/h
1736 15-03-2010 11:22:02 6 C 5.08 g/m*3 6 C 0 km/h
1737 15-03-2010 11:34:01 5.9 C 5.05 g/m*3 5.9 C 0 km/h
1738 15-03-2010 11:46:02 5.9 C 4.98 g/m*3 5.9 C 0 km/h
1739 15-03-2010 11:58:02 6 C 4.94 g/m*3 6 C 0 km/h
1740 15-03-2010 12:10:01 6 C 4.79 g/m*3 6 C 0 km/h
1741 15-03-2010 12:22:02 6.6 C 4.98 g/m*3 6.6 C 0 km/h
1742 15-03-2010 12:34:01 7.4 C 4.85 g/m*3 7.4 C 0 km/h
1743 15-03-2010 12:46:02 7.8 C 4.98 g/m*3 7.8 C 0 km/h
1744 15-03-2010 12:58:02 8.5 C 4.87 g/m*3 8.5 C 0 km/h
1745 15-03-2010 13:10:02 9.3 C 4.67 g/m*3 9.3 C 0 km/h
1746 15-03-2010 13:22:02 9 C 4.58 g/m*3 9 C 0 km/h
1747 15-03-2010 13:34:02 9.4 C 4.61 g/m*3 9.4 C 0 km/h
1748 15-03-2010 13:46:02 9.9 C 4.58 g/m*3 9.9 C 0 km/h
1749 15-03-2010 13:58:03 9.7 C 4.33 g/m*3 9.7 C 0 km/h
1750 15-03-2010 14:10:01 10.1 C 4.35 g/m*3 10.1 C 0 km/h
Sensor: Nr:Datum:Temp:Abs-Feuchte:Windchill:Wind:
Aussen-T/F 1751 15-03-2010 14:22:01 10 C 4.04 g/m*3 10 C 0 km/h
1752 15-03-2010 14:34:02 10.4 C 3.95 g/m*3 10.4 C 0 km/h
1753 15-03-2010 14:46:02 10.5 C 4.07 g/m*3 10.5 C 0 km/h
1754 15-03-2010 14:58:02 10.3 C 4.02 g/m*3 10.3 C 0 km/h
1755 15-03-2010 15:10:01 10.4 C 4.05 g/m*3 10.4 C 0 km/h
1756 15-03-2010 15:22:02 11 C 4.1 g/m*3 11 C 0 km/h
1757 15-03-2010 15:34:02 10.5 C 3.98 g/m*3 10.5 C 0 km/h
1758 15-03-2010 15:46:02 10.4 C 4.05 g/m*3 10.4 C 0 km/h
1759 15-03-2010 15:58:02 10.1 C 4.07 g/m*3 10.1 C 0 km/h
1760 15-03-2010 16:10:03 9.9 C 4.2 g/m*3 9.9 C 0 km/h
1761 15-03-2010 16:22:02 10 C 4.23 g/m*3 10 C 0 km/h
1762 15-03-2010 16:34:02 9.9 C 4.29 g/m*3 9.9 C 0 km/h
1763 15-03-2010 16:46:01 9.8 C 4.27 g/m*3 9.8 C 0 km/h
1764 15-03-2010 16:58:01 9.7 C 4.43 g/m*3 9.7 C 0 km/h
1765 15-03-2010 17:10:02 9.6 C 4.4 g/m*3 9.6 C 0 km/h
1766 15-03-2010 17:22:01 9.2 C 4.55 g/m*3 9.2 C 0 km/h
1767 15-03-2010 17:34:01 8.6 C 4.98 g/m*3 8.6 C 0 km/h
1768 15-03-2010 17:46:01 8.3 C 5.06 g/m*3 8.3 C 0 km/h
1769 15-03-2010 17:58:01 8.2 C 4.94 g/m*3 8.2 C 0 km/h
1770 15-03-2010 18:10:02 8.2 C 5.11 g/m*3 8.2 C 0 km/h
1771 15-03-2010 18:22:01 8.1 C 5.16 g/m*3 8.1 C 0 km/h
1772 15-03-2010 18:34:02 8 C 5.21 g/m*3 8 C 0 km/h
1773 15-03-2010 18:46:01 8.1 C 5.08 g/m*3 8.1 C 0 km/h
1774 15-03-2010 18:58:01 7.7 C 5.27 g/m*3 7.7 C 0 km/h
1775 15-03-2010 19:10:02 7.5 C 5.36 g/m*3 7.5 C 0 km/h
Sensor: Nr:Datum:Temp:Abs-Feuchte:Windchill:Wind:
Aussen-T/F 1776 15-03-2010 19:22:01 7.2 C 5.42 g/m*3 7.2 C 0 km/h
1777 15-03-2010 19:34:02 7.1 C 5.46 g/m*3 7.1 C 0 km/h
1778 15-03-2010 19:46:01 7 C 5.5 g/m*3 7 C 0 km/h
1779 15-03-2010 19:58:01 7 C 5.58 g/m*3 7 C 0 km/h
1780 15-03-2010 20:10:02 6.7 C 5.77 g/m*3 6.7 C 0 km/h
1781 15-03-2010 20:22:01 6.8 C 5.81 g/m*3 6.8 C 0 km/h
1782 15-03-2010 20:34:02 6.9 C 5.62 g/m*3 6.9 C 0 km/h
1783 15-03-2010 20:46:01 6.8 C 5.58 g/m*3 6.8 C 0 km/h
1784 15-03-2010 20:58:01 6.8 C 5.58 g/m*3 6.8 C 0 km/h
1785 15-03-2010 21:10:02 6.9 C 5.47 g/m*3 6.9 C 0 km/h
1786 15-03-2010 21:22:02 6.6 C 5.59 g/m*3 6.6 C 0 km/h
1787 15-03-2010 21:34:02 6.4 C 5.66 g/m*3 6.4 C 0 km/h
1788 15-03-2010 21:46:01 6.3 C 5.85 g/m*3 6.3 C 0 km/h
1789 15-03-2010 21:58:01 6.2 C 5.81 g/m*3 6.2 C 0 km/h
1790 15-03-2010 22:10:01 6.1 C 5.77 g/m*3 6.1 C 0 km/h
1791 15-03-2010 22:23:02 6 C 5.73 g/m*3 6 C 0 km/h
1792 15-03-2010 22:35:02 6 C 5.88 g/m*3 6 C 0 km/h
1793 15-03-2010 22:47:02 5.8 C 5.95 g/m*3 5.8 C 0 km/h
1794 15-03-2010 22:59:02 5.8 C 6.02 g/m*3 5.8 C 0 km/h
1795 15-03-2010 23:11:02 5.7 C 6.05 g/m*3 5.7 C 0 km/h
1796 15-03-2010 23:23:02 5.6 C 6.08 g/m*3 5.6 C 0 km/h
1797 15-03-2010 23:35:03 5.5 C 6.11 g/m*3 5.5 C 0 km/h
1798 15-03-2010 23:47:03 5.5 C 6.11 g/m*3 5.5 C 0 km/h
1799 15-03-2010 23:59:03 5.4 C 6.07 g/m*3 5.4 C 0 km/h
1800 16-03-2010 00:11:03 5.4 C 6.14 g/m*3 5.4 C 0 km/h
Sensor: Nr:Datum:Temp:Abs-Feuchte:Windchill:Wind:
Aussen-T/F 1801 16-03-2010 00:23:03 5.4 C 6.14 g/m*3 5.4 C 0 km/h
1802 16-03-2010 00:35:03 5.3 C 6.1 g/m*3 5.3 C 0 km/h
1803 16-03-2010 00:47:03 5.2 C 6.13 g/m*3 5.2 C 0 km/h
1804 16-03-2010 00:59:03 5.1 C 6.09 g/m*3 5.1 C 0 km/h
1805 16-03-2010 01:11:03 5 C 5.98 g/m*3 5 C 0 km/h
1806 16-03-2010 01:23:03 5 C 6.05 g/m*3 5 C 0 km/h
1807 16-03-2010 01:35:03 5 C 6.05 g/m*3 5 C 0 km/h
1808 16-03-2010 01:47:03 5 C 6.05 g/m*3 5 C 0 km/h
1809 16-03-2010 01:59:03 5 C 6.05 g/m*3 5 C 0 km/h
1810 16-03-2010 02:11:03 5 C 6.12 g/m*3 5 C 0 km/h
1811 16-03-2010 02:23:03 4.9 C 6.08 g/m*3 4.9 C 0 km/h
1812 16-03-2010 02:35:03 4.9 C 6.08 g/m*3 4.9 C 0 km/h
1813 16-03-2010 02:47:03 4.9 C 6.08 g/m*3 4.9 C 0 km/h
1814 16-03-2010 02:59:03 4.8 C 5.97 g/m*3 4.8 C 0 km/h
1815 16-03-2010 03:11:03 4.8 C 5.97 g/m*3 4.8 C 0 km/h
1816 16-03-2010 03:23:03 4.7 C 5.93 g/m*3 4.7 C 0 km/h
1817 16-03-2010 03:35:04 4.8 C 6.04 g/m*3 4.8 C 0 km/h
1818 16-03-2010 03:47:04 4.8 C 6.04 g/m*3 4.8 C 0 km/h
1819 16-03-2010 03:59:04 4.8 C 6.1 g/m*3 4.8 C 0 km/h
1820 16-03-2010 04:11:04 4.8 C 6.1 g/m*3 4.8 C 0 km/h
1821 16-03-2010 04:23:04 4.8 C 6.1 g/m*3 4.8 C 0 km/h
1822 16-03-2010 04:35:04 4.7 C 6.06 g/m*3 4.7 C 0 km/h
1823 16-03-2010 04:47:04 4.8 C 6.1 g/m*3 4.8 C 0 km/h
1824 16-03-2010 04:59:04 4.7 C 6.06 g/m*3 4.7 C 0 km/h
1825 16-03-2010 05:11:04 4.7 C 6.06 g/m*3 4.7 C 0 km/h
Sensor: Nr:Datum:Temp:Abs-Feuchte:Windchill:Wind:
Aussen-T/F 1826 16-03-2010 05:23:04 4.7 C 6.13 g/m*3 4.7 C 0 km/h
1827 16-03-2010 05:35:04 4.7 C 6.13 g/m*3 4.7 C 0 km/h
1828 16-03-2010 05:47:04 4.6 C 6.02 g/m*3 4.6 C 0 km/h
1829 16-03-2010 05:59:04 4.6 C 6.02 g/m*3 4.6 C 0 km/h
1830 16-03-2010 06:11:04 4.6 C 6.02 g/m*3 4.6 C 0 km/h
1831 16-03-2010 06:23:04 4.6 C 5.96 g/m*3 4.6 C 0 km/h
1832 16-03-2010 06:35:04 4.6 C 5.96 g/m*3 4.6 C 0 km/h
1833 16-03-2010 06:47:04 4.7 C 6.06 g/m*3 4.7 C 0 km/h
1834 16-03-2010 06:59:04 4.7 C 6.06 g/m*3 4.7 C 0 km/h
1835 16-03-2010 07:11:02 4.7 C 6.06 g/m*3 4.7 C 0 km/h
1836 16-03-2010 07:23:01 4.8 C 6.1 g/m*3 4.8 C 0 km/h
1837 16-03-2010 07:35:02 4.9 C 6.21 g/m*3 4.9 C 0 km/h
1838 16-03-2010 07:47:02 5 C 6.18 g/m*3 5 C 0 km/h
1839 16-03-2010 07:59:02 5 C 6.18 g/m*3 5 C 0 km/h
1840 16-03-2010 08:11:02 5 C 6.18 g/m*3 5 C 0 km/h
1841 16-03-2010 08:23:02 5.1 C 6.22 g/m*3 5.1 C 0 km/h
1842 16-03-2010 08:35:02 5.3 C 6.31 g/m*3 5.3 C 0 km/h
1843 16-03-2010 08:47:02 5.3 C 6.24 g/m*3 5.3 C 0 km/h
1844 16-03-2010 08:59:02 5.5 C 6.32 g/m*3 5.5 C 0 km/h
1845 16-03-2010 09:11:01 5.7 C 6.4 g/m*3 5.7 C 0 km/h
1846 16-03-2010 09:23:02 6 C 6.46 g/m*3 6 C 0 km/h
1847 16-03-2010 09:35:01 6.4 C 6.48 g/m*3 6.4 C 0 km/h
1848 16-03-2010 09:47:02 6.4 C 6.26 g/m*3 6.4 C 0 km/h
1849 16-03-2010 09:59:02 6.6 C 6.11 g/m*3 6.6 C 0 km/h
1850 16-03-2010 10:11:01 6.7 C 6 g/m*3 6.7 C 0 km/h
Sensor: Nr:Datum:Temp:Abs-Feuchte:Windchill:Wind:
Aussen-T/F 1851 16-03-2010 10:23:01 6.8 C 5.97 g/m*3 6.8 C 0 km/h
1852 16-03-2010 10:35:02 6.8 C 5.81 g/m*3 6.8 C 0 km/h
1853 16-03-2010 10:47:02 6.8 C 5.66 g/m*3 6.8 C 0 km/h
1854 16-03-2010 10:59:03 6.9 C 5.7 g/m*3 6.9 C 0 km/h
1855 16-03-2010 11:11:01 7.1 C 5.62 g/m*3 7.1 C 0 km/h
1856 16-03-2010 11:23:02 7.5 C 5.44 g/m*3 7.5 C 0 km/h
1857 16-03-2010 11:35:02 8.1 C 5.41 g/m*3 8.1 C 0 km/h
1858 16-03-2010 11:47:02 8.5 C 5.29 g/m*3 8.5 C 0 km/h
1859 16-03-2010 11:59:02 8.7 C 5.1 g/m*3 8.7 C 0 km/h
1860 16-03-2010 12:11:03 8.7 C 5.1 g/m*3 8.7 C 0 km/h
1861 16-03-2010 12:23:02 8.9 C 5.26 g/m*3 8.9 C 0 km/h
1862 16-03-2010 12:35:02 8.4 C 5.17 g/m*3 8.4 C 0 km/h
1863 16-03-2010 12:47:02 7.9 C 5.34 g/m*3 7.9 C 0 km/h
1864 16-03-2010 12:59:02 7.8 C 5.39 g/m*3 7.8 C 0 km/h
1865 16-03-2010 13:11:02 8 C 5.29 g/m*3 8 C 0 km/h
1866 16-03-2010 13:23:01 7.8 C 5.14 g/m*3 7.8 C 0 km/h
1867 16-03-2010 13:35:02 8.7 C 5.45 g/m*3 8.7 C 0 km/h
1868 16-03-2010 13:47:02 8.2 C 5.11 g/m*3 8.2 C 0 km/h
1869 16-03-2010 13:59:02 8.1 C 5.08 g/m*3 8.1 C 0 km/h
1870 16-03-2010 14:11:02 8.1 C 5.16 g/m*3 8.1 C 0 km/h
1871 16-03-2010 14:23:01 8.7 C 5.36 g/m*3 8.7 C 0 km/h
1872 16-03-2010 14:35:02 8.7 C 5.1 g/m*3 8.7 C 0 km/h
1873 16-03-2010 14:47:02 8.2 C 4.94 g/m*3 8.2 C 0 km/h
1874 16-03-2010 14:59:02 8.1 C 4.99 g/m*3 8.1 C 0 km/h
1875 16-03-2010 15:11:02 8.1 C 5.08 g/m*3 8.1 C 0 km/h
Sensor: Nr:Datum:Temp:Abs-Feuchte:Windchill:Wind:
Aussen-T/F 1876 16-03-2010 15:23:01 8.5 C 5.12 g/m*3 8.5 C 0 km/h
1877 16-03-2010 15:35:02 8.6 C 4.81 g/m*3 8.6 C 0 km/h
1878 16-03-2010 15:47:01 8.8 C 4.79 g/m*3 8.8 C 0 km/h
1879 16-03-2010 15:59:01 9 C 4.85 g/m*3 9 C 0 km/h
1880 16-03-2010 16:11:02 8.7 C 4.76 g/m*3 8.7 C 0 km/h
1881 16-03-2010 16:23:02 8.5 C 4.78 g/m*3 8.5 C 0 km/h
1882 16-03-2010 16:35:02 8.7 C 4.84 g/m*3 8.7 C 0 km/h
1883 16-03-2010 16:47:02 8.7 C 4.84 g/m*3 8.7 C 0 km/h
1884 16-03-2010 16:59:02 8.7 C 4.84 g/m*3 8.7 C 0 km/h
1885 16-03-2010 17:11:02 8.9 C 4.99 g/m*3 8.9 C 0 km/h
1886 16-03-2010 17:23:02 8.8 C 5.05 g/m*3 8.8 C 0 km/h
1887 16-03-2010 17:35:01 8.6 C 4.98 g/m*3 8.6 C 0 km/h
1888 16-03-2010 17:47:02 8.6 C 4.98 g/m*3 8.6 C 0 km/h
1889 16-03-2010 17:59:02 8.4 C 5.01 g/m*3 8.4 C 0 km/h
1890 16-03-2010 18:11:01 8.2 C 5.28 g/m*3 8.2 C 0 km/h
1891 16-03-2010 18:23:02 8 C 5.37 g/m*3 8 C 0 km/h
1892 16-03-2010 18:35:01 7.8 C 5.55 g/m*3 7.8 C 0 km/h
1893 16-03-2010 18:47:02 7.5 C 5.52 g/m*3 7.5 C 0 km/h
1894 16-03-2010 18:59:02 7.3 C 5.53 g/m*3 7.3 C 0 km/h
1895 16-03-2010 19:11:02 7.1 C 5.46 g/m*3 7.1 C 0 km/h
1896 16-03-2010 19:23:02 7 C 5.58 g/m*3 7 C 0 km/h
1897 16-03-2010 19:35:03 6.9 C 5.62 g/m*3 6.9 C 0 km/h
1898 16-03-2010 19:47:02 6.8 C 5.58 g/m*3 6.8 C 0 km/h
1899 16-03-2010 19:59:02 6.6 C 5.51 g/m*3 6.6 C 0 km/h
1900 16-03-2010 20:11:01 6.2 C 5.37 g/m*3 6.2 C 0 km/h
Sensor: Nr:Datum:Temp:Abs-Feuchte:Windchill:Wind:
Aussen-T/F 1901 16-03-2010 20:23:02 5.7 C 5.34 g/m*3 5.7 C 0 km/h
1902 16-03-2010 20:35:02 5.3 C 5.2 g/m*3 5.3 C 0 km/h
1903 16-03-2010 20:47:02 4.9 C 5.2 g/m*3 4.9 C 0 km/h
1904 16-03-2010 20:59:03 4.6 C 5.16 g/m*3 4.6 C 0 km/h
1905 16-03-2010 21:11:01 4.4 C 5.09 g/m*3 4.4 C 0 km/h
1906 16-03-2010 21:23:01 4.2 C 5.03 g/m*3 4.2 C 0 km/h
1907 16-03-2010 21:36:04 4 C 5.02 g/m*3 4 C 0 km/h
1908 16-03-2010 21:48:04 3.8 C 5.02 g/m*3 3.8 C 0 km/h
1909 16-03-2010 22:00:04 3.7 C 5.05 g/m*3 3.7 C 0 km/h
1910 16-03-2010 22:12:04 3.3 C 4.91 g/m*3 3.3 C 0 km/h
1911 16-03-2010 22:24:04 3.2 C 4.88 g/m*3 3.2 C 0 km/h
1912 16-03-2010 22:36:04 2.9 C 4.84 g/m*3 2.9 C 0 km/h
1913 16-03-2010 22:48:04 2.8 C 4.81 g/m*3 2.8 C 0 km/h
1914 16-03-2010 23:00:04 2.7 C 4.78 g/m*3 2.7 C 0 km/h
1915 16-03-2010 23:12:04 2.5 C 4.71 g/m*3 2.5 C 0 km/h
1916 16-03-2010 23:24:04 2.4 C 4.74 g/m*3 2.4 C 0 km/h
1917 16-03-2010 23:36:04 2.2 C 4.68 g/m*3 2.2 C 0 km/h
1918 16-03-2010 23:48:04 2 C 4.61 g/m*3 2 C 0 km/h
1919 17-03-2010 00:00:04 2.3 C 4.76 g/m*3 2.3 C 0 km/h
1920 17-03-2010 00:12:04 2 C 4.67 g/m*3 2 C 0 km/h
1921 17-03-2010 00:24:05 2.2 C 4.73 g/m*3 2.2 C 0 km/h
1922 17-03-2010 00:36:05 2.3 C 4.82 g/m*3 2.3 C 0 km/h
1923 17-03-2010 00:48:05 2.3 C 4.76 g/m*3 2.3 C 0 km/h
1924 17-03-2010 01:00:05 2.3 C 4.76 g/m*3 2.3 C 0 km/h
1925 17-03-2010 01:12:05 2.3 C 4.76 g/m*3 2.3 C 0 km/h
Sensor: Nr:Datum:Temp:Abs-Feuchte:Windchill:Wind:
Aussen-T/F 1926 17-03-2010 01:24:05 1.8 C 4.6 g/m*3 1.8 C 0 km/h
1927 17-03-2010 01:36:05 1.6 C 4.54 g/m*3 1.6 C 0 km/h
1928 17-03-2010 01:48:05 1.7 C 4.63 g/m*3 1.7 C 0 km/h
1929 17-03-2010 02:00:05 2 C 4.67 g/m*3 2 C 0 km/h
1930 17-03-2010 02:12:05 2 C 4.67 g/m*3 2 C 0 km/h
1931 17-03-2010 02:24:05 2.1 C 4.64 g/m*3 2.1 C 0 km/h
1932 17-03-2010 02:36:05 2.1 C 4.64 g/m*3 2.1 C 0 km/h
1933 17-03-2010 02:48:05 2.1 C 4.59 g/m*3 2.1 C 0 km/h
1934 17-03-2010 03:00:05 2.2 C 4.62 g/m*3 2.2 C 0 km/h
1935 17-03-2010 03:12:05 2 C 4.56 g/m*3 2 C 0 km/h
1936 17-03-2010 03:24:05 2.1 C 4.59 g/m*3 2.1 C 0 km/h
1937 17-03-2010 03:36:05 2 C 4.56 g/m*3 2 C 0 km/h
1938 17-03-2010 03:48:05 2.1 C 4.59 g/m*3 2.1 C 0 km/h
1939 17-03-2010 04:00:05 2 C 4.56 g/m*3 2 C 0 km/h
1940 17-03-2010 04:12:05 1.9 C 4.58 g/m*3 1.9 C 0 km/h
1941 17-03-2010 04:24:05 1.7 C 4.46 g/m*3 1.7 C 0 km/h
1942 17-03-2010 04:36:06 1.4 C 4.37 g/m*3 1.4 C 0 km/h
1943 17-03-2010 04:48:06 1.1 C 4.34 g/m*3 1.1 C 0 km/h
1944 17-03-2010 05:00:06 1 C 4.31 g/m*3 1 C 0 km/h
1945 17-03-2010 05:12:06 0.8 C 4.3 g/m*3 0.8 C 0 km/h
1946 17-03-2010 05:24:06 0.8 C 4.35 g/m*3 0.8 C 0 km/h
1947 17-03-2010 05:36:06 0.7 C 4.32 g/m*3 0.7 C 0 km/h
1948 17-03-2010 05:48:06 0.7 C 4.37 g/m*3 0.7 C 0 km/h
1949 17-03-2010 06:00:06 0.6 C 4.34 g/m*3 0.6 C 0 km/h
1950 17-03-2010 06:12:06 0.5 C 4.31 g/m*3 0.5 C 0 km/h
Sensor: Nr:Datum:Temp:Abs-Feuchte:Windchill:Wind:
Aussen-T/F 1951 17-03-2010 06:24:06 0.6 C 4.39 g/m*3 0.6 C 0 km/h
1952 17-03-2010 06:36:06 0.4 C 4.33 g/m*3 0.4 C 0 km/h
1953 17-03-2010 06:48:02 0.6 C 4.39 g/m*3 0.6 C 0 km/h
1954 17-03-2010 07:00:02 0.5 C 4.36 g/m*3 0.5 C 0 km/h
1955 17-03-2010 07:12:02 0.6 C 4.44 g/m*3 0.6 C 0 km/h
1956 17-03-2010 07:24:03 0.8 C 4.51 g/m*3 0.8 C 0 km/h
1957 17-03-2010 07:36:02 1.2 C 4.63 g/m*3 1.2 C 0 km/h
1958 17-03-2010 07:48:02 1.5 C 4.73 g/m*3 1.5 C 0 km/h
1959 17-03-2010 08:00:02 1.6 C 4.7 g/m*3 1.6 C 0 km/h
1960 17-03-2010 08:12:02 1.8 C 4.77 g/m*3 1.8 C 0 km/h
1961 17-03-2010 08:24:02 2 C 4.72 g/m*3 2 C 0 km/h
1962 17-03-2010 08:36:02 2.3 C 4.76 g/m*3 2.3 C 0 km/h
1963 17-03-2010 08:48:02 2.6 C 4.8 g/m*3 2.6 C 0 km/h
1964 17-03-2010 09:00:02 2.9 C 4.67 g/m*3 2.9 C 0 km/h
1965 17-03-2010 09:12:02 3.5 C 4.67 g/m*3 3.5 C 0 km/h
1966 17-03-2010 09:24:03 4.2 C 4.77 g/m*3 4.2 C 0 km/h
1967 17-03-2010 09:36:02 4.6 C 4.5 g/m*3 4.6 C 0 km/h
1968 17-03-2010 09:48:02 4.8 C 4.36 g/m*3 4.8 C 0 km/h
1969 17-03-2010 10:00:02 5.2 C 4.41 g/m*3 5.2 C 0 km/h
1970 17-03-2010 10:12:02 5.5 C 4.35 g/m*3 5.5 C 0 km/h
1971 17-03-2010 10:24:02 6.2 C 4.27 g/m*3 6.2 C 0 km/h
1972 17-03-2010 10:36:02 6.8 C 4.36 g/m*3 6.8 C 0 km/h
1973 17-03-2010 10:48:02 7.1 C 4.21 g/m*3 7.1 C 0 km/h
1974 17-03-2010 11:00:02 7.6 C 4.11 g/m*3 7.6 C 0 km/h
1975 17-03-2010 11:12:02 8.2 C 3.94 g/m*3 8.2 C 0 km/h
Sensor: Nr:Datum:Temp:Abs-Feuchte:Windchill:Wind:
Aussen-T/F 1976 17-03-2010 11:24:02 8.8 C 3.92 g/m*3 8.8 C 0 km/h
1977 17-03-2010 11:36:01 9 C 3.79 g/m*3 9 C 0 km/h
1978 17-03-2010 11:48:02 9.1 C 3.73 g/m*3 9.1 C 0 km/h
1979 17-03-2010 12:00:02 9.6 C 3.94 g/m*3 9.6 C 0 km/h
1980 17-03-2010 12:12:01 10.1 C 3.78 g/m*3 10.1 C 0 km/h
1981 17-03-2010 12:24:02 10.4 C 3.66 g/m*3 10.4 C 0 km/h
1982 17-03-2010 12:36:02 11.1 C 3.73 g/m*3 11.1 C 0 km/h
1983 17-03-2010 12:48:02 11.5 C 3.72 g/m*3 11.5 C 0 km/h
1984 17-03-2010 13:00:03 11.8 C 3.58 g/m*3 11.8 C 0 km/h
1985 17-03-2010 13:12:02 12.2 C 3.45 g/m*3 12.2 C 0 km/h
1986 17-03-2010 13:24:02 12.8 C 3.47 g/m*3 12.8 C 0 km/h
1987 17-03-2010 13:36:02 13.1 C 3.42 g/m*3 13.1 C 0 km/h
1988 17-03-2010 13:48:02 13.2 C 3.44 g/m*3 13.2 C 0 km/h
1989 17-03-2010 14:00:02 13.4 C 3.02 g/m*3 13.4 C 0 km/h
1990 17-03-2010 14:12:02 13.5 C 2.92 g/m*3 13.5 C 0 km/h
1991 17-03-2010 14:24:01 13.4 C 2.91 g/m*3 13.4 C 0 km/h
1992 17-03-2010 14:36:02 13.8 C 3.1 g/m*3 13.8 C 0 km/h
1993 17-03-2010 14:48:02 14.1 C 2.79 g/m*3 14.1 C 0 km/h
1994 17-03-2010 15:00:02 14.5 C 3.11 g/m*3 14.5 C 0 km/h
1995 17-03-2010 15:12:02 14.7 C 3.15 g/m*3 14.7 C 0 km/h
1996 17-03-2010 15:24:02 14.6 C 3.13 g/m*3 14.6 C 0 km/h
1997 17-03-2010 15:36:02 14.6 C 3.13 g/m*3 14.6 C 0 km/h
1998 17-03-2010 15:48:02 14.1 C 3.16 g/m*3 14.1 C 0 km/h
1999 17-03-2010 16:00:02 14.1 C 3.03 g/m*3 14.1 C 0 km/h
2000 17-03-2010 16:12:03 13.9 C 3 g/m*3 13.9 C 0 km/h
Sensor: Nr:Datum:Temp:Abs-Feuchte:Windchill:Wind:
Aussen-T/F 2001 17-03-2010 16:24:02 14 C 3.14 g/m*3 14 C 0 km/h
2002 17-03-2010 16:36:02 13.9 C 3.12 g/m*3 13.9 C 0 km/h
2003 17-03-2010 16:48:01 13.8 C 2.98 g/m*3 13.8 C 0 km/h
2004 17-03-2010 17:00:01 13.7 C 3.08 g/m*3 13.7 C 0 km/h
2005 17-03-2010 17:12:02 13.7 C 3.08 g/m*3 13.7 C 0 km/h
2006 17-03-2010 17:24:01 13.4 C 3.25 g/m*3 13.4 C 0 km/h
2007 17-03-2010 17:36:01 13.1 C 3.42 g/m*3 13.1 C 0 km/h
2008 17-03-2010 17:48:01 12.5 C 3.63 g/m*3 12.5 C 0 km/h
2009 17-03-2010 18:00:01 12 C 3.62 g/m*3 12 C 0 km/h
2010 17-03-2010 18:12:02 11.7 C 3.77 g/m*3 11.7 C 0 km/h
2011 17-03-2010 18:24:02 11.2 C 3.75 g/m*3 11.2 C 0 km/h
2012 17-03-2010 18:36:01 10.8 C 3.76 g/m*3 10.8 C 0 km/h
2013 17-03-2010 18:48:01 10.4 C 3.86 g/m*3 10.4 C 0 km/h
2014 17-03-2010 19:00:01 10 C 3.95 g/m*3 10 C 0 km/h
2015 17-03-2010 19:12:01 9.6 C 3.94 g/m*3 9.6 C 0 km/h
2016 17-03-2010 19:24:02 9.5 C 3.91 g/m*3 9.5 C 0 km/h
2017 17-03-2010 19:36:01 9.2 C 4.02 g/m*3 9.2 C 0 km/h
2018 17-03-2010 19:48:03 9 C 4.14 g/m*3 9 C 0 km/h
2019 17-03-2010 20:00:03 8.6 C 4.12 g/m*3 8.6 C 0 km/h
2020 17-03-2010 20:12:02 8.5 C 4.18 g/m*3 8.5 C 0 km/h
2021 17-03-2010 20:24:02 8.2 C 4.19 g/m*3 8.2 C 0 km/h
2022 17-03-2010 20:36:02 7.9 C 4.19 g/m*3 7.9 C 0 km/h
2023 17-03-2010 20:48:02 7.8 C 4.24 g/m*3 7.8 C 0 km/h
2024 17-03-2010 21:00:02 7.5 C 4.32 g/m*3 7.5 C 0 km/h
2025 17-03-2010 21:13:03 7.3 C 4.35 g/m*3 7.3 C 0 km/h
Sensor: Nr:Datum:Temp:Abs-Feuchte:Windchill:Wind:
Aussen-T/F 2026 17-03-2010 21:25:03 7.3 C 4.35 g/m*3 7.3 C 0 km/h
2027 17-03-2010 21:37:03 7 C 4.26 g/m*3 7 C 0 km/h
2028 17-03-2010 21:49:03 6.9 C 4.39 g/m*3 6.9 C 0 km/h
2029 17-03-2010 22:01:03 6.9 C 4.39 g/m*3 6.9 C 0 km/h
2030 17-03-2010 22:13:03 6.9 C 4.39 g/m*3 6.9 C 0 km/h
2031 17-03-2010 22:25:03 6.9 C 4.31 g/m*3 6.9 C 0 km/h
2032 17-03-2010 22:37:03 6.9 C 4.23 g/m*3 6.9 C 0 km/h
2033 17-03-2010 22:49:03 6.8 C 4.28 g/m*3 6.8 C 0 km/h
2034 17-03-2010 23:01:03 6.6 C 4.38 g/m*3 6.6 C 0 km/h
2035 17-03-2010 23:13:03 6.4 C 4.4 g/m*3 6.4 C 0 km/h
2036 17-03-2010 23:25:03 6.1 C 4.38 g/m*3 6.1 C 0 km/h
2037 17-03-2010 23:37:03 5.9 C 4.47 g/m*3 5.9 C 0 km/h
2038 17-03-2010 23:49:03 6.2 C 4.49 g/m*3 6.2 C 0 km/h
2039 18-03-2010 00:01:03 6.1 C 4.38 g/m*3 6.1 C 0 km/h
2040 18-03-2010 00:13:03 6.1 C 4.38 g/m*3 6.1 C 0 km/h
2041 18-03-2010 00:25:03 5.8 C 4.44 g/m*3 5.8 C 0 km/h
2042 18-03-2010 00:37:03 5.7 C 4.41 g/m*3 5.7 C 0 km/h
2043 18-03-2010 00:49:03 5.7 C 4.41 g/m*3 5.7 C 0 km/h
2044 18-03-2010 01:01:03 5.6 C 4.38 g/m*3 5.6 C 0 km/h
2045 18-03-2010 01:13:04 5.5 C 4.35 g/m*3 5.5 C 0 km/h
2046 18-03-2010 01:25:04 5.6 C 4.38 g/m*3 5.6 C 0 km/h
2047 18-03-2010 01:37:04 5.4 C 4.4 g/m*3 5.4 C 0 km/h
2048 18-03-2010 01:49:04 5.4 C 4.47 g/m*3 5.4 C 0 km/h
2049 18-03-2010 02:01:04 5.4 C 4.4 g/m*3 5.4 C 0 km/h
2050 18-03-2010 02:13:04 5.4 C 4.4 g/m*3 5.4 C 0 km/h
Sensor: Nr:Datum:Temp:Abs-Feuchte:Windchill:Wind:
Aussen-T/F 2051 18-03-2010 02:25:04 5.3 C 4.37 g/m*3 5.3 C 0 km/h
2052 18-03-2010 02:37:04 4.9 C 4.39 g/m*3 4.9 C 0 km/h
2053 18-03-2010 02:49:04 4.5 C 4.34 g/m*3 4.5 C 0 km/h
2054 18-03-2010 03:01:04 4.3 C 4.35 g/m*3 4.3 C 0 km/h
2055 18-03-2010 03:13:04 4 C 4.32 g/m*3 4 C 0 km/h
2056 18-03-2010 03:25:04 3.8 C 4.39 g/m*3 3.8 C 0 km/h
2057 18-03-2010 03:37:04 3.8 C 4.39 g/m*3 3.8 C 0 km/h
2058 18-03-2010 03:49:04 3.8 C 4.39 g/m*3 3.8 C 0 km/h
2059 18-03-2010 04:01:04 3.8 C 4.39 g/m*3 3.8 C 0 km/h
2060 18-03-2010 04:13:04 3.7 C 4.42 g/m*3 3.7 C 0 km/h
2061 18-03-2010 04:25:04 3.4 C 4.4 g/m*3 3.4 C 0 km/h
2062 18-03-2010 04:37:04 3.2 C 4.34 g/m*3 3.2 C 0 km/h
2063 18-03-2010 04:49:04 3 C 4.28 g/m*3 3 C 0 km/h
2064 18-03-2010 05:01:04 2.8 C 4.34 g/m*3 2.8 C 0 km/h
2065 18-03-2010 05:13:04 2.7 C 4.31 g/m*3 2.7 C 0 km/h
2066 18-03-2010 05:25:04 2.5 C 4.25 g/m*3 2.5 C 0 km/h
2067 18-03-2010 05:37:04 2.5 C 4.25 g/m*3 2.5 C 0 km/h
2068 18-03-2010 05:49:05 2.2 C 4.17 g/m*3 2.2 C 0 km/h
2069 18-03-2010 06:01:05 2.1 C 4.2 g/m*3 2.1 C 0 km/h
2070 18-03-2010 06:13:05 2.1 C 4.25 g/m*3 2.1 C 0 km/h
2071 18-03-2010 06:25:05 1.9 C 4.19 g/m*3 1.9 C 0 km/h
2072 18-03-2010 06:37:05 1.8 C 4.22 g/m*3 1.8 C 0 km/h
2073 18-03-2010 06:49:05 1.7 C 4.19 g/m*3 1.7 C 0 km/h
2074 18-03-2010 07:01:02 1.7 C 4.19 g/m*3 1.7 C 0 km/h
2075 18-03-2010 07:13:02 1.9 C 4.3 g/m*3 1.9 C 0 km/h
Sensor: Nr:Datum:Temp:Abs-Feuchte:Windchill:Wind:
Aussen-T/F 2076 18-03-2010 07:25:03 1.8 C 4.28 g/m*3 1.8 C 0 km/h
2077 18-03-2010 07:37:02 2 C 4.33 g/m*3 2 C 0 km/h
2078 18-03-2010 07:49:02 2.2 C 4.39 g/m*3 2.2 C 0 km/h
2079 18-03-2010 08:01:01 2.5 C 4.43 g/m*3 2.5 C 0 km/h
2080 18-03-2010 08:13:01 2.8 C 4.52 g/m*3 2.8 C 0 km/h
2081 18-03-2010 08:25:02 3.1 C 4.55 g/m*3 3.1 C 0 km/h
2082 18-03-2010 08:37:01 3.5 C 4.61 g/m*3 3.5 C 0 km/h
2083 18-03-2010 08:49:01 4 C 4.64 g/m*3 4 C 0 km/h
2084 18-03-2010 09:01:02 4.6 C 4.7 g/m*3 4.6 C 0 km/h
2085 18-03-2010 09:13:02 5.1 C 4.45 g/m*3 5.1 C 0 km/h
2086 18-03-2010 09:25:01 5.3 C 4.37 g/m*3 5.3 C 0 km/h
2087 18-03-2010 09:37:02 5.9 C 4.25 g/m*3 5.9 C 0 km/h
2088 18-03-2010 09:49:01 6.2 C 4.19 g/m*3 6.2 C 0 km/h
2089 18-03-2010 10:01:02 6.7 C 4.41 g/m*3 6.7 C 0 km/h
2090 18-03-2010 10:13:02 7.4 C 4.53 g/m*3 7.4 C 0 km/h
2091 18-03-2010 10:25:01 7.9 C 4.35 g/m*3 7.9 C 0 km/h
2092 18-03-2010 10:37:02 8.3 C 4.3 g/m*3 8.3 C 0 km/h
2093 18-03-2010 10:49:01 8.8 C 4.35 g/m*3 8.8 C 0 km/h
2094 18-03-2010 11:01:02 9.5 C 4.46 g/m*3 9.5 C 0 km/h
2095 18-03-2010 11:13:02 10.2 C 4.47 g/m*3 10.2 C 0 km/h
2096 18-03-2010 11:25:02 10.7 C 4.52 g/m*3 10.7 C 0 km/h
2097 18-03-2010 11:37:01 11.4 C 4.21 g/m*3 11.4 C 0 km/h
2098 18-03-2010 11:49:01 12 C 4.05 g/m*3 12 C 0 km/h
2099 18-03-2010 12:01:01 12.8 C 4.26 g/m*3 12.8 C 0 km/h
2100 18-03-2010 12:13:01 13.4 C 4.18 g/m*3 13.4 C 0 km/h
Sensor: Nr:Datum:Temp:Abs-Feuchte:Windchill:Wind:
Aussen-T/F 2101 18-03-2010 12:25:02 14.2 C 4.27 g/m*3 14.2 C 0 km/h
2102 18-03-2010 12:37:01 15 C 4.1 g/m*3 15 C 0 km/h
2103 18-03-2010 12:49:02 15.9 C 4.2 g/m*3 15.9 C 0 km/h
2104 18-03-2010 13:01:01 16.8 C 3.86 g/m*3 16.8 C 0 km/h
2105 18-03-2010 13:13:01 17.5 C 3.58 g/m*3 17.5 C 0 km/h
2106 18-03-2010 13:25:02 18.2 C 3.11 g/m*3 18.2 C 0 km/h
2107 18-03-2010 13:37:01 18.7 C 3.2 g/m*3 18.7 C 0 km/h
2108 18-03-2010 13:49:02 19 C 3.26 g/m*3 19 C 0 km/h
2109 18-03-2010 14:01:02 19.2 C 3.3 g/m*3 19.2 C 0 km/h
2110 18-03-2010 14:13:02 19.1 C 3.28 g/m*3 19.1 C 0 km/h
2111 18-03-2010 14:25:02 19 C 3.26 g/m*3 19 C 0 km/h
2112 18-03-2010 14:37:02 19.2 C 3.3 g/m*3 19.2 C 0 km/h
2113 18-03-2010 14:49:02 19.6 C 3.38 g/m*3 19.6 C 0 km/h
2114 18-03-2010 15:01:01 20.2 C 3.5 g/m*3 20.2 C 0 km/h
2115 18-03-2010 15:13:01 20 C 3.46 g/m*3 20 C 0 km/h
2116 18-03-2010 15:25:02 20.4 C 3.54 g/m*3 20.4 C 0 km/h
2117 18-03-2010 15:37:02 20.6 C 3.58 g/m*3 20.6 C 0 km/h
2118 18-03-2010 15:49:01 20.6 C 3.58 g/m*3 20.6 C 0 km/h
2119 18-03-2010 16:01:01 20 C 3.46 g/m*3 20 C 0 km/h
2120 18-03-2010 16:13:01 19.8 C 3.42 g/m*3 19.8 C 0 km/h
2121 18-03-2010 16:25:01 20 C 3.46 g/m*3 20 C 0 km/h
2122 18-03-2010 16:37:02 20 C 3.46 g/m*3 20 C 0 km/h
2123 18-03-2010 16:49:02 19.3 C 3.32 g/m*3 19.3 C 0 km/h
2124 18-03-2010 17:01:02 19.1 C 3.28 g/m*3 19.1 C 0 km/h
2125 18-03-2010 17:13:02 18.5 C 3.16 g/m*3 18.5 C 0 km/h
Sensor: Nr:Datum:Temp:Abs-Feuchte:Windchill:Wind:
Aussen-T/F 2126 18-03-2010 17:25:02 18 C 3.38 g/m*3 18 C 0 km/h
2127 18-03-2010 17:37:02 17.5 C 3.88 g/m*3 17.5 C 0 km/h
2128 18-03-2010 17:49:02 16.8 C 4.15 g/m*3 16.8 C 0 km/h
2129 18-03-2010 18:01:03 16.3 C 4.16 g/m*3 16.3 C 0 km/h
2130 18-03-2010 18:13:03 15.8 C 4.17 g/m*3 15.8 C 0 km/h
2131 18-03-2010 18:25:02 15.4 C 3.94 g/m*3 15.4 C 0 km/h
2132 18-03-2010 18:37:02 15 C 3.98 g/m*3 15 C 0 km/h
2133 18-03-2010 18:49:01 14.5 C 3.98 g/m*3 14.5 C 0 km/h
2134 18-03-2010 19:01:02 14.1 C 4 g/m*3 14.1 C 0 km/h
2135 18-03-2010 19:13:02 13.7 C 4.14 g/m*3 13.7 C 0 km/h
2136 18-03-2010 19:25:01 13.4 C 4.18 g/m*3 13.4 C 0 km/h
2137 18-03-2010 19:37:02 13.3 C 4.04 g/m*3 13.3 C 0 km/h
2138 18-03-2010 19:49:02 13.2 C 4.13 g/m*3 13.2 C 0 km/h
2139 18-03-2010 20:01:02 13.1 C 4.11 g/m*3 13.1 C 0 km/h
2140 18-03-2010 20:13:02 13.1 C 3.99 g/m*3 13.1 C 0 km/h
2141 18-03-2010 20:25:01 13 C 3.86 g/m*3 13 C 0 km/h
2142 18-03-2010 20:37:02 12.8 C 4.03 g/m*3 12.8 C 0 km/h
2143 18-03-2010 20:49:02 12.6 C 3.98 g/m*3 12.6 C 0 km/h
2144 18-03-2010 21:01:02 12.4 C 3.93 g/m*3 12.4 C 0 km/h
2145 18-03-2010 21:13:02 12.4 C 3.82 g/m*3 12.4 C 0 km/h
2146 18-03-2010 21:25:02 12.4 C 3.82 g/m*3 12.4 C 0 km/h
2147 18-03-2010 21:37:02 12.1 C 3.97 g/m*3 12.1 C 0 km/h
2148 18-03-2010 21:49:02 11.8 C 3.89 g/m*3 11.8 C 0 km/h
2149 18-03-2010 22:01:02 11.7 C 3.97 g/m*3 11.7 C 0 km/h
2150 18-03-2010 22:13:02 11.4 C 3.9 g/m*3 11.4 C 0 km/h
Sensor: Nr:Datum:Temp:Abs-Feuchte:Windchill:Wind:
Aussen-T/F 2151 18-03-2010 22:25:02 11.2 C 4.05 g/m*3 11.2 C 0 km/h
2152 18-03-2010 22:38:04 11.1 C 4.03 g/m*3 11.1 C 0 km/h
2153 18-03-2010 22:50:04 10.8 C 4.05 g/m*3 10.8 C 0 km/h
2154 18-03-2010 23:02:04 10.5 C 4.07 g/m*3 10.5 C 0 km/h
2155 18-03-2010 23:14:04 10.7 C 3.93 g/m*3 10.7 C 0 km/h
2156 18-03-2010 23:26:04 10.7 C 3.93 g/m*3 10.7 C 0 km/h
2157 18-03-2010 23:38:04 10.5 C 3.98 g/m*3 10.5 C 0 km/h
2158 18-03-2010 23:50:04 10.4 C 3.86 g/m*3 10.4 C 0 km/h
2159 19-03-2010 00:02:04 10 C 4.04 g/m*3 10 C 0 km/h
2160 19-03-2010 00:14:04 9.8 C 4.08 g/m*3 9.8 C 0 km/h
2161 19-03-2010 00:26:04 9.8 C 4.08 g/m*3 9.8 C 0 km/h
2162 19-03-2010 00:38:04 9.9 C 4.01 g/m*3 9.9 C 0 km/h
2163 19-03-2010 00:50:04 10.1 C 3.88 g/m*3 10.1 C 0 km/h
2164 19-03-2010 01:02:04 10.8 C 3.56 g/m*3 10.8 C 0 km/h
2165 19-03-2010 01:14:04 11.4 C 3.39 g/m*3 11.4 C 0 km/h
2166 19-03-2010 01:26:04 11.5 C 3.31 g/m*3 11.5 C 0 km/h
2167 19-03-2010 01:38:04 11.4 C 3.28 g/m*3 11.4 C 0 km/h
2168 19-03-2010 01:50:05 11.4 C 3.28 g/m*3 11.4 C 0 km/h
2169 19-03-2010 02:02:05 11.4 C 3.28 g/m*3 11.4 C 0 km/h
2170 19-03-2010 02:14:05 11.5 C 3.31 g/m*3 11.5 C 0 km/h
2171 19-03-2010 02:26:05 11.4 C 3.39 g/m*3 11.4 C 0 km/h
2172 19-03-2010 02:38:05 11.6 C 3.33 g/m*3 11.6 C 0 km/h
2173 19-03-2010 02:50:05 11.6 C 3.33 g/m*3 11.6 C 0 km/h
2174 19-03-2010 03:02:05 11.6 C 3.33 g/m*3 11.6 C 0 km/h
2175 19-03-2010 03:14:05 12 C 3.2 g/m*3 12 C 0 km/h
Sensor: Nr:Datum:Temp:Abs-Feuchte:Windchill:Wind:
Aussen-T/F 2176 19-03-2010 03:26:05 12 C 3.2 g/m*3 12 C 0 km/h
2177 19-03-2010 03:38:05 12.1 C 3.22 g/m*3 12.1 C 0 km/h
2178 19-03-2010 03:50:05 12.1 C 3.22 g/m*3 12.1 C 0 km/h
2179 19-03-2010 04:02:05 12.2 C 3.24 g/m*3 12.2 C 0 km/h
2180 19-03-2010 04:14:05 12.1 C 3.22 g/m*3 12.1 C 0 km/h
2181 19-03-2010 04:26:05 11.9 C 3.28 g/m*3 11.9 C 0 km/h
2182 19-03-2010 04:38:05 11.8 C 3.37 g/m*3 11.8 C 0 km/h
2183 19-03-2010 04:50:05 11.6 C 3.43 g/m*3 11.6 C 0 km/h
2184 19-03-2010 05:02:05 11.4 C 3.49 g/m*3 11.4 C 0 km/h
2185 19-03-2010 05:14:05 11.3 C 3.57 g/m*3 11.3 C 0 km/h
2186 19-03-2010 05:26:05 11.3 C 3.57 g/m*3 11.3 C 0 km/h
2187 19-03-2010 05:38:05 11.3 C 3.57 g/m*3 11.3 C 0 km/h
2188 19-03-2010 05:50:06 11.6 C 3.64 g/m*3 11.6 C 0 km/h
2189 19-03-2010 06:02:06 11.5 C 3.62 g/m*3 11.5 C 0 km/h
2190 19-03-2010 06:14:06 11.5 C 3.62 g/m*3 11.5 C 0 km/h
2191 19-03-2010 06:26:06 11.5 C 3.62 g/m*3 11.5 C 0 km/h
2192 19-03-2010 06:38:06 11.5 C 3.72 g/m*3 11.5 C 0 km/h
2193 19-03-2010 06:50:02 11.4 C 3.7 g/m*3 11.4 C 0 km/h
2194 19-03-2010 07:02:02 11.4 C 3.9 g/m*3 11.4 C 0 km/h
2195 19-03-2010 07:14:02 11.8 C 4 g/m*3 11.8 C 0 km/h
2196 19-03-2010 07:26:02 12.3 C 4.02 g/m*3 12.3 C 0 km/h
2197 19-03-2010 07:38:01 12.4 C 4.04 g/m*3 12.4 C 0 km/h
2198 19-03-2010 07:50:02 12.4 C 4.04 g/m*3 12.4 C 0 km/h
2199 19-03-2010 08:02:02 12.3 C 4.13 g/m*3 12.3 C 0 km/h
2200 19-03-2010 08:14:02 12.6 C 4.43 g/m*3 12.6 C 0 km/h
Sensor: Nr:Datum:Temp:Abs-Feuchte:Windchill:Wind:
Aussen-T/F 2201 19-03-2010 08:26:02 12.9 C 4.62 g/m*3 12.9 C 0 km/h
2202 19-03-2010 08:38:02 13.1 C 4.56 g/m*3 13.1 C 0 km/h
2203 19-03-2010 08:50:02 13.3 C 4.74 g/m*3 13.3 C 0 km/h
2204 19-03-2010 09:02:01 13.4 C 4.77 g/m*3 13.4 C 0 km/h
2205 19-03-2010 09:14:01 13.5 C 4.8 g/m*3 13.5 C 0 km/h
2206 19-03-2010 09:26:01 13.5 C 4.91 g/m*3 13.5 C 0 km/h
2207 19-03-2010 09:38:02 13.6 C 4.94 g/m*3 13.6 C 0 km/h
2208 19-03-2010 09:50:02 13.8 C 5 g/m*3 13.8 C 0 km/h
2209 19-03-2010 10:02:01 14.1 C 5.1 g/m*3 14.1 C 0 km/h
2210 19-03-2010 10:14:01 14.4 C 5.07 g/m*3 14.4 C 0 km/h
2211 19-03-2010 10:26:02 14.9 C 5.23 g/m*3 14.9 C 0 km/h
2212 19-03-2010 10:38:02 15.2 C 5.19 g/m*3 15.2 C 0 km/h
2213 19-03-2010 10:50:02 15.5 C 5.16 g/m*3 15.5 C 0 km/h
2214 19-03-2010 11:02:01 15.8 C 5.25 g/m*3 15.8 C 0 km/h
2215 19-03-2010 11:14:01 16.2 C 5.24 g/m*3 16.2 C 0 km/h
2216 19-03-2010 11:26:02 16.3 C 5.27 g/m*3 16.3 C 0 km/h
2217 19-03-2010 11:38:01 16 C 5.31 g/m*3 16 C 0 km/h
2218 19-03-2010 11:50:02 16.5 C 5.48 g/m*3 16.5 C 0 km/h
2219 19-03-2010 12:02:01 17 C 5.35 g/m*3 17 C 0 km/h
2220 19-03-2010 12:14:01 18.1 C 5.41 g/m*3 18.1 C 0 km/h
2221 19-03-2010 12:26:02 18.6 C 5.57 g/m*3 18.6 C 0 km/h
2222 19-03-2010 12:38:01 19 C 5.38 g/m*3 19 C 0 km/h
2223 19-03-2010 12:50:02 18.9 C 5.35 g/m*3 18.9 C 0 km/h
2224 19-03-2010 13:02:02 18.3 C 5.47 g/m*3 18.3 C 0 km/h
2225 19-03-2010 13:14:02 18.7 C 5.44 g/m*3 18.7 C 0 km/h
Sensor: Nr:Datum:Temp:Abs-Feuchte:Windchill:Wind:
Aussen-T/F 2226 19-03-2010 13:26:02 18.7 C 5.28 g/m*3 18.7 C 0 km/h
2227 19-03-2010 13:38:02 19.3 C 5.14 g/m*3 19.3 C 0 km/h
2228 19-03-2010 13:50:02 19.4 C 5.17 g/m*3 19.4 C 0 km/h
2229 19-03-2010 14:02:01 20 C 5.18 g/m*3 20 C 0 km/h
2230 19-03-2010 14:14:01 19.8 C 5.12 g/m*3 19.8 C 0 km/h
2231 19-03-2010 14:26:02 20.3 C 5.1 g/m*3 20.3 C 0 km/h
2232 19-03-2010 14:38:01 20.6 C 4.83 g/m*3 20.6 C 0 km/h
2233 19-03-2010 14:50:02 20.7 C 4.86 g/m*3 20.7 C 0 km/h
2234 19-03-2010 15:02:01 20.6 C 4.65 g/m*3 20.6 C 0 km/h
2235 19-03-2010 15:14:01 21 C 4.58 g/m*3 21 C 0 km/h
2236 19-03-2010 15:26:01 21.2 C 4.63 g/m*3 21.2 C 0 km/h
2237 19-03-2010 15:38:02 20.6 C 4.65 g/m*3 20.6 C 0 km/h
2238 19-03-2010 15:50:02 20.8 C 4.71 g/m*3 20.8 C 0 km/h
2239 19-03-2010 16:02:01 20.7 C 4.68 g/m*3 20.7 C 0 km/h
2240 19-03-2010 16:14:01 20.8 C 4.89 g/m*3 20.8 C 0 km/h
2241 19-03-2010 16:26:02 20 C 4.84 g/m*3 20 C 0 km/h
2242 19-03-2010 16:38:02 20 C 4.84 g/m*3 20 C 0 km/h
2243 19-03-2010 16:50:01 19.7 C 5.09 g/m*3 19.7 C 0 km/h
2244 19-03-2010 17:02:02 19.4 C 5.17 g/m*3 19.4 C 0 km/h
2245 19-03-2010 17:14:02 19.1 C 5.08 g/m*3 19.1 C 0 km/h
2246 19-03-2010 17:26:01 18.8 C 5.15 g/m*3 18.8 C 0 km/h
2247 19-03-2010 17:38:01 18.6 C 5.09 g/m*3 18.6 C 0 km/h
2248 19-03-2010 17:50:01 18.3 C 5.32 g/m*3 18.3 C 0 km/h
2249 19-03-2010 18:02:02 18.1 C 5.41 g/m*3 18.1 C 0 km/h
2250 19-03-2010 18:14:02 17.9 C 5.5 g/m*3 17.9 C 0 km/h
Sensor: Nr:Datum:Temp:Abs-Feuchte:Windchill:Wind:
Aussen-T/F 2251 19-03-2010 18:26:01 17.7 C 5.43 g/m*3 17.7 C 0 km/h
2252 19-03-2010 18:38:02 17.3 C 5.45 g/m*3 17.3 C 0 km/h
2253 19-03-2010 18:50:02 16.8 C 5.58 g/m*3 16.8 C 0 km/h
2254 19-03-2010 19:02:02 16.4 C 5.58 g/m*3 16.4 C 0 km/h
2255 19-03-2010 19:14:02 16.4 C 5.58 g/m*3 16.4 C 0 km/h
2256 19-03-2010 19:26:01 15.9 C 5.69 g/m*3 15.9 C 0 km/h
2257 19-03-2010 19:38:02 15.7 C 5.62 g/m*3 15.7 C 0 km/h
2258 19-03-2010 19:50:02 15.7 C 5.62 g/m*3 15.7 C 0 km/h
2259 19-03-2010 20:02:02 15.7 C 5.49 g/m*3 15.7 C 0 km/h
2260 19-03-2010 20:14:02 15.6 C 5.59 g/m*3 15.6 C 0 km/h
2261 19-03-2010 20:26:01 15.5 C 5.42 g/m*3 15.5 C 0 km/h
2262 19-03-2010 20:38:02 15.6 C 5.45 g/m*3 15.6 C 0 km/h
2263 19-03-2010 20:50:02 15.5 C 5.42 g/m*3 15.5 C 0 km/h
2264 19-03-2010 21:02:02 15.4 C 5.39 g/m*3 15.4 C 0 km/h
2265 19-03-2010 21:14:02 15.5 C 5.55 g/m*3 15.5 C 0 km/h
2266 19-03-2010 21:26:02 15.4 C 5.52 g/m*3 15.4 C 0 km/h
2267 19-03-2010 21:38:02 15.4 C 5.52 g/m*3 15.4 C 0 km/h
2268 19-03-2010 21:50:02 15.3 C 5.48 g/m*3 15.3 C 0 km/h
2269 19-03-2010 22:02:02 15.2 C 5.58 g/m*3 15.2 C 0 km/h
2270 19-03-2010 22:14:02 15.2 C 5.58 g/m*3 15.2 C 0 km/h
2271 19-03-2010 22:26:02 15.1 C 5.68 g/m*3 15.1 C 0 km/h
2272 19-03-2010 22:38:02 15 C 5.77 g/m*3 15 C 0 km/h
2273 19-03-2010 22:50:02 14.9 C 5.74 g/m*3 14.9 C 0 km/h
2274 19-03-2010 23:02:01 14.7 C 5.79 g/m*3 14.7 C 0 km/h
2275 19-03-2010 23:14:01 14.7 C 5.79 g/m*3 14.7 C 0 km/h
Sensor: Nr:Datum:Temp:Abs-Feuchte:Windchill:Wind:
Aussen-T/F 2276 19-03-2010 23:26:02 14.6 C 5.76 g/m*3 14.6 C 0 km/h
2277 19-03-2010 23:38:02 14.5 C 5.85 g/m*3 14.5 C 0 km/h
2278 19-03-2010 23:51:04 14.5 C 5.72 g/m*3 14.5 C 0 km/h
2279 20-03-2010 00:03:04 14.4 C 5.93 g/m*3 14.4 C 0 km/h
2280 20-03-2010 00:15:04 14.2 C 5.86 g/m*3 14.2 C 0 km/h
2281 20-03-2010 00:27:04 14.1 C 5.95 g/m*3 14.1 C 0 km/h
2282 20-03-2010 00:39:04 14.1 C 5.83 g/m*3 14.1 C 0 km/h
2283 20-03-2010 00:51:04 14.1 C 5.83 g/m*3 14.1 C 0 km/h
2284 20-03-2010 01:03:04 14.1 C 5.83 g/m*3 14.1 C 0 km/h
2285 20-03-2010 01:15:04 14.1 C 5.95 g/m*3 14.1 C 0 km/h
2286 20-03-2010 01:27:04 13.9 C 5.99 g/m*3 13.9 C 0 km/h
2287 20-03-2010 01:39:04 13.9 C 5.87 g/m*3 13.9 C 0 km/h
2288 20-03-2010 01:51:04 14.1 C 5.58 g/m*3 14.1 C 0 km/h
2289 20-03-2010 02:03:04 14.7 C 5.41 g/m*3 14.7 C 0 km/h
2290 20-03-2010 02:15:04 14.7 C 5.67 g/m*3 14.7 C 0 km/h
2291 20-03-2010 02:27:04 14.4 C 6.43 g/m*3 14.4 C 0 km/h
2292 20-03-2010 02:39:04 13.8 C 7.03 g/m*3 13.8 C 0 km/h
2293 20-03-2010 02:51:04 13.5 C 7.49 g/m*3 13.5 C 0 km/h
2294 20-03-2010 03:03:05 13 C 7.83 g/m*3 13 C 0 km/h
2295 20-03-2010 03:15:05 12.5 C 8.14 g/m*3 12.5 C 0 km/h
2296 20-03-2010 03:27:05 12.1 C 8.26 g/m*3 12.1 C 0 km/h
2297 20-03-2010 03:39:05 12.2 C 8.52 g/m*3 12.2 C 0 km/h
2298 20-03-2010 03:51:05 12.1 C 8.47 g/m*3 12.1 C 0 km/h
2299 20-03-2010 04:03:05 12 C 8.63 g/m*3 12 C 0 km/h
2300 20-03-2010 04:15:05 12.2 C 8.85 g/m*3 12.2 C 0 km/h
Sensor: Nr:Datum:Temp:Abs-Feuchte:Windchill:Wind:
Aussen-T/F 2301 20-03-2010 04:27:05 12 C 8.85 g/m*3 12 C 0 km/h
2302 20-03-2010 04:39:05 12.1 C 9.01 g/m*3 12.1 C 0 km/h
2303 20-03-2010 04:51:05 12.1 C 9.12 g/m*3 12.1 C 0 km/h
2304 20-03-2010 05:03:05 12.1 C 9.12 g/m*3 12.1 C 0 km/h
2305 20-03-2010 05:15:05 12.4 C 9.4 g/m*3 12.4 C 0 km/h
2306 20-03-2010 05:27:05 12.7 C 9.46 g/m*3 12.7 C 0 km/h
2307 20-03-2010 05:39:05 12.6 C 9.29 g/m*3 12.6 C 0 km/h
2308 20-03-2010 05:51:05 12.7 C 9.35 g/m*3 12.7 C 0 km/h
2309 20-03-2010 06:03:06 12.7 C 9.24 g/m*3 12.7 C 0 km/h
2310 20-03-2010 06:15:06 13.1 C 9.24 g/m*3 13.1 C 0 km/h
2311 20-03-2010 06:27:06 13.2 C 9.19 g/m*3 13.2 C 0 km/h
2312 20-03-2010 06:39:06 13.2 C 9.07 g/m*3 13.2 C 0 km/h
2313 20-03-2010 06:51:06 13.2 C 9.19 g/m*3 13.2 C 0 km/h
2314 20-03-2010 07:03:06 13.3 C 9.13 g/m*3 13.3 C 0 km/h
2315 20-03-2010 07:15:06 13.4 C 9.18 g/m*3 13.4 C 0 km/h
2316 20-03-2010 07:27:06 13.4 C 9.18 g/m*3 13.4 C 0 km/h
2317 20-03-2010 07:39:06 13.6 C 9.18 g/m*3 13.6 C 0 km/h
2318 20-03-2010 07:51:06 13.9 C 9.23 g/m*3 13.9 C 0 km/h
2319 20-03-2010 08:03:06 14 C 9.05 g/m*3 14 C 0 km/h
2320 20-03-2010 08:15:06 14.2 C 9.04 g/m*3 14.2 C 0 km/h
2321 20-03-2010 08:27:06 14.2 C 9.16 g/m*3 14.2 C 0 km/h
2322 20-03-2010 08:39:03 14.3 C 9.09 g/m*3 14.3 C 0 km/h
2323 20-03-2010 08:51:02 14.4 C 9.15 g/m*3 14.4 C 0 km/h
2324 20-03-2010 09:03:03 14.6 C 9.13 g/m*3 14.6 C 0 km/h
2325 20-03-2010 09:15:02 14.8 C 9.12 g/m*3 14.8 C 0 km/h
Sensor: Nr:Datum:Temp:Abs-Feuchte:Windchill:Wind:
Aussen-T/F 2326 20-03-2010 09:27:02 14.6 C 9.39 g/m*3 14.6 C 0 km/h
2327 20-03-2010 09:39:02 14.2 C 9.52 g/m*3 14.2 C 0 km/h
2328 20-03-2010 09:51:01 15 C 9.36 g/m*3 15 C 0 km/h
2329 20-03-2010 10:03:02 15.4 C 9.2 g/m*3 15.4 C 0 km/h
2330 20-03-2010 10:15:01 15.8 C 9.29 g/m*3 15.8 C 0 km/h
2331 20-03-2010 10:27:01 16.1 C 9.05 g/m*3 16.1 C 0 km/h
2332 20-03-2010 10:39:02 16.1 C 8.91 g/m*3 16.1 C 0 km/h
2333 20-03-2010 10:51:01 15.8 C 9.02 g/m*3 15.8 C 0 km/h
2334 20-03-2010 11:03:02 15.1 C 9.29 g/m*3 15.1 C 0 km/h
2335 20-03-2010 11:15:01 15.2 C 9.35 g/m*3 15.2 C 0 km/h
2336 20-03-2010 11:27:01 15.6 C 9.31 g/m*3 15.6 C 0 km/h
2337 20-03-2010 11:39:02 15.5 C 9.25 g/m*3 15.5 C 0 km/h
2338 20-03-2010 11:51:02 15.1 C 9.16 g/m*3 15.1 C 0 km/h
2339 20-03-2010 12:03:02 15.1 C 9.29 g/m*3 15.1 C 0 km/h
2340 20-03-2010 12:15:01 15.4 C 9.33 g/m*3 15.4 C 0 km/h
2341 20-03-2010 12:27:01 15.7 C 9.1 g/m*3 15.7 C 0 km/h
2342 20-03-2010 12:39:02 15.4 C 8.93 g/m*3 15.4 C 0 km/h
2343 20-03-2010 12:51:01 15.4 C 8.93 g/m*3 15.4 C 0 km/h
2344 20-03-2010 13:03:02 16.2 C 8.83 g/m*3 16.2 C 0 km/h
2345 20-03-2010 13:15:02 15.9 C 8.67 g/m*3 15.9 C 0 km/h
2346 20-03-2010 13:27:02 15.9 C 8.94 g/m*3 15.9 C 0 km/h
2347 20-03-2010 13:39:02 16 C 8.86 g/m*3 16 C 0 km/h
2348 20-03-2010 13:51:01 15.6 C 9.04 g/m*3 15.6 C 0 km/h
2349 20-03-2010 14:03:02 15.1 C 9.03 g/m*3 15.1 C 0 km/h
2350 20-03-2010 14:15:02 15 C 8.98 g/m*3 15 C 0 km/h
Sensor: Nr:Datum:Temp:Abs-Feuchte:Windchill:Wind:
Aussen-T/F 2351 20-03-2010 14:27:02 15.5 C 8.99 g/m*3 15.5 C 0 km/h
2352 20-03-2010 14:39:02 15.6 C 8.78 g/m*3 15.6 C 0 km/h
2353 20-03-2010 14:51:01 15.8 C 8.48 g/m*3 15.8 C 0 km/h
2354 20-03-2010 15:03:02 16.7 C 8.38 g/m*3 16.7 C 0 km/h
2355 20-03-2010 15:15:02 17 C 8.1 g/m*3 17 C 0 km/h
2356 20-03-2010 15:27:02 16.8 C 8.15 g/m*3 16.8 C 0 km/h
2357 20-03-2010 15:39:01 17 C 8.25 g/m*3 17 C 0 km/h
2358 20-03-2010 15:51:02 16.8 C 8.15 g/m*3 16.8 C 0 km/h
2359 20-03-2010 16:03:01 16.5 C 8 g/m*3 16.5 C 0 km/h
2360 20-03-2010 16:15:02 16.4 C 8.1 g/m*3 16.4 C 0 km/h
2361 20-03-2010 16:27:02 16.1 C 8.09 g/m*3 16.1 C 0 km/h
2362 20-03-2010 16:39:01 16 C 8.17 g/m*3 16 C 0 km/h
2363 20-03-2010 16:51:03 15.9 C 8.26 g/m*3 15.9 C 0 km/h
2364 20-03-2010 17:03:02 15.7 C 8.16 g/m*3 15.7 C 0 km/h
2365 20-03-2010 17:15:02 15.1 C 8.39 g/m*3 15.1 C 0 km/h
2366 20-03-2010 17:27:02 14.4 C 8.78 g/m*3 14.4 C 0 km/h
2367 20-03-2010 17:39:02 14.6 C 8.63 g/m*3 14.6 C 0 km/h
2368 20-03-2010 17:51:02 14.7 C 8.56 g/m*3 14.7 C 0 km/h
2369 20-03-2010 18:03:01 14.6 C 8.38 g/m*3 14.6 C 0 km/h
2370 20-03-2010 18:15:02 14.6 C 8.38 g/m*3 14.6 C 0 km/h
2371 20-03-2010 18:27:02 14.5 C 8.33 g/m*3 14.5 C 0 km/h
2372 20-03-2010 18:39:02 14.5 C 8.33 g/m*3 14.5 C 0 km/h
2373 20-03-2010 18:51:02 14.4 C 8.41 g/m*3 14.4 C 0 km/h
2374 20-03-2010 19:03:01 14.3 C 8.48 g/m*3 14.3 C 0 km/h
2375 20-03-2010 19:15:01 14.2 C 8.43 g/m*3 14.2 C 0 km/h
Sensor: Nr:Datum:Temp:Abs-Feuchte:Windchill:Wind:
Aussen-T/F 2376 20-03-2010 19:27:01 14.3 C 8.48 g/m*3 14.3 C 0 km/h
2377 20-03-2010 19:39:02 14.4 C 8.53 g/m*3 14.4 C 0 km/h
2378 20-03-2010 19:51:02 14.5 C 8.46 g/m*3 14.5 C 0 km/h
2379 20-03-2010 20:03:02 14.6 C 8.38 g/m*3 14.6 C 0 km/h
2380 20-03-2010 20:15:02 14.5 C 8.46 g/m*3 14.5 C 0 km/h
2381 20-03-2010 20:27:02 14.6 C 8.38 g/m*3 14.6 C 0 km/h
2382 20-03-2010 20:39:02 14.6 C 8.38 g/m*3 14.6 C 0 km/h
2383 20-03-2010 20:51:02 14.5 C 8.21 g/m*3 14.5 C 0 km/h
2384 20-03-2010 21:03:02 14.6 C 8.26 g/m*3 14.6 C 0 km/h
2385 20-03-2010 21:15:02 14.5 C 8.21 g/m*3 14.5 C 0 km/h
2386 20-03-2010 21:27:02 14.4 C 8.16 g/m*3 14.4 C 0 km/h
2387 20-03-2010 21:39:02 14.2 C 8.18 g/m*3 14.2 C 0 km/h
2388 20-03-2010 21:51:01 14.2 C 8.18 g/m*3 14.2 C 0 km/h
2389 20-03-2010 22:03:02 14.2 C 8.18 g/m*3 14.2 C 0 km/h
2390 20-03-2010 22:16:01 14.3 C 8.11 g/m*3 14.3 C 0 km/h
2391 20-03-2010 22:28:01 13.9 C 8.39 g/m*3 13.9 C 0 km/h
2392 20-03-2010 22:40:01 14.1 C 8.25 g/m*3 14.1 C 0 km/h
2393 20-03-2010 22:52:01 13.7 C 8.53 g/m*3 13.7 C 0 km/h
2394 20-03-2010 23:04:02 13 C 8.85 g/m*3 13 C 0 km/h
2395 20-03-2010 23:16:02 12.6 C 9.07 g/m*3 12.6 C 0 km/h
2396 20-03-2010 23:28:02 12.5 C 9.24 g/m*3 12.5 C 0 km/h
2397 20-03-2010 23:40:02 12.4 C 9.29 g/m*3 12.4 C 0 km/h
2398 20-03-2010 23:52:02 12.3 C 9.34 g/m*3 12.3 C 0 km/h
2399 21-03-2010 00:04:02 12.1 C 9.44 g/m*3 12.1 C 0 km/h
2400 21-03-2010 00:16:02 12 C 9.38 g/m*3 12 C 0 km/h
Sensor: Nr:Datum:Temp:Abs-Feuchte:Windchill:Wind:
Aussen-T/F 2401 21-03-2010 00:28:02 12.1 C 9.54 g/m*3 12.1 C 0 km/h
2402 21-03-2010 00:40:02 12.1 C 9.54 g/m*3 12.1 C 0 km/h
2403 21-03-2010 00:52:02 12.1 C 9.54 g/m*3 12.1 C 0 km/h
2404 21-03-2010 01:04:02 12 C 9.59 g/m*3 12 C 0 km/h
2405 21-03-2010 01:16:02 12 C 9.59 g/m*3 12 C 0 km/h
2406 21-03-2010 01:28:02 11.9 C 9.64 g/m*3 11.9 C 0 km/h
2407 21-03-2010 01:40:02 11.9 C 9.64 g/m*3 11.9 C 0 km/h
2408 21-03-2010 01:52:02 11.8 C 9.68 g/m*3 11.8 C 0 km/h
2409 21-03-2010 02:04:02 11.8 C 9.68 g/m*3 11.8 C 0 km/h
2410 21-03-2010 02:16:02 11.8 C 9.79 g/m*3 11.8 C 0 km/h
2411 21-03-2010 02:28:02 11.7 C 9.73 g/m*3 11.7 C 0 km/h
2412 21-03-2010 02:40:02 11.7 C 9.73 g/m*3 11.7 C 0 km/h
2413 21-03-2010 02:52:02 11.5 C 9.61 g/m*3 11.5 C 0 km/h
2414 21-03-2010 03:04:02 11.5 C 9.61 g/m*3 11.5 C 0 km/h
2415 21-03-2010 03:16:02 11.4 C 9.55 g/m*3 11.4 C 0 km/h
2416 21-03-2010 03:28:02 11.4 C 9.55 g/m*3 11.4 C 0 km/h
2417 21-03-2010 03:40:03 11.5 C 9.71 g/m*3 11.5 C 0 km/h
2418 21-03-2010 03:52:03 11.6 C 9.77 g/m*3 11.6 C 0 km/h
2419 21-03-2010 04:04:03 11.6 C 9.77 g/m*3 11.6 C 0 km/h
2420 21-03-2010 04:16:03 11.5 C 9.71 g/m*3 11.5 C 0 km/h
2421 21-03-2010 04:28:03 11.6 C 9.77 g/m*3 11.6 C 0 km/h
2422 21-03-2010 04:40:03 11.6 C 9.87 g/m*3 11.6 C 0 km/h
2423 21-03-2010 04:52:03 11.6 C 9.87 g/m*3 11.6 C 0 km/h
2424 21-03-2010 05:04:03 11.5 C 9.81 g/m*3 11.5 C 0 km/h
2425 21-03-2010 05:16:03 11.4 C 9.75 g/m*3 11.4 C 0 km/h
Sensor: Nr:Datum:Temp:Abs-Feuchte:Windchill:Wind:
Aussen-T/F 2426 21-03-2010 05:28:03 11.3 C 9.69 g/m*3 11.3 C 0 km/h
2427 21-03-2010 05:40:03 11.3 C 9.69 g/m*3 11.3 C 0 km/h
2428 21-03-2010 05:52:03 11.4 C 9.75 g/m*3 11.4 C 0 km/h
2429 21-03-2010 06:04:03 11.4 C 9.65 g/m*3 11.4 C 0 km/h
2430 21-03-2010 06:16:03 11.4 C 9.65 g/m*3 11.4 C 0 km/h
2431 21-03-2010 06:28:03 11.4 C 9.55 g/m*3 11.4 C 0 km/h
2432 21-03-2010 06:40:03 11.3 C 9.38 g/m*3 11.3 C 0 km/h
2433 21-03-2010 06:52:03 11.3 C 9.38 g/m*3 11.3 C 0 km/h
2434 21-03-2010 07:04:03 11.3 C 9.38 g/m*3 11.3 C 0 km/h
2435 21-03-2010 07:16:03 11.3 C 9.38 g/m*3 11.3 C 0 km/h
2436 21-03-2010 07:28:03 11.2 C 9.33 g/m*3 11.2 C 0 km/h
2437 21-03-2010 07:40:03 11.3 C 9.49 g/m*3 11.3 C 0 km/h
2438 21-03-2010 07:52:03 11.2 C 9.43 g/m*3 11.2 C 0 km/h
2439 21-03-2010 08:04:04 11.5 C 9.61 g/m*3 11.5 C 0 km/h
2440 21-03-2010 08:16:04 11.9 C 9.96 g/m*3 11.9 C 0 km/h
2441 21-03-2010 08:28:04 12.2 C 9.93 g/m*3 12.2 C 0 km/h
2442 21-03-2010 08:40:01 12.5 C 9.78 g/m*3 12.5 C 0 km/h
2443 21-03-2010 08:52:02 12.4 C 9.4 g/m*3 12.4 C 0 km/h
2444 21-03-2010 09:04:02 12.9 C 9.35 g/m*3 12.9 C 0 km/h
2445 21-03-2010 09:16:02 13.5 C 8.89 g/m*3 13.5 C 0 km/h
2446 21-03-2010 09:28:02 13.5 C 8.66 g/m*3 13.5 C 0 km/h
2447 21-03-2010 09:40:01 12.7 C 8.68 g/m*3 12.7 C 0 km/h
2448 21-03-2010 09:52:02 12.1 C 8.58 g/m*3 12.1 C 0 km/h
2449 21-03-2010 10:04:01 12.4 C 8.85 g/m*3 12.4 C 0 km/h
2450 21-03-2010 10:16:02 13 C 8.85 g/m*3 13 C 0 km/h
Sensor: Nr:Datum:Temp:Abs-Feuchte:Windchill:Wind:
Aussen-T/F 2451 21-03-2010 10:28:03 13.2 C 8.15 g/m*3 13.2 C 0 km/h
2452 21-03-2010 10:40:01 12.8 C 7.84 g/m*3 12.8 C 0 km/h
2453 21-03-2010 10:52:02 13.2 C 7.81 g/m*3 13.2 C 0 km/h
2454 21-03-2010 11:04:02 13.5 C 7.95 g/m*3 13.5 C 0 km/h
2455 21-03-2010 11:16:02 13.5 C 7.84 g/m*3 13.5 C 0 km/h
2456 21-03-2010 11:28:02 13.6 C 7.89 g/m*3 13.6 C 0 km/h
2457 21-03-2010 11:40:03 12.5 C 8.14 g/m*3 12.5 C 0 km/h
2458 21-03-2010 11:52:02 12.1 C 8.69 g/m*3 12.1 C 0 km/h
2459 21-03-2010 12:04:02 11.9 C 8.9 g/m*3 11.9 C 0 km/h
2460 21-03-2010 12:16:02 11.9 C 8.9 g/m*3 11.9 C 0 km/h
2461 21-03-2010 12:28:02 12.4 C 9.18 g/m*3 12.4 C 0 km/h
2462 21-03-2010 12:40:03 13.6 C 8.94 g/m*3 13.6 C 0 km/h
2463 21-03-2010 12:52:02 13.7 C 8.29 g/m*3 13.7 C 0 km/h
2464 21-03-2010 13:04:02 13.2 C 8.04 g/m*3 13.2 C 0 km/h
2465 21-03-2010 13:16:02 13 C 8.05 g/m*3 13 C 0 km/h
2466 21-03-2010 13:28:02 12.6 C 7.97 g/m*3 12.6 C 0 km/h
2467 21-03-2010 13:40:02 12.6 C 7.97 g/m*3 12.6 C 0 km/h
2468 21-03-2010 13:52:01 12.4 C 7.87 g/m*3 12.4 C 0 km/h
2469 21-03-2010 14:04:02 12.4 C 7.98 g/m*3 12.4 C 0 km/h
2470 21-03-2010 14:16:01 12.2 C 7.99 g/m*3 12.2 C 0 km/h
2471 21-03-2010 14:28:01 11.8 C 8.42 g/m*3 11.8 C 0 km/h
2472 21-03-2010 14:40:02 11.4 C 8.42 g/m*3 11.4 C 0 km/h
2473 21-03-2010 14:52:02 11.5 C 8.57 g/m*3 11.5 C 0 km/h
2474 21-03-2010 15:04:02 11.5 C 8.57 g/m*3 11.5 C 0 km/h
2475 21-03-2010 15:16:01 11.5 C 8.57 g/m*3 11.5 C 0 km/h
Sensor: Nr:Datum:Temp:Abs-Feuchte:Windchill:Wind:
Aussen-T/F 2476 21-03-2010 15:28:01 11.5 C 8.57 g/m*3 11.5 C 0 km/h
2477 21-03-2010 15:40:02 11.3 C 8.57 g/m*3 11.3 C 0 km/h
2478 21-03-2010 15:52:03 11.1 C 8.46 g/m*3 11.1 C 0 km/h
2479 21-03-2010 16:04:03 11.1 C 8.56 g/m*3 11.1 C 0 km/h
2480 21-03-2010 16:16:02 10.8 C 8.6 g/m*3 10.8 C 0 km/h
2481 21-03-2010 16:28:02 10.7 C 8.74 g/m*3 10.7 C 0 km/h
2482 21-03-2010 16:40:02 10.5 C 8.63 g/m*3 10.5 C 0 km/h
2483 21-03-2010 16:52:02 10.5 C 8.53 g/m*3 10.5 C 0 km/h
2484 21-03-2010 17:04:01 10.5 C 8.53 g/m*3 10.5 C 0 km/h
2485 21-03-2010 17:16:02 10.7 C 8.45 g/m*3 10.7 C 0 km/h
2486 21-03-2010 17:28:02 10.7 C 8.45 g/m*3 10.7 C 0 km/h
2487 21-03-2010 17:40:02 10.7 C 8.35 g/m*3 10.7 C 0 km/h
2488 21-03-2010 17:52:02 10.7 C 7.96 g/m*3 10.7 C 0 km/h
2489 21-03-2010 18:04:02 10.1 C 7.66 g/m*3 10.1 C 0 km/h
2490 21-03-2010 18:16:02 9.8 C 7.79 g/m*3 9.8 C 0 km/h
2491 21-03-2010 18:28:02 9.5 C 7.74 g/m*3 9.5 C 0 km/h
2492 21-03-2010 18:40:03 9.4 C 7.69 g/m*3 9.4 C 0 km/h
2493 21-03-2010 18:52:02 9.5 C 7.74 g/m*3 9.5 C 0 km/h
2494 21-03-2010 19:04:02 9.6 C 7.79 g/m*3 9.6 C 0 km/h
2495 21-03-2010 19:16:01 9.6 C 7.79 g/m*3 9.6 C 0 km/h
2496 21-03-2010 19:28:01 9.5 C 7.74 g/m*3 9.5 C 0 km/h
2497 21-03-2010 19:40:02 9.3 C 7.64 g/m*3 9.3 C 0 km/h
2498 21-03-2010 19:52:02 9.3 C 7.73 g/m*3 9.3 C 0 km/h
2499 21-03-2010 20:04:02 9.3 C 7.73 g/m*3 9.3 C 0 km/h
2500 21-03-2010 20:16:02 9.4 C 7.78 g/m*3 9.4 C 0 km/h
Sensor: Nr:Datum:Temp:Abs-Feuchte:Windchill:Wind:
Aussen-T/F 2501 21-03-2010 20:28:02 9.5 C 7.92 g/m*3 9.5 C 0 km/h
2502 21-03-2010 20:40:02 9.5 C 7.92 g/m*3 9.5 C 0 km/h
2503 21-03-2010 20:52:02 9.5 C 7.83 g/m*3 9.5 C 0 km/h
2504 21-03-2010 21:04:02 9.5 C 7.83 g/m*3 9.5 C 0 km/h
2505 21-03-2010 21:16:02 9.4 C 7.78 g/m*3 9.4 C 0 km/h
2506 21-03-2010 21:28:02 9.3 C 7.46 g/m*3 9.3 C 0 km/h
2507 21-03-2010 21:40:02 9.4 C 7.15 g/m*3 9.4 C 0 km/h
2508 21-03-2010 21:52:01 9.4 C 7.05 g/m*3 9.4 C 0 km/h
2509 21-03-2010 22:05:03 9.4 C 7.05 g/m*3 9.4 C 0 km/h
2510 21-03-2010 22:17:03 9.3 C 7.1 g/m*3 9.3 C 0 km/h
2511 21-03-2010 22:29:03 9.2 C 7.14 g/m*3 9.2 C 0 km/h
2512 21-03-2010 22:41:03 9.1 C 7.19 g/m*3 9.1 C 0 km/h
2513 21-03-2010 22:53:03 9.1 C 7.19 g/m*3 9.1 C 0 km/h
2514 21-03-2010 23:05:03 8.9 C 7.27 g/m*3 8.9 C 0 km/h
2515 21-03-2010 23:17:03 8.8 C 7.49 g/m*3 8.8 C 0 km/h
2516 21-03-2010 23:29:03 8.6 C 7.48 g/m*3 8.6 C 0 km/h
2517 21-03-2010 23:41:03 8.5 C 7.51 g/m*3 8.5 C 0 km/h
2518 21-03-2010 23:53:04 8.5 C 7.6 g/m*3 8.5 C 0 km/h
2519 22-03-2010 00:05:04 8.5 C 7.68 g/m*3 8.5 C 0 km/h
2520 22-03-2010 00:17:04 8.5 C 7.68 g/m*3 8.5 C 0 km/h
2521 22-03-2010 00:29:04 8.4 C 7.63 g/m*3 8.4 C 0 km/h
2522 22-03-2010 00:41:04 8.3 C 7.67 g/m*3 8.3 C 0 km/h
2523 22-03-2010 00:53:04 8.3 C 7.67 g/m*3 8.3 C 0 km/h
2524 22-03-2010 01:05:04 8.3 C 7.67 g/m*3 8.3 C 0 km/h
2525 22-03-2010 01:17:04 8.2 C 7.62 g/m*3 8.2 C 0 km/h
Sensor: Nr:Datum:Temp:Abs-Feuchte:Windchill:Wind:
Aussen-T/F 2526 22-03-2010 01:29:04 8.2 C 7.62 g/m*3 8.2 C 0 km/h
2527 22-03-2010 01:41:04 8.3 C 7.75 g/m*3 8.3 C 0 km/h
2528 22-03-2010 01:53:04 8.3 C 7.75 g/m*3 8.3 C 0 km/h
2529 22-03-2010 02:05:04 8.4 C 7.8 g/m*3 8.4 C 0 km/h
2530 22-03-2010 02:17:04 8.2 C 7.7 g/m*3 8.2 C 0 km/h
2531 22-03-2010 02:29:04 8.2 C 7.7 g/m*3 8.2 C 0 km/h
2532 22-03-2010 02:41:04 8.3 C 7.75 g/m*3 8.3 C 0 km/h
2533 22-03-2010 02:53:04 8.4 C 7.8 g/m*3 8.4 C 0 km/h
2534 22-03-2010 03:05:04 8.4 C 7.8 g/m*3 8.4 C 0 km/h
2535 22-03-2010 03:17:04 8.4 C 7.8 g/m*3 8.4 C 0 km/h
2536 22-03-2010 03:29:04 8.4 C 7.8 g/m*3 8.4 C 0 km/h
2537 22-03-2010 03:41:04 8.4 C 7.8 g/m*3 8.4 C 0 km/h
2538 22-03-2010 03:53:04 8.4 C 7.8 g/m*3 8.4 C 0 km/h
2539 22-03-2010 04:05:05 8.4 C 7.8 g/m*3 8.4 C 0 km/h
2540 22-03-2010 04:17:05 8.4 C 7.8 g/m*3 8.4 C 0 km/h
2541 22-03-2010 04:29:05 8.3 C 7.75 g/m*3 8.3 C 0 km/h
2542 22-03-2010 04:41:05 8.2 C 7.7 g/m*3 8.2 C 0 km/h
2543 22-03-2010 04:53:05 8.1 C 7.66 g/m*3 8.1 C 0 km/h
2544 22-03-2010 05:05:05 8.1 C 7.66 g/m*3 8.1 C 0 km/h
2545 22-03-2010 05:17:05 8.2 C 7.7 g/m*3 8.2 C 0 km/h
2546 22-03-2010 05:29:05 8.2 C 7.7 g/m*3 8.2 C 0 km/h
2547 22-03-2010 05:41:05 8.1 C 7.66 g/m*3 8.1 C 0 km/h
2548 22-03-2010 05:53:01 8.1 C 7.66 g/m*3 8.1 C 0 km/h
2549 22-03-2010 06:05:01 8.2 C 7.7 g/m*3 8.2 C 0 km/h
2550 22-03-2010 06:17:02 8.2 C 7.7 g/m*3 8.2 C 0 km/h
Sensor: Nr:Datum:Temp:Abs-Feuchte:Windchill:Wind:
Aussen-T/F 2551 22-03-2010 06:29:02 8.2 C 7.7 g/m*3 8.2 C 0 km/h
2552 22-03-2010 06:41:01 8.1 C 7.66 g/m*3 8.1 C 0 km/h
2553 22-03-2010 06:53:02 8.1 C 7.66 g/m*3 8.1 C 0 km/h
2554 22-03-2010 07:05:01 8.2 C 7.7 g/m*3 8.2 C 0 km/h
2555 22-03-2010 07:17:02 8.2 C 7.7 g/m*3 8.2 C 0 km/h
2556 22-03-2010 07:29:02 8.3 C 7.84 g/m*3 8.3 C 0 km/h
2557 22-03-2010 07:41:01 8.4 C 7.89 g/m*3 8.4 C 0 km/h
2558 22-03-2010 07:53:01 8.5 C 7.94 g/m*3 8.5 C 0 km/h
2559 22-03-2010 08:05:01 8.6 C 7.99 g/m*3 8.6 C 0 km/h
2560 22-03-2010 08:17:02 8.8 C 8.09 g/m*3 8.8 C 0 km/h
2561 22-03-2010 08:29:02 8.8 C 8.01 g/m*3 8.8 C 0 km/h
2562 22-03-2010 08:41:01 8.9 C 8.06 g/m*3 8.9 C 0 km/h
2563 22-03-2010 08:53:02 8.9 C 8.06 g/m*3 8.9 C 0 km/h
2564 22-03-2010 09:05:01 8.9 C 7.97 g/m*3 8.9 C 0 km/h
2565 22-03-2010 09:17:02 9 C 7.93 g/m*3 9 C 0 km/h
2566 22-03-2010 09:29:02 9 C 7.93 g/m*3 9 C 0 km/h
2567 22-03-2010 09:41:02 9.2 C 7.95 g/m*3 9.2 C 0 km/h
2568 22-03-2010 09:53:02 9.3 C 8 g/m*3 9.3 C 0 km/h
2569 22-03-2010 10:05:03 9.6 C 8.06 g/m*3 9.6 C 0 km/h
2570 22-03-2010 10:17:02 10 C 8.08 g/m*3 10 C 0 km/h
2571 22-03-2010 10:29:02 9.9 C 8.03 g/m*3 9.9 C 0 km/h
2572 22-03-2010 10:41:02 9.5 C 7.65 g/m*3 9.5 C 0 km/h
2573 22-03-2010 10:53:02 9.4 C 7.69 g/m*3 9.4 C 0 km/h
2574 22-03-2010 11:05:02 9.5 C 7.92 g/m*3 9.5 C 0 km/h
2575 22-03-2010 11:17:01 9.5 C 7.92 g/m*3 9.5 C 0 km/h
Sensor: Nr:Datum:Temp:Abs-Feuchte:Windchill:Wind:
Aussen-T/F 2576 22-03-2010 11:29:01 9.5 C 7.83 g/m*3 9.5 C 0 km/h
2577 22-03-2010 11:41:02 9.7 C 7.74 g/m*3 9.7 C 0 km/h
2578 22-03-2010 11:53:02 10.2 C 7.8 g/m*3 10.2 C 0 km/h
2579 22-03-2010 12:05:02 10.6 C 7.81 g/m*3 10.6 C 0 km/h
2580 22-03-2010 12:17:01 10.7 C 7.76 g/m*3 10.7 C 0 km/h
2581 22-03-2010 12:29:01 11 C 7.61 g/m*3 11 C 0 km/h
2582 22-03-2010 12:41:02 11.1 C 7.45 g/m*3 11.1 C 0 km/h
2583 22-03-2010 12:53:02 11.4 C 7.39 g/m*3 11.4 C 0 km/h
2584 22-03-2010 13:05:02 11.5 C 7.23 g/m*3 11.5 C 0 km/h
2585 22-03-2010 13:17:01 12.1 C 7.18 g/m*3 12.1 C 0 km/h
2586 22-03-2010 13:29:01 12.4 C 6.66 g/m*3 12.4 C 0 km/h
2587 22-03-2010 13:41:02 12.6 C 6.42 g/m*3 12.6 C 0 km/h
2588 22-03-2010 13:53:01 12.6 C 6.31 g/m*3 12.6 C 0 km/h
2589 22-03-2010 14:05:02 13.3 C 6.47 g/m*3 13.3 C 0 km/h
2590 22-03-2010 14:17:02 14.2 C 6.11 g/m*3 14.2 C 0 km/h
2591 22-03-2010 14:29:02 14.2 C 5.86 g/m*3 14.2 C 0 km/h
2592 22-03-2010 14:41:02 14.5 C 5.72 g/m*3 14.5 C 0 km/h
2593 22-03-2010 14:53:01 14.6 C 5.51 g/m*3 14.6 C 0 km/h
2594 22-03-2010 15:05:02 14.2 C 5.49 g/m*3 14.2 C 0 km/h
2595 22-03-2010 15:17:02 14 C 5.43 g/m*3 14 C 0 km/h
2596 22-03-2010 15:29:02 14 C 5.31 g/m*3 14 C 0 km/h
2597 22-03-2010 15:41:01 14.6 C 5.51 g/m*3 14.6 C 0 km/h
2598 22-03-2010 15:53:02 14.9 C 5.23 g/m*3 14.9 C 0 km/h
2599 22-03-2010 16:05:01 14.4 C 5.07 g/m*3 14.4 C 0 km/h
2600 22-03-2010 16:17:02 14.3 C 5.28 g/m*3 14.3 C 0 km/h
Sensor: Nr:Datum:Temp:Abs-Feuchte:Windchill:Wind:
Aussen-T/F 2601 22-03-2010 16:29:02 14.5 C 5.1 g/m*3 14.5 C 0 km/h
2602 22-03-2010 16:41:01 15.2 C 5.32 g/m*3 15.2 C 0 km/h
2603 22-03-2010 16:53:03 15.2 C 5.45 g/m*3 15.2 C 0 km/h
2604 22-03-2010 17:05:02 14.9 C 5.35 g/m*3 14.9 C 0 km/h
2605 22-03-2010 17:17:02 14.2 C 5.01 g/m*3 14.2 C 0 km/h
2606 22-03-2010 17:29:02 13.9 C 4.8 g/m*3 13.9 C 0 km/h
2607 22-03-2010 17:41:02 13.4 C 4.77 g/m*3 13.4 C 0 km/h
2608 22-03-2010 17:53:02 13.2 C 4.82 g/m*3 13.2 C 0 km/h
2609 22-03-2010 18:05:01 13 C 4.88 g/m*3 13 C 0 km/h
2610 22-03-2010 18:17:02 12.9 C 5.3 g/m*3 12.9 C 0 km/h
2611 22-03-2010 18:29:02 12.4 C 5.35 g/m*3 12.4 C 0 km/h
2612 22-03-2010 18:41:02 11.8 C 5.58 g/m*3 11.8 C 0 km/h
2613 22-03-2010 18:53:02 11.3 C 5.61 g/m*3 11.3 C 0 km/h
2614 22-03-2010 19:05:01 10.5 C 5.72 g/m*3 10.5 C 0 km/h
2615 22-03-2010 19:17:01 10 C 5.64 g/m*3 10 C 0 km/h
2616 22-03-2010 19:29:01 9.7 C 5.72 g/m*3 9.7 C 0 km/h
2617 22-03-2010 19:41:02 9.5 C 5.83 g/m*3 9.5 C 0 km/h
2618 22-03-2010 19:53:02 9.2 C 5.8 g/m*3 9.2 C 0 km/h
2619 22-03-2010 20:05:02 9 C 5.99 g/m*3 9 C 0 km/h
2620 22-03-2010 20:17:02 8.7 C 6.14 g/m*3 8.7 C 0 km/h
2621 22-03-2010 20:29:02 8.7 C 6.23 g/m*3 8.7 C 0 km/h
2622 22-03-2010 20:41:02 8.5 C 6.15 g/m*3 8.5 C 0 km/h
2623 22-03-2010 20:53:02 8.3 C 6.07 g/m*3 8.3 C 0 km/h
2624 22-03-2010 21:05:02 8.1 C 6.07 g/m*3 8.1 C 0 km/h
2625 22-03-2010 21:17:02 7.8 C 6.12 g/m*3 7.8 C 0 km/h
Sensor: Nr:Datum:Temp:Abs-Feuchte:Windchill:Wind:
Aussen-T/F 2626 22-03-2010 21:29:02 7.4 C 6.04 g/m*3 7.4 C 0 km/h
2627 22-03-2010 21:41:02 7.3 C 6.08 g/m*3 7.3 C 0 km/h
2628 22-03-2010 21:53:02 7.1 C 6.08 g/m*3 7.1 C 0 km/h
2629 22-03-2010 22:05:02 6.9 C 6.08 g/m*3 6.9 C 0 km/h
2630 22-03-2010 22:17:02 6.6 C 5.96 g/m*3 6.6 C 0 km/h
2631 22-03-2010 22:29:02 6.5 C 6 g/m*3 6.5 C 0 km/h
2632 22-03-2010 22:41:02 6.2 C 5.88 g/m*3 6.2 C 0 km/h
2633 22-03-2010 22:54:02 6 C 5.88 g/m*3 6 C 0 km/h
2634 22-03-2010 23:06:02 6 C 5.95 g/m*3 6 C 0 km/h
2635 22-03-2010 23:18:03 5.7 C 5.91 g/m*3 5.7 C 0 km/h
2636 22-03-2010 23:30:03 5.6 C 5.87 g/m*3 5.6 C 0 km/h
2637 22-03-2010 23:42:03 5.6 C 5.94 g/m*3 5.6 C 0 km/h
2638 22-03-2010 23:54:03 5.4 C 5.86 g/m*3 5.4 C 0 km/h
2639 23-03-2010 00:06:03 5.2 C 5.78 g/m*3 5.2 C 0 km/h
2640 23-03-2010 00:18:03 5 C 5.78 g/m*3 5 C 0 km/h
2641 23-03-2010 00:30:03 5 C 5.78 g/m*3 5 C 0 km/h
2642 23-03-2010 00:42:03 4.8 C 5.83 g/m*3 4.8 C 0 km/h
2643 23-03-2010 00:54:03 4.6 C 5.76 g/m*3 4.6 C 0 km/h
2644 23-03-2010 01:06:03 4.4 C 5.68 g/m*3 4.4 C 0 km/h
2645 23-03-2010 01:18:03 4.3 C 5.64 g/m*3 4.3 C 0 km/h
2646 23-03-2010 01:30:03 4.3 C 5.71 g/m*3 4.3 C 0 km/h
2647 23-03-2010 01:42:03 4.2 C 5.67 g/m*3 4.2 C 0 km/h
2648 23-03-2010 01:54:03 4.1 C 5.63 g/m*3 4.1 C 0 km/h
2649 23-03-2010 02:06:03 4 C 5.59 g/m*3 4 C 0 km/h
2650 23-03-2010 02:18:03 3.9 C 5.62 g/m*3 3.9 C 0 km/h
Sensor: Nr:Datum:Temp:Abs-Feuchte:Windchill:Wind:
Aussen-T/F 2651 23-03-2010 02:30:03 3.7 C 5.55 g/m*3 3.7 C 0 km/h
2652 23-03-2010 02:42:03 3.6 C 5.57 g/m*3 3.6 C 0 km/h
2653 23-03-2010 02:54:03 3.5 C 5.53 g/m*3 3.5 C 0 km/h
2654 23-03-2010 03:06:03 3.4 C 5.56 g/m*3 3.4 C 0 km/h
2655 23-03-2010 03:18:04 3.3 C 5.52 g/m*3 3.3 C 0 km/h
2656 23-03-2010 03:30:04 3.2 C 5.48 g/m*3 3.2 C 0 km/h
2657 23-03-2010 03:42:04 3.1 C 5.45 g/m*3 3.1 C 0 km/h
2658 23-03-2010 03:54:04 2.9 C 5.43 g/m*3 2.9 C 0 km/h
2659 23-03-2010 04:06:04 2.9 C 5.43 g/m*3 2.9 C 0 km/h
2660 23-03-2010 04:18:04 2.7 C 5.3 g/m*3 2.7 C 0 km/h
2661 23-03-2010 04:30:04 2.6 C 5.27 g/m*3 2.6 C 0 km/h
2662 23-03-2010 04:42:04 2.5 C 5.29 g/m*3 2.5 C 0 km/h
2663 23-03-2010 04:54:04 2.4 C 5.25 g/m*3 2.4 C 0 km/h
2664 23-03-2010 05:06:04 2.4 C 5.25 g/m*3 2.4 C 0 km/h
2665 23-03-2010 05:18:04 2.4 C 5.25 g/m*3 2.4 C 0 km/h
2666 23-03-2010 05:30:04 2.3 C 5.22 g/m*3 2.3 C 0 km/h
2667 23-03-2010 05:42:04 2.2 C 5.24 g/m*3 2.2 C 0 km/h
2668 23-03-2010 05:54:04 2.1 C 5.2 g/m*3 2.1 C 0 km/h
2669 23-03-2010 06:06:04 2.1 C 5.2 g/m*3 2.1 C 0 km/h
2670 23-03-2010 06:18:04 2.1 C 5.2 g/m*3 2.1 C 0 km/h
2671 23-03-2010 06:30:04 2.2 C 5.24 g/m*3 2.2 C 0 km/h
2672 23-03-2010 06:42:04 2.4 C 5.31 g/m*3 2.4 C 0 km/h
2673 23-03-2010 06:54:04 2.7 C 5.48 g/m*3 2.7 C 0 km/h
2674 23-03-2010 07:06:02 2.7 C 5.48 g/m*3 2.7 C 0 km/h
2675 23-03-2010 07:18:02 2.6 C 5.44 g/m*3 2.6 C 0 km/h
Sensor: Nr:Datum:Temp:Abs-Feuchte:Windchill:Wind:
Aussen-T/F 2676 23-03-2010 07:30:02 2.7 C 5.48 g/m*3 2.7 C 0 km/h
2677 23-03-2010 07:42:02 2.9 C 5.55 g/m*3 2.9 C 0 km/h
2678 23-03-2010 07:54:02 3.4 C 5.74 g/m*3 3.4 C 0 km/h
2679 23-03-2010 08:06:02 3.6 C 5.82 g/m*3 3.6 C 0 km/h
2680 23-03-2010 08:18:01 3.8 C 5.83 g/m*3 3.8 C 0 km/h
2681 23-03-2010 08:30:01 3.9 C 5.87 g/m*3 3.9 C 0 km/h
2682 23-03-2010 08:42:02 4.1 C 5.95 g/m*3 4.1 C 0 km/h
2683 23-03-2010 08:54:02 4.4 C 6.07 g/m*3 4.4 C 0 km/h
2684 23-03-2010 09:06:01 4.8 C 6.24 g/m*3 4.8 C 0 km/h
2685 23-03-2010 09:18:02 5.3 C 6.45 g/m*3 5.3 C 0 km/h
2686 23-03-2010 09:30:02 5.9 C 6.71 g/m*3 5.9 C 0 km/h
2687 23-03-2010 09:42:01 6.7 C 6.99 g/m*3 6.7 C 0 km/h
2688 23-03-2010 09:54:03 7.3 C 6.95 g/m*3 7.3 C 0 km/h
2689 23-03-2010 10:06:02 7.9 C 7.06 g/m*3 7.9 C 0 km/h
2690 23-03-2010 10:18:02 8.4 C 6.96 g/m*3 8.4 C 0 km/h
2691 23-03-2010 10:30:03 8.9 C 6.75 g/m*3 8.9 C 0 km/h
2692 23-03-2010 10:42:02 9.3 C 6.56 g/m*3 9.3 C 0 km/h
2693 23-03-2010 10:54:02 9.8 C 6.59 g/m*3 9.8 C 0 km/h
2694 23-03-2010 11:06:01 10.3 C 6.61 g/m*3 10.3 C 0 km/h
2695 23-03-2010 11:18:02 11.2 C 6.49 g/m*3 11.2 C 0 km/h
2696 23-03-2010 11:30:02 11.8 C 6.42 g/m*3 11.8 C 0 km/h
2697 23-03-2010 11:42:02 12.3 C 6.08 g/m*3 12.3 C 0 km/h
2698 23-03-2010 11:54:02 12.8 C 5.94 g/m*3 12.8 C 0 km/h
2699 23-03-2010 12:06:01 13.3 C 5.89 g/m*3 13.3 C 0 km/h
2700 23-03-2010 12:18:01 13.7 C 5.92 g/m*3 13.7 C 0 km/h
Sensor: Nr:Datum:Temp:Abs-Feuchte:Windchill:Wind:
Aussen-T/F 2701 23-03-2010 12:30:01 14 C 5.67 g/m*3 14 C 0 km/h
2702 23-03-2010 12:42:02 13.9 C 5.87 g/m*3 13.9 C 0 km/h
2703 23-03-2010 12:54:02 14.4 C 5.56 g/m*3 14.4 C 0 km/h
2704 23-03-2010 13:06:02 14.9 C 5.23 g/m*3 14.9 C 0 km/h
2705 23-03-2010 13:18:02 15 C 5.13 g/m*3 15 C 0 km/h
2706 23-03-2010 13:30:02 15.6 C 5.59 g/m*3 15.6 C 0 km/h
2707 23-03-2010 13:42:02 16.1 C 5.35 g/m*3 16.1 C 0 km/h
2708 23-03-2010 13:54:01 16 C 5.31 g/m*3 16 C 0 km/h
2709 23-03-2010 14:06:02 16.4 C 5.44 g/m*3 16.4 C 0 km/h
2710 23-03-2010 14:18:01 16.8 C 5.43 g/m*3 16.8 C 0 km/h
2711 23-03-2010 14:30:01 16.9 C 5.32 g/m*3 16.9 C 0 km/h
2712 23-03-2010 14:42:01 17.2 C 5.27 g/m*3 17.2 C 0 km/h
2713 23-03-2010 14:54:02 16.6 C 5.09 g/m*3 16.6 C 0 km/h
2714 23-03-2010 15:06:02 17.1 C 5.24 g/m*3 17.1 C 0 km/h
2715 23-03-2010 15:18:01 17.3 C 5.01 g/m*3 17.3 C 0 km/h
2716 23-03-2010 15:30:01 17.2 C 5.13 g/m*3 17.2 C 0 km/h
2717 23-03-2010 15:42:02 17.1 C 4.8 g/m*3 17.1 C 0 km/h
2718 23-03-2010 15:54:02 17.4 C 5.19 g/m*3 17.4 C 0 km/h
2719 23-03-2010 16:06:02 17.3 C 5.16 g/m*3 17.3 C 0 km/h
2720 23-03-2010 16:18:01 16.7 C 5.12 g/m*3 16.7 C 0 km/h
2721 23-03-2010 16:30:01 16.3 C 5.13 g/m*3 16.3 C 0 km/h
2722 23-03-2010 16:42:02 16.3 C 5.13 g/m*3 16.3 C 0 km/h
2723 23-03-2010 16:54:02 16.1 C 5.35 g/m*3 16.1 C 0 km/h
2724 23-03-2010 17:06:02 16.2 C 5.38 g/m*3 16.2 C 0 km/h
2725 23-03-2010 17:18:01 16.5 C 5.34 g/m*3 16.5 C 0 km/h
Sensor: Nr:Datum:Temp:Abs-Feuchte:Windchill:Wind:
Aussen-T/F 2726 23-03-2010 17:30:01 15.8 C 5.38 g/m*3 15.8 C 0 km/h
2727 23-03-2010 17:42:02 15.2 C 5.32 g/m*3 15.2 C 0 km/h
2728 23-03-2010 17:54:02 14.8 C 5.45 g/m*3 14.8 C 0 km/h
2729 23-03-2010 18:06:02 14.6 C 5.63 g/m*3 14.6 C 0 km/h
2730 23-03-2010 18:18:02 14.2 C 5.62 g/m*3 14.2 C 0 km/h
2731 23-03-2010 18:30:02 13.9 C 5.87 g/m*3 13.9 C 0 km/h
2732 23-03-2010 18:42:02 13.5 C 6.08 g/m*3 13.5 C 0 km/h
2733 23-03-2010 18:54:01 12.8 C 6.27 g/m*3 12.8 C 0 km/h
2734 23-03-2010 19:06:02 12.1 C 6.22 g/m*3 12.1 C 0 km/h
2735 23-03-2010 19:18:02 11.7 C 6.28 g/m*3 11.7 C 0 km/h
2736 23-03-2010 19:30:02 11.4 C 6.26 g/m*3 11.4 C 0 km/h
2737 23-03-2010 19:42:02 11.2 C 6.18 g/m*3 11.2 C 0 km/h
2738 23-03-2010 19:54:02 10.8 C 6.23 g/m*3 10.8 C 0 km/h
2739 23-03-2010 20:06:01 10.6 C 6.15 g/m*3 10.6 C 0 km/h
2740 23-03-2010 20:18:02 10.4 C 6.17 g/m*3 10.4 C 0 km/h
2741 23-03-2010 20:30:02 10.4 C 6.07 g/m*3 10.4 C 0 km/h
2742 23-03-2010 20:42:01 10.3 C 6.03 g/m*3 10.3 C 0 km/h
2743 23-03-2010 20:54:02 10.2 C 6.09 g/m*3 10.2 C 0 km/h
2744 23-03-2010 21:06:01 10 C 6.11 g/m*3 10 C 0 km/h
2745 23-03-2010 21:18:01 9.8 C 6.12 g/m*3 9.8 C 0 km/h
2746 23-03-2010 21:30:01 9.6 C 6.23 g/m*3 9.6 C 0 km/h
2747 23-03-2010 21:42:01 9.5 C 6.28 g/m*3 9.5 C 0 km/h
2748 23-03-2010 21:54:02 9.4 C 6.24 g/m*3 9.4 C 0 km/h
2749 23-03-2010 22:06:02 9.2 C 6.25 g/m*3 9.2 C 0 km/h
2750 23-03-2010 22:18:02 9 C 6.26 g/m*3 9 C 0 km/h
Sensor: Nr:Datum:Temp:Abs-Feuchte:Windchill:Wind:
Aussen-T/F 2751 23-03-2010 22:30:02 8.7 C 6.23 g/m*3 8.7 C 0 km/h
2752 23-03-2010 22:42:02 8.6 C 6.27 g/m*3 8.6 C 0 km/h
2753 23-03-2010 22:54:02 8.5 C 6.32 g/m*3 8.5 C 0 km/h
2754 23-03-2010 23:06:02 8.4 C 6.28 g/m*3 8.4 C 0 km/h
2755 23-03-2010 23:18:02 8.3 C 6.24 g/m*3 8.3 C 0 km/h
2756 23-03-2010 23:30:02 8.2 C 6.2 g/m*3 8.2 C 0 km/h
2757 23-03-2010 23:42:02 8.1 C 6.24 g/m*3 8.1 C 0 km/h
2758 23-03-2010 23:54:01 8 C 6.2 g/m*3 8 C 0 km/h
2759 24-03-2010 00:06:01 7.9 C 6.24 g/m*3 7.9 C 0 km/h
2760 24-03-2010 00:18:01 7.8 C 6.28 g/m*3 7.8 C 0 km/h
2761 24-03-2010 00:30:01 7.7 C 6.24 g/m*3 7.7 C 0 km/h
2762 24-03-2010 00:42:02 7.6 C 6.2 g/m*3 7.6 C 0 km/h
2763 24-03-2010 00:54:01 7.5 C 6.16 g/m*3 7.5 C 0 km/h
2764 24-03-2010 01:06:02 7.5 C 6.24 g/m*3 7.5 C 0 km/h
2765 24-03-2010 01:18:01 7.5 C 6.24 g/m*3 7.5 C 0 km/h
2766 24-03-2010 01:30:01 7.3 C 6.16 g/m*3 7.3 C 0 km/h
2767 24-03-2010 01:42:02 7.1 C 6.08 g/m*3 7.1 C 0 km/h
2768 24-03-2010 01:54:02 6.9 C 6.08 g/m*3 6.9 C 0 km/h
2769 24-03-2010 02:06:02 6.8 C 6.12 g/m*3 6.8 C 0 km/h
2770 24-03-2010 02:18:01 6.7 C 6.15 g/m*3 6.7 C 0 km/h
2771 24-03-2010 02:30:01 6.6 C 6.11 g/m*3 6.6 C 0 km/h
2772 24-03-2010 02:42:02 6.4 C 6.04 g/m*3 6.4 C 0 km/h
2773 24-03-2010 02:55:04 6.2 C 5.96 g/m*3 6.2 C 0 km/h
2774 24-03-2010 03:07:04 6.2 C 6.03 g/m*3 6.2 C 0 km/h
2775 24-03-2010 03:19:04 6.1 C 5.99 g/m*3 6.1 C 0 km/h
Sensor: Nr:Datum:Temp:Abs-Feuchte:Windchill:Wind:
Aussen-T/F 2776 24-03-2010 03:31:02 5.8 C 5.95 g/m*3 5.8 C 0 km/h
2777 24-03-2010 03:43:02 5.6 C 5.87 g/m*3 5.6 C 0 km/h
2778 24-03-2010 03:55:02 5.7 C 5.98 g/m*3 5.7 C 0 km/h
2779 24-03-2010 04:07:03 5.6 C 5.94 g/m*3 5.6 C 0 km/h
2780 24-03-2010 04:19:02 5.3 C 5.82 g/m*3 5.3 C 0 km/h
2781 24-03-2010 04:31:02 5.3 C 5.82 g/m*3 5.3 C 0 km/h
2782 24-03-2010 04:43:02 5.2 C 5.85 g/m*3 5.2 C 0 km/h
2783 24-03-2010 04:55:01 5.1 C 5.81 g/m*3 5.1 C 0 km/h
2784 24-03-2010 05:07:02 4.9 C 5.81 g/m*3 4.9 C 0 km/h
2785 24-03-2010 05:19:01 5 C 5.84 g/m*3 5 C 0 km/h
2786 24-03-2010 05:31:01 5 C 5.84 g/m*3 5 C 0 km/h
2787 24-03-2010 05:43:01 4.7 C 5.8 g/m*3 4.7 C 0 km/h
2788 24-03-2010 05:55:01 4.5 C 5.72 g/m*3 4.5 C 0 km/h
2789 24-03-2010 06:07:02 4.4 C 5.68 g/m*3 4.4 C 0 km/h
2790 24-03-2010 06:19:01 4.4 C 5.68 g/m*3 4.4 C 0 km/h
2791 24-03-2010 06:31:01 4.4 C 5.75 g/m*3 4.4 C 0 km/h
2792 24-03-2010 06:43:01 4.3 C 5.71 g/m*3 4.3 C 0 km/h
2793 24-03-2010 06:55:01 4.3 C 5.71 g/m*3 4.3 C 0 km/h
2794 24-03-2010 07:07:01 4.4 C 5.81 g/m*3 4.4 C 0 km/h
2795 24-03-2010 07:19:02 4.4 C 5.81 g/m*3 4.4 C 0 km/h
2796 24-03-2010 07:31:01 4.6 C 5.89 g/m*3 4.6 C 0 km/h
2797 24-03-2010 07:43:01 4.9 C 6.01 g/m*3 4.9 C 0 km/h
2798 24-03-2010 07:55:03 5.2 C 6.06 g/m*3 5.2 C 0 km/h
2799 24-03-2010 08:07:02 5.3 C 6.1 g/m*3 5.3 C 0 km/h
2800 24-03-2010 08:19:02 5.4 C 6.07 g/m*3 5.4 C 0 km/h
Sensor: Nr:Datum:Temp:Abs-Feuchte:Windchill:Wind:
Aussen-T/F 2801 24-03-2010 08:31:02 5.7 C 6.19 g/m*3 5.7 C 0 km/h
2802 24-03-2010 08:43:02 5.7 C 6.12 g/m*3 5.7 C 0 km/h
2803 24-03-2010 08:55:02 5.8 C 6.16 g/m*3 5.8 C 0 km/h
2804 24-03-2010 09:07:01 6.1 C 6.21 g/m*3 6.1 C 0 km/h
2805 24-03-2010 09:19:02 6.7 C 6.46 g/m*3 6.7 C 0 km/h
2806 24-03-2010 09:31:01 7.2 C 6.44 g/m*3 7.2 C 0 km/h
2807 24-03-2010 09:43:01 7.8 C 6.69 g/m*3 7.8 C 0 km/h
2808 24-03-2010 09:55:02 8.4 C 6.53 g/m*3 8.4 C 0 km/h
2809 24-03-2010 10:07:01 9.2 C 6.79 g/m*3 9.2 C 0 km/h
2810 24-03-2010 10:19:01 10.2 C 6.95 g/m*3 10.2 C 0 km/h
2811 24-03-2010 10:31:02 10.9 C 6.76 g/m*3 10.9 C 0 km/h
2812 24-03-2010 10:43:02 11.7 C 6.48 g/m*3 11.7 C 0 km/h
2813 24-03-2010 10:55:02 12.7 C 6.46 g/m*3 12.7 C 0 km/h
2814 24-03-2010 11:07:01 13.1 C 5.71 g/m*3 13.1 C 0 km/h
2815 24-03-2010 11:19:02 13.8 C 5.6 g/m*3 13.8 C 0 km/h
2816 24-03-2010 11:31:02 14.4 C 5.44 g/m*3 14.4 C 0 km/h
2817 24-03-2010 11:43:02 14.9 C 5.23 g/m*3 14.9 C 0 km/h
2818 24-03-2010 11:55:02 15.5 C 5.29 g/m*3 15.5 C 0 km/h
2819 24-03-2010 12:07:02 16.1 C 5.21 g/m*3 16.1 C 0 km/h
2820 24-03-2010 12:19:02 16.7 C 5.26 g/m*3 16.7 C 0 km/h
2821 24-03-2010 12:31:02 17.2 C 5.27 g/m*3 17.2 C 0 km/h
2822 24-03-2010 12:43:02 17.6 C 5.1 g/m*3 17.6 C 0 km/h
2823 24-03-2010 12:55:02 18.4 C 4.88 g/m*3 18.4 C 0 km/h
2824 24-03-2010 13:07:03 18.7 C 4.8 g/m*3 18.7 C 0 km/h
2825 24-03-2010 13:19:02 19 C 5.05 g/m*3 19 C 0 km/h
Sensor: Nr:Datum:Temp:Abs-Feuchte:Windchill:Wind:
Aussen-T/F 2826 24-03-2010 13:31:02 19.5 C 5.2 g/m*3 19.5 C 0 km/h
2827 24-03-2010 13:43:02 19.9 C 4.98 g/m*3 19.9 C 0 km/h
2828 24-03-2010 13:55:01 20.3 C 4.75 g/m*3 20.3 C 0 km/h
2829 24-03-2010 14:07:02 20.8 C 4.71 g/m*3 20.8 C 0 km/h
2830 24-03-2010 14:19:01 21.6 C 4.74 g/m*3 21.6 C 0 km/h
2831 24-03-2010 14:31:01 21.6 C 4.36 g/m*3 21.6 C 0 km/h
2832 24-03-2010 14:43:01 21.5 C 4.34 g/m*3 21.5 C 0 km/h
2833 24-03-2010 14:55:01 21.8 C 4.41 g/m*3 21.8 C 0 km/h
2834 24-03-2010 15:07:02 22 C 4.27 g/m*3 22 C 0 km/h
2835 24-03-2010 15:19:01 22 C 4.27 g/m*3 22 C 0 km/h
2836 24-03-2010 15:31:01 22.3 C 4.34 g/m*3 22.3 C 0 km/h
2837 24-03-2010 15:43:01 23 C 4.52 g/m*3 23 C 0 km/h
2838 24-03-2010 15:55:01 21.9 C 4.44 g/m*3 21.9 C 0 km/h
2839 24-03-2010 16:07:02 21.4 C 4.5 g/m*3 21.4 C 0 km/h
2840 24-03-2010 16:19:02 21 C 4.58 g/m*3 21 C 0 km/h
2841 24-03-2010 16:31:01 21.1 C 4.79 g/m*3 21.1 C 0 km/h
2842 24-03-2010 16:43:01 20.3 C 4.92 g/m*3 20.3 C 0 km/h
2843 24-03-2010 16:55:01 20.4 C 5.13 g/m*3 20.4 C 0 km/h
2844 24-03-2010 17:07:01 20.4 C 5.31 g/m*3 20.4 C 0 km/h
2845 24-03-2010 17:19:02 20 C 5.18 g/m*3 20 C 0 km/h
2846 24-03-2010 17:31:01 19.8 C 5.47 g/m*3 19.8 C 0 km/h
2847 24-03-2010 17:43:01 19.5 C 5.37 g/m*3 19.5 C 0 km/h
2848 24-03-2010 17:55:02 19.1 C 5.08 g/m*3 19.1 C 0 km/h
2849 24-03-2010 18:07:01 18.5 C 5.22 g/m*3 18.5 C 0 km/h
2850 24-03-2010 18:19:02 17.9 C 5.65 g/m*3 17.9 C 0 km/h
Sensor: Nr:Datum:Temp:Abs-Feuchte:Windchill:Wind:
Aussen-T/F 2851 24-03-2010 18:31:01 17.4 C 5.48 g/m*3 17.4 C 0 km/h
2852 24-03-2010 18:43:01 16.5 C 5.62 g/m*3 16.5 C 0 km/h
2853 24-03-2010 18:55:02 15.8 C 5.38 g/m*3 15.8 C 0 km/h
2854 24-03-2010 19:07:02 15.4 C 5.52 g/m*3 15.4 C 0 km/h
2855 24-03-2010 19:19:02 15 C 5.51 g/m*3 15 C 0 km/h
2856 24-03-2010 19:31:03 14.5 C 5.6 g/m*3 14.5 C 0 km/h
2857 24-03-2010 19:43:03 14.4 C 5.56 g/m*3 14.4 C 0 km/h
2858 24-03-2010 19:55:02 14.2 C 5.49 g/m*3 14.2 C 0 km/h
2859 24-03-2010 20:07:01 14 C 5.67 g/m*3 14 C 0 km/h
2860 24-03-2010 20:19:02 14 C 5.55 g/m*3 14 C 0 km/h
2861 24-03-2010 20:31:02 13.8 C 5.48 g/m*3 13.8 C 0 km/h
2862 24-03-2010 20:43:02 13.8 C 5.6 g/m*3 13.8 C 0 km/h
2863 24-03-2010 20:55:02 13.4 C 5.58 g/m*3 13.4 C 0 km/h
2864 24-03-2010 21:07:01 13.4 C 5.58 g/m*3 13.4 C 0 km/h
2865 24-03-2010 21:19:01 13.2 C 5.51 g/m*3 13.2 C 0 km/h
2866 24-03-2010 21:31:02 13.1 C 5.59 g/m*3 13.1 C 0 km/h
2867 24-03-2010 21:43:02 12.9 C 5.75 g/m*3 12.9 C 0 km/h
2868 24-03-2010 21:55:02 12.8 C 5.71 g/m*3 12.8 C 0 km/h
2869 24-03-2010 22:07:02 12.4 C 5.68 g/m*3 12.4 C 0 km/h
2870 24-03-2010 22:19:02 12.7 C 5.68 g/m*3 12.7 C 0 km/h
2871 24-03-2010 22:31:02 12.6 C 5.64 g/m*3 12.6 C 0 km/h
2872 24-03-2010 22:43:02 12.4 C 5.68 g/m*3 12.4 C 0 km/h
2873 24-03-2010 22:55:02 12 C 5.86 g/m*3 12 C 0 km/h
2874 24-03-2010 23:07:02 11.7 C 6.07 g/m*3 11.7 C 0 km/h
2875 24-03-2010 23:19:02 11.4 C 5.95 g/m*3 11.4 C 0 km/h
Sensor: Nr:Datum:Temp:Abs-Feuchte:Windchill:Wind:
Aussen-T/F 2876 24-03-2010 23:31:02 10.9 C 6.07 g/m*3 10.9 C 0 km/h
2877 24-03-2010 23:43:02 10.8 C 6.13 g/m*3 10.8 C 0 km/h
2878 24-03-2010 23:55:02 10.6 C 6.15 g/m*3 10.6 C 0 km/h
2879 25-03-2010 00:07:02 10.6 C 6.25 g/m*3 10.6 C 0 km/h
2880 25-03-2010 00:19:02 10.5 C 6.21 g/m*3 10.5 C 0 km/h
2881 25-03-2010 00:31:02 10.4 C 6.07 g/m*3 10.4 C 0 km/h
2882 25-03-2010 00:43:02 10.1 C 6.05 g/m*3 10.1 C 0 km/h
2883 25-03-2010 00:55:01 9.7 C 6.08 g/m*3 9.7 C 0 km/h
2884 25-03-2010 01:07:02 9.4 C 6.06 g/m*3 9.4 C 0 km/h
2885 25-03-2010 01:19:01 9.3 C 6.11 g/m*3 9.3 C 0 km/h
2886 25-03-2010 01:31:01 9.2 C 6.16 g/m*3 9.2 C 0 km/h
2887 25-03-2010 01:43:01 9 C 6.08 g/m*3 9 C 0 km/h
2888 25-03-2010 01:55:01 8.9 C 6.13 g/m*3 8.9 C 0 km/h
2889 25-03-2010 02:07:02 8.9 C 6.22 g/m*3 8.9 C 0 km/h
2890 25-03-2010 02:19:02 8.8 C 6.18 g/m*3 8.8 C 0 km/h
2891 25-03-2010 02:31:01 8.6 C 6.19 g/m*3 8.6 C 0 km/h
2892 25-03-2010 02:43:01 8.7 C 6.23 g/m*3 8.7 C 0 km/h
2893 25-03-2010 02:55:01 8.6 C 6.27 g/m*3 8.6 C 0 km/h
2894 25-03-2010 03:07:01 8.7 C 6.31 g/m*3 8.7 C 0 km/h
2895 25-03-2010 03:19:01 8.6 C 6.27 g/m*3 8.6 C 0 km/h
2896 25-03-2010 03:31:01 8.4 C 6.28 g/m*3 8.4 C 0 km/h
2897 25-03-2010 03:43:01 8.1 C 6.16 g/m*3 8.1 C 0 km/h
2898 25-03-2010 03:55:01 7.9 C 6.24 g/m*3 7.9 C 0 km/h
2899 25-03-2010 04:07:02 7.7 C 6.24 g/m*3 7.7 C 0 km/h
2900 25-03-2010 04:19:01 7.6 C 6.28 g/m*3 7.6 C 0 km/h
Sensor: Nr:Datum:Temp:Abs-Feuchte:Windchill:Wind:
Aussen-T/F 2901 25-03-2010 04:31:01 7.7 C 6.32 g/m*3 7.7 C 0 km/h
2902 25-03-2010 04:43:01 7.9 C 6.49 g/m*3 7.9 C 0 km/h
2903 25-03-2010 04:55:01 7.8 C 6.45 g/m*3 7.8 C 0 km/h
2904 25-03-2010 05:07:01 7.6 C 6.44 g/m*3 7.6 C 0 km/h
2905 25-03-2010 05:19:01 7.5 C 6.4 g/m*3 7.5 C 0 km/h
2906 25-03-2010 05:31:01 7.3 C 6.4 g/m*3 7.3 C 0 km/h
2907 25-03-2010 05:43:01 7.2 C 6.36 g/m*3 7.2 C 0 km/h
2908 25-03-2010 05:55:01 7.2 C 6.36 g/m*3 7.2 C 0 km/h
2909 25-03-2010 06:07:01 7.3 C 6.48 g/m*3 7.3 C 0 km/h
2910 25-03-2010 06:19:02 7.4 C 6.44 g/m*3 7.4 C 0 km/h
2911 25-03-2010 06:31:01 7.4 C 6.44 g/m*3 7.4 C 0 km/h
2912 25-03-2010 06:43:01 7.5 C 6.48 g/m*3 7.5 C 0 km/h
2913 25-03-2010 06:55:01 7.6 C 6.53 g/m*3 7.6 C 0 km/h
2914 25-03-2010 07:07:01 7.8 C 6.53 g/m*3 7.8 C 0 km/h
2915 25-03-2010 07:19:02 7.9 C 6.57 g/m*3 7.9 C 0 km/h
2916 25-03-2010 07:31:01 7.6 C 6.61 g/m*3 7.6 C 0 km/h
2917 25-03-2010 07:43:01 7.9 C 6.9 g/m*3 7.9 C 0 km/h
2918 25-03-2010 07:55:02 8.2 C 6.95 g/m*3 8.2 C 0 km/h
2919 25-03-2010 08:07:01 8.2 C 6.87 g/m*3 8.2 C 0 km/h
2920 25-03-2010 08:19:02 8.1 C 6.82 g/m*3 8.1 C 0 km/h
2921 25-03-2010 08:31:01 8.2 C 6.95 g/m*3 8.2 C 0 km/h
2922 25-03-2010 08:43:01 8.4 C 7.04 g/m*3 8.4 C 0 km/h
2923 25-03-2010 08:55:02 8.8 C 7.22 g/m*3 8.8 C 0 km/h
2924 25-03-2010 09:07:01 9.5 C 7.46 g/m*3 9.5 C 0 km/h
2925 25-03-2010 09:19:01 10.4 C 7.61 g/m*3 10.4 C 0 km/h
Sensor: Nr:Datum:Temp:Abs-Feuchte:Windchill:Wind:
Aussen-T/F 2926 25-03-2010 09:31:02 11 C 7.31 g/m*3 11 C 0 km/h
2927 25-03-2010 09:43:02 11.5 C 7.33 g/m*3 11.5 C 0 km/h
2928 25-03-2010 09:55:02 11.9 C 7.31 g/m*3 11.9 C 0 km/h
2929 25-03-2010 10:07:01 12.4 C 7.21 g/m*3 12.4 C 0 km/h
2930 25-03-2010 10:19:01 12.6 C 7.08 g/m*3 12.6 C 0 km/h
2931 25-03-2010 10:31:02 13.1 C 7.3 g/m*3 13.1 C 0 km/h
2932 25-03-2010 10:43:02 14.1 C 7.4 g/m*3 14.1 C 0 km/h
2933 25-03-2010 10:55:01 14.7 C 7.05 g/m*3 14.7 C 0 km/h
2934 25-03-2010 11:07:02 15.7 C 6.69 g/m*3 15.7 C 0 km/h
2935 25-03-2010 11:19:01 16.8 C 6.43 g/m*3 16.8 C 0 km/h
2936 25-03-2010 11:31:02 17.9 C 5.95 g/m*3 17.9 C 0 km/h
2937 25-03-2010 11:43:02 18.5 C 5.85 g/m*3 18.5 C 0 km/h
2938 25-03-2010 11:55:01 18.8 C 5.64 g/m*3 18.8 C 0 km/h
2939 25-03-2010 12:07:02 19.5 C 5.2 g/m*3 19.5 C 0 km/h
2940 25-03-2010 12:19:01 19.3 C 4.64 g/m*3 19.3 C 0 km/h
2941 25-03-2010 12:31:01 20.2 C 4.55 g/m*3 20.2 C 0 km/h
2942 25-03-2010 12:43:01 21 C 4.4 g/m*3 21 C 0 km/h
2943 25-03-2010 12:55:01 21.6 C 4.55 g/m*3 21.6 C 0 km/h
2944 25-03-2010 13:07:02 22 C 4.27 g/m*3 22 C 0 km/h
2945 25-03-2010 13:19:01 22.2 C 3.93 g/m*3 22.2 C 0 km/h
2946 25-03-2010 13:31:01 22.8 C 4.06 g/m*3 22.8 C 0 km/h
2947 25-03-2010 13:43:01 22.7 C 4.04 g/m*3 22.7 C 0 km/h
2948 25-03-2010 13:55:01 23.2 C 4.16 g/m*3 23.2 C 0 km/h
2949 25-03-2010 14:07:01 22.8 C 4.06 g/m*3 22.8 C 0 km/h
2950 25-03-2010 14:19:02 22.9 C 4.09 g/m*3 22.9 C 0 km/h
Sensor: Nr:Datum:Temp:Abs-Feuchte:Windchill:Wind:
Aussen-T/F 2951 25-03-2010 14:31:01 23.3 C 4.18 g/m*3 23.3 C 0 km/h
2952 25-03-2010 14:43:01 23.8 C 4.3 g/m*3 23.8 C 0 km/h
2953 25-03-2010 14:55:01 23.7 C 4.28 g/m*3 23.7 C 0 km/h
2954 25-03-2010 15:07:01 23.2 C 4.16 g/m*3 23.2 C 0 km/h
2955 25-03-2010 15:19:02 22.8 C 4.06 g/m*3 22.8 C 0 km/h
2956 25-03-2010 15:31:01 23.4 C 4.21 g/m*3 23.4 C 0 km/h
2957 25-03-2010 15:43:01 23.6 C 4.25 g/m*3 23.6 C 0 km/h
2958 25-03-2010 15:55:02 23.7 C 4.28 g/m*3 23.7 C 0 km/h
2959 25-03-2010 16:07:01 23.6 C 4.25 g/m*3 23.6 C 0 km/h
2960 25-03-2010 16:19:02 24.1 C 4.38 g/m*3 24.1 C 0 km/h
2961 25-03-2010 16:31:01 23.6 C 4.25 g/m*3 23.6 C 0 km/h
2962 25-03-2010 16:43:01 22.8 C 4.06 g/m*3 22.8 C 0 km/h
2963 25-03-2010 16:55:02 21.9 C 4.44 g/m*3 21.9 C 0 km/h
2964 25-03-2010 17:07:01 21.5 C 4.71 g/m*3 21.5 C 0 km/h
2965 25-03-2010 17:19:01 20.9 C 4.55 g/m*3 20.9 C 0 km/h
2966 25-03-2010 17:31:01 20.7 C 4.68 g/m*3 20.7 C 0 km/h
2967 25-03-2010 17:43:01 20 C 5.01 g/m*3 20 C 0 km/h
2968 25-03-2010 17:55:01 19.5 C 5.37 g/m*3 19.5 C 0 km/h
2969 25-03-2010 18:07:02 19.6 C 5.23 g/m*3 19.6 C 0 km/h
2970 25-03-2010 18:19:02 19.5 C 5.87 g/m*3 19.5 C 0 km/h
2971 25-03-2010 18:31:01 19.3 C 5.31 g/m*3 19.3 C 0 km/h
2972 25-03-2010 18:43:01 18.7 C 5.6 g/m*3 18.7 C 0 km/h
2973 25-03-2010 18:55:02 18.5 C 5.85 g/m*3 18.5 C 0 km/h
2974 25-03-2010 19:07:01 18.3 C 5.79 g/m*3 18.3 C 0 km/h
2975 25-03-2010 19:19:02 17.8 C 5.62 g/m*3 17.8 C 0 km/h
Sensor: Nr:Datum:Temp:Abs-Feuchte:Windchill:Wind:
Aussen-T/F 2976 25-03-2010 19:31:01 17.2 C 5.86 g/m*3 17.2 C 0 km/h
2977 25-03-2010 19:43:01 16.8 C 5.86 g/m*3 16.8 C 0 km/h
2978 25-03-2010 19:55:02 16.4 C 5.72 g/m*3 16.4 C 0 km/h
2979 25-03-2010 20:07:01 16.1 C 5.76 g/m*3 16.1 C 0 km/h
2980 25-03-2010 20:19:01 15.8 C 5.79 g/m*3 15.8 C 0 km/h
2981 25-03-2010 20:31:02 15.4 C 5.91 g/m*3 15.4 C 0 km/h
2982 25-03-2010 20:43:02 15.2 C 5.97 g/m*3 15.2 C 0 km/h
2983 25-03-2010 20:55:02 15 C 5.9 g/m*3 15 C 0 km/h
2984 25-03-2010 21:07:01 14.9 C 5.99 g/m*3 14.9 C 0 km/h
2985 25-03-2010 21:19:01 14.7 C 6.04 g/m*3 14.7 C 0 km/h
2986 25-03-2010 21:31:02 14.5 C 6.09 g/m*3 14.5 C 0 km/h
2987 25-03-2010 21:43:02 14.1 C 6.07 g/m*3 14.1 C 0 km/h
2988 25-03-2010 21:55:01 13.8 C 6.2 g/m*3 13.8 C 0 km/h
2989 25-03-2010 22:07:02 13.6 C 6.24 g/m*3 13.6 C 0 km/h
2990 25-03-2010 22:19:01 13.4 C 6.28 g/m*3 13.4 C 0 km/h
2991 25-03-2010 22:31:01 13.1 C 6.39 g/m*3 13.1 C 0 km/h
2992 25-03-2010 22:43:01 13 C 6.35 g/m*3 13 C 0 km/h
2993 25-03-2010 22:55:01 13 C 6.24 g/m*3 13 C 0 km/h
2994 25-03-2010 23:07:02 13 C 6.46 g/m*3 13 C 0 km/h
2995 25-03-2010 23:19:01 12.6 C 6.31 g/m*3 12.6 C 0 km/h
2996 25-03-2010 23:31:02 12.7 C 6.57 g/m*3 12.7 C 0 km/h
2997 25-03-2010 23:43:02 12.6 C 6.53 g/m*3 12.6 C 0 km/h
2998 25-03-2010 23:55:01 12.5 C 6.6 g/m*3 12.5 C 0 km/h
2999 26-03-2010 00:07:02 12.5 C 6.71 g/m*3 12.5 C 0 km/h
3000 26-03-2010 00:19:02 12.4 C 6.66 g/m*3 12.4 C 0 km/h
Sensor: Nr:Datum:Temp:Abs-Feuchte:Windchill:Wind:
Aussen-T/F 3001 26-03-2010 00:31:01 12.4 C 6.66 g/m*3 12.4 C 0 km/h
3002 26-03-2010 00:43:01 12.2 C 6.58 g/m*3 12.2 C 0 km/h
3003 26-03-2010 00:55:02 12.1 C 6.65 g/m*3 12.1 C 0 km/h
3004 26-03-2010 01:07:01 12.3 C 6.62 g/m*3 12.3 C 0 km/h
3005 26-03-2010 01:19:02 12.2 C 6.58 g/m*3 12.2 C 0 km/h
3006 26-03-2010 01:31:01 12.5 C 6.6 g/m*3 12.5 C 0 km/h
3007 26-03-2010 01:43:01 13 C 6.58 g/m*3 13 C 0 km/h
3008 26-03-2010 01:55:02 13.8 C 6.55 g/m*3 13.8 C 0 km/h
3009 26-03-2010 02:07:01 13.4 C 6.28 g/m*3 13.4 C 0 km/h
3010 26-03-2010 02:19:01 12.7 C 6.46 g/m*3 12.7 C 0 km/h
3011 26-03-2010 02:31:02 12.4 C 6.66 g/m*3 12.4 C 0 km/h
3012 26-03-2010 02:43:02 12.1 C 6.76 g/m*3 12.1 C 0 km/h
3013 26-03-2010 02:56:05 12 C 6.82 g/m*3 12 C 0 km/h
3014 26-03-2010 03:08:06 11.6 C 6.76 g/m*3 11.6 C 0 km/h
3015 26-03-2010 03:20:05 11.6 C 6.86 g/m*3 11.6 C 0 km/h
3016 26-03-2010 03:32:03 11.8 C 6.95 g/m*3 11.8 C 0 km/h
3017 26-03-2010 03:44:03 12 C 6.82 g/m*3 12 C 0 km/h
3018 26-03-2010 03:56:03 12.1 C 6.86 g/m*3 12.1 C 0 km/h
3019 26-03-2010 04:08:02 11.7 C 6.9 g/m*3 11.7 C 0 km/h
3020 26-03-2010 04:20:02 11.2 C 6.79 g/m*3 11.2 C 0 km/h
3021 26-03-2010 04:32:02 11.2 C 6.99 g/m*3 11.2 C 0 km/h
3022 26-03-2010 04:44:02 11.1 C 6.95 g/m*3 11.1 C 0 km/h
3023 26-03-2010 04:56:02 11.2 C 6.89 g/m*3 11.2 C 0 km/h
3024 26-03-2010 05:08:02 11 C 6.81 g/m*3 11 C 0 km/h
3025 26-03-2010 05:20:02 10.9 C 6.86 g/m*3 10.9 C 0 km/h
Sensor: Nr:Datum:Temp:Abs-Feuchte:Windchill:Wind:
Aussen-T/F 3026 26-03-2010 05:32:01 10.7 C 6.88 g/m*3 10.7 C 0 km/h
3027 26-03-2010 05:44:01 10.9 C 6.96 g/m*3 10.9 C 0 km/h
3028 26-03-2010 05:56:02 11 C 7.01 g/m*3 11 C 0 km/h
3029 26-03-2010 06:08:01 10.8 C 6.92 g/m*3 10.8 C 0 km/h
3030 26-03-2010 06:20:02 10.5 C 6.98 g/m*3 10.5 C 0 km/h
3031 26-03-2010 06:32:02 10.2 C 6.85 g/m*3 10.2 C 0 km/h
3032 26-03-2010 06:44:02 10.2 C 6.95 g/m*3 10.2 C 0 km/h
3033 26-03-2010 06:56:02 10.2 C 6.95 g/m*3 10.2 C 0 km/h
3034 26-03-2010 07:08:02 10.3 C 6.99 g/m*3 10.3 C 0 km/h
3035 26-03-2010 07:20:02 10.6 C 7.22 g/m*3 10.6 C 0 km/h
3036 26-03-2010 07:32:02 10.7 C 7.17 g/m*3 10.7 C 0 km/h
3037 26-03-2010 07:44:02 10.8 C 7.22 g/m*3 10.8 C 0 km/h
3038 26-03-2010 07:56:02 11 C 7.11 g/m*3 11 C 0 km/h
3039 26-03-2010 08:08:02 11.5 C 7.23 g/m*3 11.5 C 0 km/h
3040 26-03-2010 08:20:01 11.5 C 7.13 g/m*3 11.5 C 0 km/h
3041 26-03-2010 08:32:02 11.7 C 7.22 g/m*3 11.7 C 0 km/h
3042 26-03-2010 08:44:02 12.3 C 7.28 g/m*3 12.3 C 0 km/h
3043 26-03-2010 08:56:02 12.2 C 7.12 g/m*3 12.2 C 0 km/h
3044 26-03-2010 09:08:02 12.4 C 7.21 g/m*3 12.4 C 0 km/h
3045 26-03-2010 09:20:02 12.8 C 7.28 g/m*3 12.8 C 0 km/h
3046 26-03-2010 09:32:02 13.2 C 7.23 g/m*3 13.2 C 0 km/h
3047 26-03-2010 09:44:02 13.7 C 7.22 g/m*3 13.7 C 0 km/h
3048 26-03-2010 09:56:02 13.8 C 7.03 g/m*3 13.8 C 0 km/h
3049 26-03-2010 10:08:02 13.8 C 7.15 g/m*3 13.8 C 0 km/h
3050 26-03-2010 10:20:02 13.8 C 7.03 g/m*3 13.8 C 0 km/h
Sensor: Nr:Datum:Temp:Abs-Feuchte:Windchill:Wind:
Aussen-T/F 3051 26-03-2010 10:32:02 13.8 C 7.15 g/m*3 13.8 C 0 km/h
3052 26-03-2010 10:44:02 13.6 C 6.83 g/m*3 13.6 C 0 km/h
3053 26-03-2010 10:56:02 13.3 C 6.82 g/m*3 13.3 C 0 km/h
3054 26-03-2010 11:08:02 12.5 C 6.6 g/m*3 12.5 C 0 km/h
3055 26-03-2010 11:20:02 12.2 C 6.58 g/m*3 12.2 C 0 km/h
3056 26-03-2010 11:32:02 11 C 7.01 g/m*3 11 C 0 km/h
3057 26-03-2010 11:44:02 9.9 C 7.28 g/m*3 9.9 C 0 km/h
3058 26-03-2010 11:56:01 9 C 6.96 g/m*3 9 C 0 km/h
3059 26-03-2010 12:08:01 8.5 C 7.17 g/m*3 8.5 C 0 km/h
3060 26-03-2010 12:20:01 8.2 C 7.2 g/m*3 8.2 C 0 km/h
3061 26-03-2010 12:32:01 7.9 C 7.23 g/m*3 7.9 C 0 km/h
3062 26-03-2010 12:44:01 7.5 C 6.96 g/m*3 7.5 C 0 km/h
3063 26-03-2010 12:56:01 7.4 C 7 g/m*3 7.4 C 0 km/h
3064 26-03-2010 13:08:01 7.5 C 7.12 g/m*3 7.5 C 0 km/h
3065 26-03-2010 13:20:02 7.4 C 7.08 g/m*3 7.4 C 0 km/h
3066 26-03-2010 13:32:01 7.5 C 7.2 g/m*3 7.5 C 0 km/h
3067 26-03-2010 13:44:01 7.8 C 7.43 g/m*3 7.8 C 0 km/h
3068 26-03-2010 13:56:02 7.7 C 7.38 g/m*3 7.7 C 0 km/h
3069 26-03-2010 14:08:02 7.5 C 7.28 g/m*3 7.5 C 0 km/h
3070 26-03-2010 14:20:02 7.4 C 7.16 g/m*3 7.4 C 0 km/h
3071 26-03-2010 14:32:02 7.5 C 7.2 g/m*3 7.5 C 0 km/h
3072 26-03-2010 14:44:02 8.1 C 7.49 g/m*3 8.1 C 0 km/h
3073 26-03-2010 14:56:02 8.2 C 7.54 g/m*3 8.2 C 0 km/h
3074 26-03-2010 15:08:01 8.1 C 7.41 g/m*3 8.1 C 0 km/h
3075 26-03-2010 15:20:01 8.2 C 7.45 g/m*3 8.2 C 0 km/h
Sensor: Nr:Datum:Temp:Abs-Feuchte:Windchill:Wind:
Aussen-T/F 3076 26-03-2010 15:32:01 8.1 C 7.32 g/m*3 8.1 C 0 km/h
3077 26-03-2010 15:44:01 8.3 C 7.42 g/m*3 8.3 C 0 km/h
3078 26-03-2010 15:56:02 8.6 C 7.65 g/m*3 8.6 C 0 km/h
3079 26-03-2010 16:08:02 8.7 C 7.7 g/m*3 8.7 C 0 km/h
3080 26-03-2010 16:20:01 8.5 C 7.51 g/m*3 8.5 C 0 km/h
3081 26-03-2010 16:32:01 8.6 C 7.56 g/m*3 8.6 C 0 km/h
3082 26-03-2010 16:44:01 8.5 C 7.51 g/m*3 8.5 C 0 km/h
3083 26-03-2010 16:56:01 8.4 C 7.38 g/m*3 8.4 C 0 km/h
3084 26-03-2010 17:08:02 8.6 C 7.3 g/m*3 8.6 C 0 km/h
3085 26-03-2010 17:20:02 8.6 C 7.22 g/m*3 8.6 C 0 km/h
3086 26-03-2010 17:32:02 8.6 C 7.22 g/m*3 8.6 C 0 km/h
3087 26-03-2010 17:44:02 8.6 C 7.22 g/m*3 8.6 C 0 km/h
3088 26-03-2010 17:56:01 8.6 C 7.22 g/m*3 8.6 C 0 km/h
3089 26-03-2010 18:08:02 8.5 C 7.17 g/m*3 8.5 C 0 km/h
3090 26-03-2010 18:20:02 8.8 C 7.22 g/m*3 8.8 C 0 km/h
3091 26-03-2010 18:32:01 8.7 C 7.01 g/m*3 8.7 C 0 km/h
3092 26-03-2010 18:44:01 8.6 C 6.87 g/m*3 8.6 C 0 km/h
3093 26-03-2010 18:56:02 8.6 C 6.96 g/m*3 8.6 C 0 km/h
3094 26-03-2010 19:08:01 8.4 C 6.96 g/m*3 8.4 C 0 km/h
3095 26-03-2010 19:20:02 8.4 C 7.04 g/m*3 8.4 C 0 km/h
3096 26-03-2010 19:32:01 8.5 C 7.09 g/m*3 8.5 C 0 km/h
3097 26-03-2010 19:44:01 8.4 C 7.04 g/m*3 8.4 C 0 km/h
3098 26-03-2010 19:56:01 8.4 C 7.13 g/m*3 8.4 C 0 km/h
3099 26-03-2010 20:08:01 8.5 C 7.09 g/m*3 8.5 C 0 km/h
3100 26-03-2010 20:20:01 8.7 C 7.09 g/m*3 8.7 C 0 km/h
Sensor: Nr:Datum:Temp:Abs-Feuchte:Windchill:Wind:
Aussen-T/F 3101 26-03-2010 20:32:02 8.7 C 6.92 g/m*3 8.7 C 0 km/h
3102 26-03-2010 20:44:02 8.6 C 6.7 g/m*3 8.6 C 0 km/h
3103 26-03-2010 20:56:02 8.4 C 6.53 g/m*3 8.4 C 0 km/h
3104 26-03-2010 21:08:02 8.3 C 6.41 g/m*3 8.3 C 0 km/h
3105 26-03-2010 21:20:01 8.5 C 6.15 g/m*3 8.5 C 0 km/h
3106 26-03-2010 21:33:02 8.5 C 6.15 g/m*3 8.5 C 0 km/h
3107 26-03-2010 21:45:03 8.3 C 6.15 g/m*3 8.3 C 0 km/h
3108 26-03-2010 21:57:03 8.4 C 6.19 g/m*3 8.4 C 0 km/h
3109 26-03-2010 22:09:03 8.3 C 6.32 g/m*3 8.3 C 0 km/h
3110 26-03-2010 22:21:03 8.3 C 6.32 g/m*3 8.3 C 0 km/h
3111 26-03-2010 22:33:03 8.2 C 6.36 g/m*3 8.2 C 0 km/h
3112 26-03-2010 22:45:03 8.1 C 6.41 g/m*3 8.1 C 0 km/h
3113 26-03-2010 22:57:03 7.8 C 6.37 g/m*3 7.8 C 0 km/h
3114 26-03-2010 23:09:03 7.7 C 6.49 g/m*3 7.7 C 0 km/h
3115 26-03-2010 23:21:03 7.8 C 6.53 g/m*3 7.8 C 0 km/h
3116 26-03-2010 23:33:03 7.8 C 6.45 g/m*3 7.8 C 0 km/h
3117 26-03-2010 23:45:03 7.6 C 6.44 g/m*3 7.6 C 0 km/h
3118 26-03-2010 23:57:03 7.7 C 6.49 g/m*3 7.7 C 0 km/h
3119 27-03-2010 00:09:03 7.7 C 6.41 g/m*3 7.7 C 0 km/h
3120 27-03-2010 00:21:03 7.9 C 6.49 g/m*3 7.9 C 0 km/h
3121 27-03-2010 00:33:03 7.9 C 6.49 g/m*3 7.9 C 0 km/h
3122 27-03-2010 00:45:03 8 C 6.45 g/m*3 8 C 0 km/h
3123 27-03-2010 00:57:03 8.2 C 6.45 g/m*3 8.2 C 0 km/h
3124 27-03-2010 01:09:03 8.4 C 6.45 g/m*3 8.4 C 0 km/h
3125 27-03-2010 01:21:03 8.4 C 6.36 g/m*3 8.4 C 0 km/h
Sensor: Nr:Datum:Temp:Abs-Feuchte:Windchill:Wind:
Aussen-T/F 3126 27-03-2010 01:33:03 8.5 C 6.4 g/m*3 8.5 C 0 km/h
3127 27-03-2010 01:45:03 8.5 C 6.23 g/m*3 8.5 C 0 km/h
3128 27-03-2010 01:57:03 8.5 C 6.23 g/m*3 8.5 C 0 km/h
3129 27-03-2010 02:09:03 8.5 C 6.06 g/m*3 8.5 C 0 km/h
3130 27-03-2010 02:21:04 8.2 C 6.11 g/m*3 8.2 C 0 km/h
3131 27-03-2010 02:33:04 8.1 C 5.99 g/m*3 8.1 C 0 km/h
3132 27-03-2010 02:45:04 8 C 6.04 g/m*3 8 C 0 km/h
3133 27-03-2010 02:57:04 8.3 C 6.15 g/m*3 8.3 C 0 km/h
3134 27-03-2010 03:09:04 8.4 C 6.19 g/m*3 8.4 C 0 km/h
3135 27-03-2010 03:21:04 8.1 C 6.07 g/m*3 8.1 C 0 km/h
3136 27-03-2010 03:33:04 7.9 C 6.16 g/m*3 7.9 C 0 km/h
3137 27-03-2010 03:45:04 8 C 6.2 g/m*3 8 C 0 km/h
3138 27-03-2010 03:57:04 8.1 C 6.07 g/m*3 8.1 C 0 km/h
3139 27-03-2010 04:09:04 8.1 C 6.07 g/m*3 8.1 C 0 km/h
3140 27-03-2010 04:21:04 8.2 C 6.03 g/m*3 8.2 C 0 km/h
3141 27-03-2010 04:33:04 8.2 C 6.03 g/m*3 8.2 C 0 km/h
3142 27-03-2010 04:45:04 8.2 C 5.95 g/m*3 8.2 C 0 km/h
3143 27-03-2010 04:57:04 8.2 C 5.95 g/m*3 8.2 C 0 km/h
3144 27-03-2010 05:09:05 8.1 C 5.91 g/m*3 8.1 C 0 km/h
3145 27-03-2010 05:21:05 8.1 C 5.99 g/m*3 8.1 C 0 km/h
3146 27-03-2010 05:33:05 8.1 C 5.99 g/m*3 8.1 C 0 km/h
3147 27-03-2010 05:45:05 8 C 5.95 g/m*3 8 C 0 km/h
3148 27-03-2010 05:57:05 8 C 5.87 g/m*3 8 C 0 km/h
3149 27-03-2010 06:09:05 8 C 5.79 g/m*3 8 C 0 km/h
3150 27-03-2010 06:21:05 8 C 5.7 g/m*3 8 C 0 km/h
Sensor: Nr:Datum:Temp:Abs-Feuchte:Windchill:Wind:
Aussen-T/F 3151 27-03-2010 06:33:02 8.1 C 5.74 g/m*3 8.1 C 0 km/h
3152 27-03-2010 06:45:02 8.1 C 5.74 g/m*3 8.1 C 0 km/h
3153 27-03-2010 06:57:02 8.2 C 5.69 g/m*3 8.2 C 0 km/h
3154 27-03-2010 07:09:01 8.3 C 5.65 g/m*3 8.3 C 0 km/h
3155 27-03-2010 07:21:02 8.4 C 5.68 g/m*3 8.4 C 0 km/h
3156 27-03-2010 07:33:02 8.5 C 5.72 g/m*3 8.5 C 0 km/h
3157 27-03-2010 07:45:02 8.5 C 5.64 g/m*3 8.5 C 0 km/h
3158 27-03-2010 07:57:02 8.5 C 5.72 g/m*3 8.5 C 0 km/h
3159 27-03-2010 08:09:02 8.5 C 5.72 g/m*3 8.5 C 0 km/h
3160 27-03-2010 08:21:02 8.7 C 5.79 g/m*3 8.7 C 0 km/h
3161 27-03-2010 08:33:02 8.9 C 5.69 g/m*3 8.9 C 0 km/h
3162 27-03-2010 08:45:01 9.3 C 5.75 g/m*3 9.3 C 0 km/h
3163 27-03-2010 08:57:01 9.6 C 5.68 g/m*3 9.6 C 0 km/h
3164 27-03-2010 09:09:02 10 C 5.54 g/m*3 10 C 0 km/h
3165 27-03-2010 09:21:01 9.8 C 5.57 g/m*3 9.8 C 0 km/h
3166 27-03-2010 09:33:02 9.5 C 5.55 g/m*3 9.5 C 0 km/h
3167 27-03-2010 09:45:02 9.7 C 5.62 g/m*3 9.7 C 0 km/h
3168 27-03-2010 09:57:02 9.7 C 5.72 g/m*3 9.7 C 0 km/h
3169 27-03-2010 10:09:02 9.7 C 5.62 g/m*3 9.7 C 0 km/h
3170 27-03-2010 10:21:02 9.8 C 5.66 g/m*3 9.8 C 0 km/h
3171 27-03-2010 10:33:02 10.1 C 5.2 g/m*3 10.1 C 0 km/h
3172 27-03-2010 10:45:01 10.6 C 5.17 g/m*3 10.6 C 0 km/h
3173 27-03-2010 10:57:01 11.1 C 5.14 g/m*3 11.1 C 0 km/h
3174 27-03-2010 11:09:02 11.5 C 4.96 g/m*3 11.5 C 0 km/h
3175 27-03-2010 11:21:01 11.3 C 4.79 g/m*3 11.3 C 0 km/h
Sensor: Nr:Datum:Temp:Abs-Feuchte:Windchill:Wind:
Aussen-T/F 3176 27-03-2010 11:33:02 11.3 C 5 g/m*3 11.3 C 0 km/h
3177 27-03-2010 11:45:02 11.7 C 4.92 g/m*3 11.7 C 0 km/h
3178 27-03-2010 11:57:02 11.8 C 4.95 g/m*3 11.8 C 0 km/h
3179 27-03-2010 12:09:02 11.9 C 4.87 g/m*3 11.9 C 0 km/h
3180 27-03-2010 12:21:01 11.8 C 4.74 g/m*3 11.8 C 0 km/h
3181 27-03-2010 12:33:02 11.9 C 4.98 g/m*3 11.9 C 0 km/h
3182 27-03-2010 12:45:03 11.6 C 5.3 g/m*3 11.6 C 0 km/h
3183 27-03-2010 12:57:03 10.8 C 5.73 g/m*3 10.8 C 0 km/h
3184 27-03-2010 13:09:02 10.7 C 5.89 g/m*3 10.7 C 0 km/h
3185 27-03-2010 13:21:02 11.4 C 5.85 g/m*3 11.4 C 0 km/h
3186 27-03-2010 13:33:02 11.3 C 5.61 g/m*3 11.3 C 0 km/h
3187 27-03-2010 13:45:02 11.4 C 5.34 g/m*3 11.4 C 0 km/h
3188 27-03-2010 13:57:02 12 C 5.12 g/m*3 12 C 0 km/h
3189 27-03-2010 14:09:02 11.8 C 5.16 g/m*3 11.8 C 0 km/h
3190 27-03-2010 14:21:02 11.2 C 4.97 g/m*3 11.2 C 0 km/h
3191 27-03-2010 14:33:01 11.1 C 5.04 g/m*3 11.1 C 0 km/h
3192 27-03-2010 14:45:02 10.9 C 5.07 g/m*3 10.9 C 0 km/h
3193 27-03-2010 14:57:03 11 C 5 g/m*3 11 C 0 km/h
3194 27-03-2010 15:09:01 11.2 C 4.97 g/m*3 11.2 C 0 km/h
3195 27-03-2010 15:21:01 11.2 C 4.87 g/m*3 11.2 C 0 km/h
3196 27-03-2010 15:33:02 11.8 C 4.95 g/m*3 11.8 C 0 km/h
3197 27-03-2010 15:45:02 12.5 C 4.84 g/m*3 12.5 C 0 km/h
3198 27-03-2010 15:57:02 12.1 C 4.72 g/m*3 12.1 C 0 km/h
3199 27-03-2010 16:09:02 11.2 C 4.87 g/m*3 11.2 C 0 km/h
3200 27-03-2010 16:21:02 10.8 C 5.04 g/m*3 10.8 C 0 km/h
Sensor: Nr:Datum:Temp:Abs-Feuchte:Windchill:Wind:
Aussen-T/F 3201 27-03-2010 16:33:02 10.8 C 5.04 g/m*3 10.8 C 0 km/h
3202 27-03-2010 16:45:02 10.7 C 5.11 g/m*3 10.7 C 0 km/h
3203 27-03-2010 16:57:02 10.7 C 5.11 g/m*3 10.7 C 0 km/h
3204 27-03-2010 17:09:03 11 C 5.1 g/m*3 11 C 0 km/h
3205 27-03-2010 17:21:02 11.6 C 5.09 g/m*3 11.6 C 0 km/h
3206 27-03-2010 17:33:02 11.2 C 5.17 g/m*3 11.2 C 0 km/h
3207 27-03-2010 17:45:01 11.3 C 5.2 g/m*3 11.3 C 0 km/h
3208 27-03-2010 17:57:01 11.8 C 5.05 g/m*3 11.8 C 0 km/h
3209 27-03-2010 18:09:02 11.4 C 5.13 g/m*3 11.4 C 0 km/h
3210 27-03-2010 18:21:01 11.4 C 5.13 g/m*3 11.4 C 0 km/h
3211 27-03-2010 18:33:01 11.3 C 5 g/m*3 11.3 C 0 km/h
3212 27-03-2010 18:45:01 10.5 C 5.14 g/m*3 10.5 C 0 km/h
3213 27-03-2010 18:57:01 10 C 5.17 g/m*3 10 C 0 km/h
3214 27-03-2010 19:09:01 9.5 C 5.19 g/m*3 9.5 C 0 km/h
3215 27-03-2010 19:21:02 9.2 C 5.27 g/m*3 9.2 C 0 km/h
3216 27-03-2010 19:33:01 8.9 C 5.34 g/m*3 8.9 C 0 km/h
3217 27-03-2010 19:45:02 8.7 C 5.45 g/m*3 8.7 C 0 km/h
3218 27-03-2010 19:57:02 8.5 C 5.55 g/m*3 8.5 C 0 km/h
3219 27-03-2010 20:09:02 8.3 C 5.56 g/m*3 8.3 C 0 km/h
3220 27-03-2010 20:21:02 8.2 C 5.61 g/m*3 8.2 C 0 km/h
3221 27-03-2010 20:33:01 7.9 C 5.67 g/m*3 7.9 C 0 km/h
3222 27-03-2010 20:45:02 7.7 C 5.76 g/m*3 7.7 C 0 km/h
3223 27-03-2010 20:57:02 7.5 C 5.76 g/m*3 7.5 C 0 km/h
3224 27-03-2010 21:09:01 7.4 C 5.81 g/m*3 7.4 C 0 km/h
3225 27-03-2010 21:21:01 7.4 C 5.96 g/m*3 7.4 C 0 km/h
Sensor: Nr:Datum:Temp:Abs-Feuchte:Windchill:Wind:
Aussen-T/F 3226 27-03-2010 21:33:02 7.2 C 5.97 g/m*3 7.2 C 0 km/h
3227 27-03-2010 21:45:02 7.2 C 6.04 g/m*3 7.2 C 0 km/h
3228 27-03-2010 21:57:02 7.1 C 6.08 g/m*3 7.1 C 0 km/h
3229 27-03-2010 22:09:02 7.2 C 6.12 g/m*3 7.2 C 0 km/h
3230 27-03-2010 22:21:02 7.1 C 6.16 g/m*3 7.1 C 0 km/h
3231 27-03-2010 22:33:02 7.2 C 6.2 g/m*3 7.2 C 0 km/h
3232 27-03-2010 22:45:02 7.4 C 6.28 g/m*3 7.4 C 0 km/h
3233 27-03-2010 22:57:02 7.4 C 6.2 g/m*3 7.4 C 0 km/h
3234 27-03-2010 23:09:03 7.7 C 6.16 g/m*3 7.7 C 0 km/h
3235 27-03-2010 23:21:02 7.8 C 6.04 g/m*3 7.8 C 0 km/h
3236 27-03-2010 23:33:03 8 C 5.87 g/m*3 8 C 0 km/h
3237 27-03-2010 23:45:02 7.7 C 6 g/m*3 7.7 C 0 km/h
3238 27-03-2010 23:57:02 7.7 C 6 g/m*3 7.7 C 0 km/h
3239 28-03-2010 00:09:02 7.7 C 6 g/m*3 7.7 C 0 km/h
3240 28-03-2010 00:21:02 7.4 C 5.96 g/m*3 7.4 C 0 km/h
3241 28-03-2010 00:33:02 7.5 C 6.08 g/m*3 7.5 C 0 km/h
3242 28-03-2010 00:45:02 7.7 C 6.08 g/m*3 7.7 C 0 km/h
3243 28-03-2010 00:57:02 7.7 C 6.08 g/m*3 7.7 C